<?xml version="1.0" encoding="UTF-8" standalone="no" ?>
<gpx xmlns="http://www.topografix.com/GPX/1/1" xmlns:xsi="http://www.w3.org/2001/XMLSchema-instance" xsi:schemaLocation="http://www.topografix.com/GPX/1/1 http://www.topografix.com/GPX/1/1/gpx.xsd" version="1.1" creator="VisuGPX - https://www.visugpx.com">
  <metadata>
    <name>En BEYS en boucle par la jasse DE LA</name>
    <desc><![CDATA[Aucune difficulté technique pas temps sec.
Le chemin en balcon entre le refuge et la jasse peut cependant impressionner les personnes sensibles au vertige.]]></desc>
  </metadata>
  <trk>
    <name><![CDATA[20180708191859-rtkB6]]></name>
    <trkseg>
      <trkpt lat="42.67882" lon="1.94911">
        <ele>1147</ele>
        <time>2018-07-07T08:38:17Z</time>
      </trkpt>
      <trkpt lat="42.6788" lon="1.94921">
        <ele>1149</ele>
        <time>2018-07-07T08:40:31Z</time>
      </trkpt>
      <trkpt lat="42.67872" lon="1.94935">
        <ele>1149</ele>
        <time>2018-07-07T08:40:42Z</time>
      </trkpt>
      <trkpt lat="42.67865" lon="1.94943">
        <ele>1149</ele>
        <time>2018-07-07T08:40:55Z</time>
      </trkpt>
      <trkpt lat="42.67856" lon="1.94953">
        <ele>1149</ele>
        <time>2018-07-07T08:41:08Z</time>
      </trkpt>
      <trkpt lat="42.67847" lon="1.94971">
        <ele>1149</ele>
        <time>2018-07-07T08:41:23Z</time>
      </trkpt>
      <trkpt lat="42.67839" lon="1.94979">
        <ele>1148</ele>
        <time>2018-07-07T08:41:35Z</time>
      </trkpt>
      <trkpt lat="42.6783" lon="1.94989">
        <ele>1149</ele>
        <time>2018-07-07T08:41:45Z</time>
      </trkpt>
      <trkpt lat="42.67821" lon="1.95002">
        <ele>1149</ele>
        <time>2018-07-07T08:41:56Z</time>
      </trkpt>
      <trkpt lat="42.67812" lon="1.95011">
        <ele>1152</ele>
        <time>2018-07-07T08:42:07Z</time>
      </trkpt>
      <trkpt lat="42.67805" lon="1.95017">
        <ele>1153</ele>
        <time>2018-07-07T08:42:19Z</time>
      </trkpt>
      <trkpt lat="42.67796" lon="1.95027">
        <ele>1154</ele>
        <time>2018-07-07T08:42:31Z</time>
      </trkpt>
      <trkpt lat="42.67787" lon="1.95038">
        <ele>1155</ele>
        <time>2018-07-07T08:42:43Z</time>
      </trkpt>
      <trkpt lat="42.67775" lon="1.95051">
        <ele>1156</ele>
        <time>2018-07-07T08:42:57Z</time>
      </trkpt>
      <trkpt lat="42.67768" lon="1.95061">
        <ele>1156</ele>
        <time>2018-07-07T08:43:08Z</time>
      </trkpt>
      <trkpt lat="42.67759" lon="1.95072">
        <ele>1157</ele>
        <time>2018-07-07T08:43:19Z</time>
      </trkpt>
      <trkpt lat="42.67752" lon="1.95087">
        <ele>1158</ele>
        <time>2018-07-07T08:43:31Z</time>
      </trkpt>
      <trkpt lat="42.67743" lon="1.95098">
        <ele>1162</ele>
        <time>2018-07-07T08:43:41Z</time>
      </trkpt>
      <trkpt lat="42.67735" lon="1.95106">
        <ele>1164</ele>
        <time>2018-07-07T08:43:52Z</time>
      </trkpt>
      <trkpt lat="42.67727" lon="1.95116">
        <ele>1165</ele>
        <time>2018-07-07T08:44:06Z</time>
      </trkpt>
      <trkpt lat="42.67721" lon="1.95128">
        <ele>1166</ele>
        <time>2018-07-07T08:44:16Z</time>
      </trkpt>
      <trkpt lat="42.67711" lon="1.95138">
        <ele>1166</ele>
        <time>2018-07-07T08:44:27Z</time>
      </trkpt>
      <trkpt lat="42.67701" lon="1.95148">
        <ele>1167</ele>
        <time>2018-07-07T08:44:38Z</time>
      </trkpt>
      <trkpt lat="42.67693" lon="1.95165">
        <ele>1168</ele>
        <time>2018-07-07T08:44:52Z</time>
      </trkpt>
      <trkpt lat="42.67686" lon="1.95176">
        <ele>1167</ele>
        <time>2018-07-07T08:45:04Z</time>
      </trkpt>
      <trkpt lat="42.67674" lon="1.95181">
        <ele>1167</ele>
        <time>2018-07-07T08:45:15Z</time>
      </trkpt>
      <trkpt lat="42.6766" lon="1.95188">
        <ele>1174</ele>
        <time>2018-07-07T08:45:28Z</time>
      </trkpt>
      <trkpt lat="42.67647" lon="1.95193">
        <ele>1175</ele>
        <time>2018-07-07T08:45:41Z</time>
      </trkpt>
      <trkpt lat="42.67636" lon="1.95197">
        <ele>1176</ele>
        <time>2018-07-07T08:45:54Z</time>
      </trkpt>
      <trkpt lat="42.67623" lon="1.95205">
        <ele>1177</ele>
        <time>2018-07-07T08:46:07Z</time>
      </trkpt>
      <trkpt lat="42.67613" lon="1.95213">
        <ele>1177</ele>
        <time>2018-07-07T08:46:17Z</time>
      </trkpt>
      <trkpt lat="42.67606" lon="1.95222">
        <ele>1177</ele>
        <time>2018-07-07T08:46:28Z</time>
      </trkpt>
      <trkpt lat="42.676" lon="1.95232">
        <ele>1177</ele>
        <time>2018-07-07T08:46:40Z</time>
      </trkpt>
      <trkpt lat="42.67594" lon="1.95244">
        <ele>1176</ele>
        <time>2018-07-07T08:46:51Z</time>
      </trkpt>
      <trkpt lat="42.67593" lon="1.95264">
        <ele>1172</ele>
        <time>2018-07-07T08:47:02Z</time>
      </trkpt>
      <trkpt lat="42.6759" lon="1.95279">
        <ele>1171</ele>
        <time>2018-07-07T08:47:15Z</time>
      </trkpt>
      <trkpt lat="42.67592" lon="1.95303">
        <ele>1169</ele>
        <time>2018-07-07T08:47:26Z</time>
      </trkpt>
      <trkpt lat="42.67586" lon="1.95315">
        <ele>1169</ele>
        <time>2018-07-07T08:47:38Z</time>
      </trkpt>
      <trkpt lat="42.67577" lon="1.95322">
        <ele>1177</ele>
        <time>2018-07-07T08:47:49Z</time>
      </trkpt>
      <trkpt lat="42.67565" lon="1.95326">
        <ele>1180</ele>
        <time>2018-07-07T08:48:03Z</time>
      </trkpt>
      <trkpt lat="42.67556" lon="1.95333">
        <ele>1183</ele>
        <time>2018-07-07T08:48:15Z</time>
      </trkpt>
      <trkpt lat="42.67542" lon="1.9534">
        <ele>1181</ele>
        <time>2018-07-07T08:48:25Z</time>
      </trkpt>
      <trkpt lat="42.67533" lon="1.95349">
        <ele>1183</ele>
        <time>2018-07-07T08:48:37Z</time>
      </trkpt>
      <trkpt lat="42.67521" lon="1.95355">
        <ele>1184</ele>
        <time>2018-07-07T08:48:49Z</time>
      </trkpt>
      <trkpt lat="42.67511" lon="1.95357">
        <ele>1185</ele>
        <time>2018-07-07T08:48:58Z</time>
      </trkpt>
      <trkpt lat="42.675" lon="1.95364">
        <ele>1185</ele>
        <time>2018-07-07T08:49:16Z</time>
      </trkpt>
      <trkpt lat="42.67491" lon="1.95376">
        <ele>1195</ele>
        <time>2018-07-07T08:49:33Z</time>
      </trkpt>
      <trkpt lat="42.67478" lon="1.95386">
        <ele>1195</ele>
        <time>2018-07-07T08:49:51Z</time>
      </trkpt>
      <trkpt lat="42.67471" lon="1.95398">
        <ele>1194</ele>
        <time>2018-07-07T08:50:04Z</time>
      </trkpt>
      <trkpt lat="42.67466" lon="1.95411">
        <ele>1194</ele>
        <time>2018-07-07T08:50:16Z</time>
      </trkpt>
      <trkpt lat="42.67459" lon="1.95423">
        <ele>1189</ele>
        <time>2018-07-07T08:50:28Z</time>
      </trkpt>
      <trkpt lat="42.67452" lon="1.95431">
        <ele>1190</ele>
        <time>2018-07-07T08:50:39Z</time>
      </trkpt>
      <trkpt lat="42.67444" lon="1.95439">
        <ele>1191</ele>
        <time>2018-07-07T08:50:50Z</time>
      </trkpt>
      <trkpt lat="42.67434" lon="1.95447">
        <ele>1191</ele>
        <time>2018-07-07T08:51:04Z</time>
      </trkpt>
      <trkpt lat="42.67421" lon="1.95454">
        <ele>1191</ele>
        <time>2018-07-07T08:51:17Z</time>
      </trkpt>
      <trkpt lat="42.67413" lon="1.95467">
        <ele>1199</ele>
        <time>2018-07-07T08:51:28Z</time>
      </trkpt>
      <trkpt lat="42.67407" lon="1.95478">
        <ele>1198</ele>
        <time>2018-07-07T08:51:39Z</time>
      </trkpt>
      <trkpt lat="42.67395" lon="1.95489">
        <ele>1198</ele>
        <time>2018-07-07T08:51:58Z</time>
      </trkpt>
      <trkpt lat="42.67384" lon="1.95498">
        <ele>1200</ele>
        <time>2018-07-07T08:52:13Z</time>
      </trkpt>
      <trkpt lat="42.67372" lon="1.95503">
        <ele>1194</ele>
        <time>2018-07-07T08:52:25Z</time>
      </trkpt>
      <trkpt lat="42.67363" lon="1.95509">
        <ele>1195</ele>
        <time>2018-07-07T08:52:35Z</time>
      </trkpt>
      <trkpt lat="42.67355" lon="1.95515">
        <ele>1196</ele>
        <time>2018-07-07T08:52:45Z</time>
      </trkpt>
      <trkpt lat="42.67351" lon="1.95527">
        <ele>1195</ele>
        <time>2018-07-07T08:52:55Z</time>
      </trkpt>
      <trkpt lat="42.67345" lon="1.95537">
        <ele>1195</ele>
        <time>2018-07-07T08:53:04Z</time>
      </trkpt>
      <trkpt lat="42.6734" lon="1.95542">
        <ele>1194</ele>
        <time>2018-07-07T08:53:15Z</time>
      </trkpt>
      <trkpt lat="42.67338" lon="1.95551">
        <ele>1193</ele>
        <time>2018-07-07T08:53:25Z</time>
      </trkpt>
      <trkpt lat="42.67335" lon="1.95556">
        <ele>1193</ele>
        <time>2018-07-07T08:53:33Z</time>
      </trkpt>
      <trkpt lat="42.67331" lon="1.95559">
        <ele>1202</ele>
        <time>2018-07-07T08:53:46Z</time>
      </trkpt>
      <trkpt lat="42.67327" lon="1.95551">
        <ele>1204</ele>
        <time>2018-07-07T08:54:01Z</time>
      </trkpt>
      <trkpt lat="42.67326" lon="1.95533">
        <ele>1206</ele>
        <time>2018-07-07T08:54:19Z</time>
      </trkpt>
      <trkpt lat="42.67315" lon="1.95522">
        <ele>1208</ele>
        <time>2018-07-07T08:54:30Z</time>
      </trkpt>
      <trkpt lat="42.67305" lon="1.95529">
        <ele>1208</ele>
        <time>2018-07-07T08:54:45Z</time>
      </trkpt>
      <trkpt lat="42.67306" lon="1.95554">
        <ele>1206</ele>
        <time>2018-07-07T08:54:58Z</time>
      </trkpt>
      <trkpt lat="42.673" lon="1.9557">
        <ele>1206</ele>
        <time>2018-07-07T08:55:11Z</time>
      </trkpt>
      <trkpt lat="42.6729" lon="1.95582">
        <ele>1208</ele>
        <time>2018-07-07T08:55:28Z</time>
      </trkpt>
      <trkpt lat="42.6728" lon="1.95588">
        <ele>1204</ele>
        <time>2018-07-07T08:55:39Z</time>
      </trkpt>
      <trkpt lat="42.6727" lon="1.95599">
        <ele>1205</ele>
        <time>2018-07-07T08:55:55Z</time>
      </trkpt>
      <trkpt lat="42.67258" lon="1.95604">
        <ele>1207</ele>
        <time>2018-07-07T08:56:07Z</time>
      </trkpt>
      <trkpt lat="42.67245" lon="1.95613">
        <ele>1216</ele>
        <time>2018-07-07T08:56:23Z</time>
      </trkpt>
      <trkpt lat="42.67235" lon="1.95628">
        <ele>1215</ele>
        <time>2018-07-07T08:56:35Z</time>
      </trkpt>
      <trkpt lat="42.67222" lon="1.9564">
        <ele>1215</ele>
        <time>2018-07-07T08:56:50Z</time>
      </trkpt>
      <trkpt lat="42.6721" lon="1.95652">
        <ele>1216</ele>
        <time>2018-07-07T08:57:03Z</time>
      </trkpt>
      <trkpt lat="42.67202" lon="1.95667">
        <ele>1211</ele>
        <time>2018-07-07T08:57:17Z</time>
      </trkpt>
      <trkpt lat="42.67192" lon="1.95677">
        <ele>1212</ele>
        <time>2018-07-07T08:57:29Z</time>
      </trkpt>
      <trkpt lat="42.67181" lon="1.95687">
        <ele>1213</ele>
        <time>2018-07-07T08:57:45Z</time>
      </trkpt>
      <trkpt lat="42.67167" lon="1.95695">
        <ele>1213</ele>
        <time>2018-07-07T08:57:58Z</time>
      </trkpt>
      <trkpt lat="42.67153" lon="1.95701">
        <ele>1221</ele>
        <time>2018-07-07T08:58:09Z</time>
      </trkpt>
      <trkpt lat="42.67141" lon="1.95708">
        <ele>1222</ele>
        <time>2018-07-07T08:58:24Z</time>
      </trkpt>
      <trkpt lat="42.67127" lon="1.95715">
        <ele>1223</ele>
        <time>2018-07-07T08:58:39Z</time>
      </trkpt>
      <trkpt lat="42.67112" lon="1.95722">
        <ele>1224</ele>
        <time>2018-07-07T08:58:57Z</time>
      </trkpt>
      <trkpt lat="42.67093" lon="1.95724">
        <ele>1225</ele>
        <time>2018-07-07T08:59:10Z</time>
      </trkpt>
      <trkpt lat="42.67078" lon="1.95726">
        <ele>1246</ele>
        <time>2018-07-07T08:59:25Z</time>
      </trkpt>
      <trkpt lat="42.67068" lon="1.95732">
        <ele>1247</ele>
        <time>2018-07-07T08:59:42Z</time>
      </trkpt>
      <trkpt lat="42.67058" lon="1.95744">
        <ele>1249</ele>
        <time>2018-07-07T08:59:56Z</time>
      </trkpt>
      <trkpt lat="42.6706" lon="1.95757">
        <ele>1240</ele>
        <time>2018-07-07T09:00:12Z</time>
      </trkpt>
      <trkpt lat="42.67062" lon="1.95772">
        <ele>1241</ele>
        <time>2018-07-07T09:00:27Z</time>
      </trkpt>
      <trkpt lat="42.67061" lon="1.95786">
        <ele>1242</ele>
        <time>2018-07-07T09:00:42Z</time>
      </trkpt>
      <trkpt lat="42.67059" lon="1.95803">
        <ele>1242</ele>
        <time>2018-07-07T09:00:55Z</time>
      </trkpt>
      <trkpt lat="42.67055" lon="1.95815">
        <ele>1242</ele>
        <time>2018-07-07T09:01:09Z</time>
      </trkpt>
      <trkpt lat="42.67051" lon="1.95832">
        <ele>1242</ele>
        <time>2018-07-07T09:01:22Z</time>
      </trkpt>
      <trkpt lat="42.67052" lon="1.95851">
        <ele>1244</ele>
        <time>2018-07-07T09:01:36Z</time>
      </trkpt>
      <trkpt lat="42.6705" lon="1.95868">
        <ele>1246</ele>
        <time>2018-07-07T09:01:52Z</time>
      </trkpt>
      <trkpt lat="42.6705" lon="1.95884">
        <ele>1247</ele>
        <time>2018-07-07T09:02:04Z</time>
      </trkpt>
      <trkpt lat="42.67047" lon="1.959">
        <ele>1248</ele>
        <time>2018-07-07T09:02:17Z</time>
      </trkpt>
      <trkpt lat="42.67044" lon="1.95918">
        <ele>1250</ele>
        <time>2018-07-07T09:02:29Z</time>
      </trkpt>
      <trkpt lat="42.67045" lon="1.95934">
        <ele>1250</ele>
        <time>2018-07-07T09:02:40Z</time>
      </trkpt>
      <trkpt lat="42.67041" lon="1.95956">
        <ele>1251</ele>
        <time>2018-07-07T09:02:51Z</time>
      </trkpt>
      <trkpt lat="42.67031" lon="1.95962">
        <ele>1252</ele>
        <time>2018-07-07T09:03:02Z</time>
      </trkpt>
      <trkpt lat="42.67028" lon="1.95976">
        <ele>1251</ele>
        <time>2018-07-07T09:03:13Z</time>
      </trkpt>
      <trkpt lat="42.67022" lon="1.9599">
        <ele>1252</ele>
        <time>2018-07-07T09:03:25Z</time>
      </trkpt>
      <trkpt lat="42.67014" lon="1.95999">
        <ele>1252</ele>
        <time>2018-07-07T09:03:35Z</time>
      </trkpt>
      <trkpt lat="42.67008" lon="1.96011">
        <ele>1253</ele>
        <time>2018-07-07T09:03:47Z</time>
      </trkpt>
      <trkpt lat="42.67003" lon="1.96023">
        <ele>1252</ele>
        <time>2018-07-07T09:03:59Z</time>
      </trkpt>
      <trkpt lat="42.66995" lon="1.96032">
        <ele>1269</ele>
        <time>2018-07-07T09:04:09Z</time>
      </trkpt>
      <trkpt lat="42.66988" lon="1.96041">
        <ele>1271</ele>
        <time>2018-07-07T09:04:22Z</time>
      </trkpt>
      <trkpt lat="42.66979" lon="1.96049">
        <ele>1273</ele>
        <time>2018-07-07T09:04:31Z</time>
      </trkpt>
      <trkpt lat="42.66972" lon="1.96058">
        <ele>1273</ele>
        <time>2018-07-07T09:04:40Z</time>
      </trkpt>
      <trkpt lat="42.66964" lon="1.96068">
        <ele>1276</ele>
        <time>2018-07-07T09:04:52Z</time>
      </trkpt>
      <trkpt lat="42.66956" lon="1.96076">
        <ele>1278</ele>
        <time>2018-07-07T09:05:05Z</time>
      </trkpt>
      <trkpt lat="42.66946" lon="1.96084">
        <ele>1275</ele>
        <time>2018-07-07T09:05:17Z</time>
      </trkpt>
      <trkpt lat="42.66938" lon="1.96095">
        <ele>1278</ele>
        <time>2018-07-07T09:05:29Z</time>
      </trkpt>
      <trkpt lat="42.66932" lon="1.96104">
        <ele>1278</ele>
        <time>2018-07-07T09:05:40Z</time>
      </trkpt>
      <trkpt lat="42.66923" lon="1.96116">
        <ele>1276</ele>
        <time>2018-07-07T09:05:56Z</time>
      </trkpt>
      <trkpt lat="42.66917" lon="1.96128">
        <ele>1274</ele>
        <time>2018-07-07T09:06:08Z</time>
      </trkpt>
      <trkpt lat="42.6691" lon="1.96143">
        <ele>1289</ele>
        <time>2018-07-07T09:06:22Z</time>
      </trkpt>
      <trkpt lat="42.66898" lon="1.96149">
        <ele>1290</ele>
        <time>2018-07-07T09:06:32Z</time>
      </trkpt>
      <trkpt lat="42.66892" lon="1.96157">
        <ele>1290</ele>
        <time>2018-07-07T09:06:43Z</time>
      </trkpt>
      <trkpt lat="42.66882" lon="1.96169">
        <ele>1280</ele>
        <time>2018-07-07T09:06:54Z</time>
      </trkpt>
      <trkpt lat="42.66872" lon="1.96175">
        <ele>1282</ele>
        <time>2018-07-07T09:07:02Z</time>
      </trkpt>
      <trkpt lat="42.66863" lon="1.96182">
        <ele>1284</ele>
        <time>2018-07-07T09:07:12Z</time>
      </trkpt>
      <trkpt lat="42.66853" lon="1.96191">
        <ele>1285</ele>
        <time>2018-07-07T09:07:21Z</time>
      </trkpt>
      <trkpt lat="42.66845" lon="1.96201">
        <ele>1284</ele>
        <time>2018-07-07T09:07:33Z</time>
      </trkpt>
      <trkpt lat="42.66836" lon="1.96211">
        <ele>1282</ele>
        <time>2018-07-07T09:07:42Z</time>
      </trkpt>
      <trkpt lat="42.66828" lon="1.96221">
        <ele>1299</ele>
        <time>2018-07-07T09:07:53Z</time>
      </trkpt>
      <trkpt lat="42.66822" lon="1.96235">
        <ele>1293</ele>
        <time>2018-07-07T09:08:05Z</time>
      </trkpt>
      <trkpt lat="42.66813" lon="1.96243">
        <ele>1295</ele>
        <time>2018-07-07T09:08:15Z</time>
      </trkpt>
      <trkpt lat="42.66804" lon="1.9625">
        <ele>1300</ele>
        <time>2018-07-07T09:08:24Z</time>
      </trkpt>
      <trkpt lat="42.66795" lon="1.96255">
        <ele>1289</ele>
        <time>2018-07-07T09:08:32Z</time>
      </trkpt>
      <trkpt lat="42.66788" lon="1.96262">
        <ele>1291</ele>
        <time>2018-07-07T09:08:41Z</time>
      </trkpt>
      <trkpt lat="42.66782" lon="1.96273">
        <ele>1291</ele>
        <time>2018-07-07T09:08:53Z</time>
      </trkpt>
      <trkpt lat="42.66773" lon="1.96282">
        <ele>1292</ele>
        <time>2018-07-07T09:09:03Z</time>
      </trkpt>
      <trkpt lat="42.66764" lon="1.96289">
        <ele>1292</ele>
        <time>2018-07-07T09:09:14Z</time>
      </trkpt>
      <trkpt lat="42.6676" lon="1.96305">
        <ele>1290</ele>
        <time>2018-07-07T09:09:26Z</time>
      </trkpt>
      <trkpt lat="42.66756" lon="1.9632">
        <ele>1289</ele>
        <time>2018-07-07T09:09:38Z</time>
      </trkpt>
      <trkpt lat="42.66752" lon="1.96336">
        <ele>1287</ele>
        <time>2018-07-07T09:09:50Z</time>
      </trkpt>
      <trkpt lat="42.66741" lon="1.96347">
        <ele>1297</ele>
        <time>2018-07-07T09:10:01Z</time>
      </trkpt>
      <trkpt lat="42.66736" lon="1.96364">
        <ele>1299</ele>
        <time>2018-07-07T09:10:13Z</time>
      </trkpt>
      <trkpt lat="42.66726" lon="1.96376">
        <ele>1300</ele>
        <time>2018-07-07T09:10:25Z</time>
      </trkpt>
      <trkpt lat="42.66714" lon="1.96391">
        <ele>1301</ele>
        <time>2018-07-07T09:10:37Z</time>
      </trkpt>
      <trkpt lat="42.66705" lon="1.96405">
        <ele>1303</ele>
        <time>2018-07-07T09:10:48Z</time>
      </trkpt>
      <trkpt lat="42.66701" lon="1.96422">
        <ele>1295</ele>
        <time>2018-07-07T09:11:01Z</time>
      </trkpt>
      <trkpt lat="42.66694" lon="1.96436">
        <ele>1296</ele>
        <time>2018-07-07T09:11:11Z</time>
      </trkpt>
      <trkpt lat="42.66686" lon="1.96443">
        <ele>1296</ele>
        <time>2018-07-07T09:11:22Z</time>
      </trkpt>
      <trkpt lat="42.66681" lon="1.96459">
        <ele>1295</ele>
        <time>2018-07-07T09:11:34Z</time>
      </trkpt>
      <trkpt lat="42.66677" lon="1.96474">
        <ele>1293</ele>
        <time>2018-07-07T09:11:47Z</time>
      </trkpt>
      <trkpt lat="42.66662" lon="1.96482">
        <ele>1316</ele>
        <time>2018-07-07T09:11:59Z</time>
      </trkpt>
      <trkpt lat="42.66648" lon="1.96489">
        <ele>1319</ele>
        <time>2018-07-07T09:12:10Z</time>
      </trkpt>
      <trkpt lat="42.66644" lon="1.96507">
        <ele>1311</ele>
        <time>2018-07-07T09:12:25Z</time>
      </trkpt>
      <trkpt lat="42.66658" lon="1.96528">
        <ele>1310</ele>
        <time>2018-07-07T09:12:33Z</time>
      </trkpt>
      <trkpt lat="42.66664" lon="1.96544">
        <ele>1310</ele>
        <time>2018-07-07T09:12:42Z</time>
      </trkpt>
      <trkpt lat="42.66666" lon="1.9656">
        <ele>1308</ele>
        <time>2018-07-07T09:12:54Z</time>
      </trkpt>
      <trkpt lat="42.66662" lon="1.96571">
        <ele>1306</ele>
        <time>2018-07-07T09:13:08Z</time>
      </trkpt>
      <trkpt lat="42.66656" lon="1.96583">
        <ele>1305</ele>
        <time>2018-07-07T09:13:20Z</time>
      </trkpt>
      <trkpt lat="42.66652" lon="1.96597">
        <ele>1303</ele>
        <time>2018-07-07T09:13:30Z</time>
      </trkpt>
      <trkpt lat="42.66647" lon="1.96608">
        <ele>1304</ele>
        <time>2018-07-07T09:13:39Z</time>
      </trkpt>
      <trkpt lat="42.6664" lon="1.96617">
        <ele>1305</ele>
        <time>2018-07-07T09:13:52Z</time>
      </trkpt>
      <trkpt lat="42.66631" lon="1.96624">
        <ele>1305</ele>
        <time>2018-07-07T09:14:02Z</time>
      </trkpt>
      <trkpt lat="42.66621" lon="1.96629">
        <ele>1305</ele>
        <time>2018-07-07T09:14:12Z</time>
      </trkpt>
      <trkpt lat="42.66611" lon="1.9663">
        <ele>1305</ele>
        <time>2018-07-07T09:14:21Z</time>
      </trkpt>
      <trkpt lat="42.66602" lon="1.96631">
        <ele>1305</ele>
        <time>2018-07-07T09:14:29Z</time>
      </trkpt>
      <trkpt lat="42.66592" lon="1.96632">
        <ele>1304</ele>
        <time>2018-07-07T09:14:38Z</time>
      </trkpt>
      <trkpt lat="42.66583" lon="1.9663">
        <ele>1305</ele>
        <time>2018-07-07T09:14:47Z</time>
      </trkpt>
      <trkpt lat="42.66575" lon="1.96634">
        <ele>1310</ele>
        <time>2018-07-07T09:14:58Z</time>
      </trkpt>
      <trkpt lat="42.66563" lon="1.96633">
        <ele>1312</ele>
        <time>2018-07-07T09:15:08Z</time>
      </trkpt>
      <trkpt lat="42.66551" lon="1.96633">
        <ele>1313</ele>
        <time>2018-07-07T09:15:16Z</time>
      </trkpt>
      <trkpt lat="42.66539" lon="1.96632">
        <ele>1314</ele>
        <time>2018-07-07T09:15:28Z</time>
      </trkpt>
      <trkpt lat="42.6653" lon="1.9663">
        <ele>1315</ele>
        <time>2018-07-07T09:15:38Z</time>
      </trkpt>
      <trkpt lat="42.66518" lon="1.9663">
        <ele>1316</ele>
        <time>2018-07-07T09:15:47Z</time>
      </trkpt>
      <trkpt lat="42.66507" lon="1.96631">
        <ele>1316</ele>
        <time>2018-07-07T09:15:54Z</time>
      </trkpt>
      <trkpt lat="42.66495" lon="1.96632">
        <ele>1321</ele>
        <time>2018-07-07T09:16:03Z</time>
      </trkpt>
      <trkpt lat="42.66484" lon="1.96632">
        <ele>1322</ele>
        <time>2018-07-07T09:16:13Z</time>
      </trkpt>
      <trkpt lat="42.66473" lon="1.9663">
        <ele>1322</ele>
        <time>2018-07-07T09:16:25Z</time>
      </trkpt>
      <trkpt lat="42.66467" lon="1.96628">
        <ele>1323</ele>
        <time>2018-07-07T09:16:35Z</time>
      </trkpt>
      <trkpt lat="42.66456" lon="1.96628">
        <ele>1323</ele>
        <time>2018-07-07T09:16:43Z</time>
      </trkpt>
      <trkpt lat="42.66447" lon="1.96628">
        <ele>1323</ele>
        <time>2018-07-07T09:16:52Z</time>
      </trkpt>
      <trkpt lat="42.66438" lon="1.9663">
        <ele>1322</ele>
        <time>2018-07-07T09:17:01Z</time>
      </trkpt>
      <trkpt lat="42.66437" lon="1.96634">
        <ele>1321</ele>
        <time>2018-07-07T09:17:11Z</time>
      </trkpt>
      <trkpt lat="42.66422" lon="1.96633">
        <ele>1321</ele>
        <time>2018-07-07T09:19:52Z</time>
      </trkpt>
      <trkpt lat="42.66411" lon="1.96633">
        <ele>1326</ele>
        <time>2018-07-07T09:20:01Z</time>
      </trkpt>
      <trkpt lat="42.66399" lon="1.96632">
        <ele>1327</ele>
        <time>2018-07-07T09:20:12Z</time>
      </trkpt>
      <trkpt lat="42.66388" lon="1.9663">
        <ele>1329</ele>
        <time>2018-07-07T09:20:22Z</time>
      </trkpt>
      <trkpt lat="42.6638" lon="1.9663">
        <ele>1330</ele>
        <time>2018-07-07T09:20:38Z</time>
      </trkpt>
      <trkpt lat="42.66369" lon="1.9663">
        <ele>1331</ele>
        <time>2018-07-07T09:20:50Z</time>
      </trkpt>
      <trkpt lat="42.66359" lon="1.96632">
        <ele>1331</ele>
        <time>2018-07-07T09:21:02Z</time>
      </trkpt>
      <trkpt lat="42.66348" lon="1.96628">
        <ele>1333</ele>
        <time>2018-07-07T09:21:11Z</time>
      </trkpt>
      <trkpt lat="42.66335" lon="1.96625">
        <ele>1334</ele>
        <time>2018-07-07T09:21:21Z</time>
      </trkpt>
      <trkpt lat="42.66328" lon="1.96622">
        <ele>1342</ele>
        <time>2018-07-07T09:21:32Z</time>
      </trkpt>
      <trkpt lat="42.66319" lon="1.96615">
        <ele>1344</ele>
        <time>2018-07-07T09:21:44Z</time>
      </trkpt>
      <trkpt lat="42.66311" lon="1.96604">
        <ele>1346</ele>
        <time>2018-07-07T09:21:58Z</time>
      </trkpt>
      <trkpt lat="42.66297" lon="1.96604">
        <ele>1346</ele>
        <time>2018-07-07T09:22:13Z</time>
      </trkpt>
      <trkpt lat="42.66288" lon="1.96604">
        <ele>1346</ele>
        <time>2018-07-07T09:22:22Z</time>
      </trkpt>
      <trkpt lat="42.6628" lon="1.966">
        <ele>1347</ele>
        <time>2018-07-07T09:22:32Z</time>
      </trkpt>
      <trkpt lat="42.6627" lon="1.96601">
        <ele>1348</ele>
        <time>2018-07-07T09:22:41Z</time>
      </trkpt>
      <trkpt lat="42.66262" lon="1.96603">
        <ele>1349</ele>
        <time>2018-07-07T09:22:47Z</time>
      </trkpt>
      <trkpt lat="42.66254" lon="1.96606">
        <ele>1349</ele>
        <time>2018-07-07T09:22:55Z</time>
      </trkpt>
      <trkpt lat="42.66246" lon="1.96607">
        <ele>1353</ele>
        <time>2018-07-07T09:23:05Z</time>
      </trkpt>
      <trkpt lat="42.66238" lon="1.9661">
        <ele>1352</ele>
        <time>2018-07-07T09:23:13Z</time>
      </trkpt>
      <trkpt lat="42.66229" lon="1.96609">
        <ele>1352</ele>
        <time>2018-07-07T09:23:22Z</time>
      </trkpt>
      <trkpt lat="42.66219" lon="1.96612">
        <ele>1352</ele>
        <time>2018-07-07T09:23:32Z</time>
      </trkpt>
      <trkpt lat="42.66208" lon="1.96611">
        <ele>1352</ele>
        <time>2018-07-07T09:23:40Z</time>
      </trkpt>
      <trkpt lat="42.662" lon="1.96613">
        <ele>1352</ele>
        <time>2018-07-07T09:23:48Z</time>
      </trkpt>
      <trkpt lat="42.66193" lon="1.96612">
        <ele>1352</ele>
        <time>2018-07-07T09:23:57Z</time>
      </trkpt>
      <trkpt lat="42.66185" lon="1.96607">
        <ele>1354</ele>
        <time>2018-07-07T09:24:06Z</time>
      </trkpt>
      <trkpt lat="42.66178" lon="1.96608">
        <ele>1354</ele>
        <time>2018-07-07T09:24:15Z</time>
      </trkpt>
      <trkpt lat="42.66172" lon="1.96611">
        <ele>1354</ele>
        <time>2018-07-07T09:24:27Z</time>
      </trkpt>
      <trkpt lat="42.66163" lon="1.96617">
        <ele>1357</ele>
        <time>2018-07-07T09:24:42Z</time>
      </trkpt>
      <trkpt lat="42.66149" lon="1.96616">
        <ele>1357</ele>
        <time>2018-07-07T09:24:54Z</time>
      </trkpt>
      <trkpt lat="42.66139" lon="1.96611">
        <ele>1357</ele>
        <time>2018-07-07T09:25:08Z</time>
      </trkpt>
      <trkpt lat="42.66133" lon="1.96605">
        <ele>1357</ele>
        <time>2018-07-07T09:25:21Z</time>
      </trkpt>
      <trkpt lat="42.66125" lon="1.96603">
        <ele>1357</ele>
        <time>2018-07-07T09:25:33Z</time>
      </trkpt>
      <trkpt lat="42.66115" lon="1.966">
        <ele>1357</ele>
        <time>2018-07-07T09:25:47Z</time>
      </trkpt>
      <trkpt lat="42.66107" lon="1.96599">
        <ele>1357</ele>
        <time>2018-07-07T09:26:06Z</time>
      </trkpt>
      <trkpt lat="42.66099" lon="1.96591">
        <ele>1357</ele>
        <time>2018-07-07T09:26:21Z</time>
      </trkpt>
      <trkpt lat="42.66085" lon="1.96593">
        <ele>1356</ele>
        <time>2018-07-07T09:26:34Z</time>
      </trkpt>
      <trkpt lat="42.66077" lon="1.96582">
        <ele>1359</ele>
        <time>2018-07-07T09:26:49Z</time>
      </trkpt>
      <trkpt lat="42.66069" lon="1.96578">
        <ele>1362</ele>
        <time>2018-07-07T09:26:59Z</time>
      </trkpt>
      <trkpt lat="42.66056" lon="1.96569">
        <ele>1364</ele>
        <time>2018-07-07T09:27:14Z</time>
      </trkpt>
      <trkpt lat="42.66048" lon="1.96562">
        <ele>1366</ele>
        <time>2018-07-07T09:27:29Z</time>
      </trkpt>
      <trkpt lat="42.66038" lon="1.9656">
        <ele>1366</ele>
        <time>2018-07-07T09:27:40Z</time>
      </trkpt>
      <trkpt lat="42.66026" lon="1.96558">
        <ele>1366</ele>
        <time>2018-07-07T09:27:50Z</time>
      </trkpt>
      <trkpt lat="42.66012" lon="1.96549">
        <ele>1366</ele>
        <time>2018-07-07T09:28:00Z</time>
      </trkpt>
      <trkpt lat="42.65994" lon="1.9655">
        <ele>1368</ele>
        <time>2018-07-07T09:28:11Z</time>
      </trkpt>
      <trkpt lat="42.65981" lon="1.96544">
        <ele>1370</ele>
        <time>2018-07-07T09:28:36Z</time>
      </trkpt>
      <trkpt lat="42.65959" lon="1.96543">
        <ele>1371</ele>
        <time>2018-07-07T09:28:53Z</time>
      </trkpt>
      <trkpt lat="42.65949" lon="1.9653">
        <ele>1372</ele>
        <time>2018-07-07T09:29:06Z</time>
      </trkpt>
      <trkpt lat="42.65949" lon="1.96523">
        <ele>1373</ele>
        <time>2018-07-07T09:29:21Z</time>
      </trkpt>
      <trkpt lat="42.65942" lon="1.96513">
        <ele>1373</ele>
        <time>2018-07-07T09:29:30Z</time>
      </trkpt>
      <trkpt lat="42.65938" lon="1.96505">
        <ele>1374</ele>
        <time>2018-07-07T09:29:43Z</time>
      </trkpt>
      <trkpt lat="42.65929" lon="1.96489">
        <ele>1382</ele>
        <time>2018-07-07T09:30:02Z</time>
      </trkpt>
      <trkpt lat="42.65924" lon="1.96476">
        <ele>1384</ele>
        <time>2018-07-07T09:30:17Z</time>
      </trkpt>
      <trkpt lat="42.6591" lon="1.96466">
        <ele>1387</ele>
        <time>2018-07-07T09:30:29Z</time>
      </trkpt>
      <trkpt lat="42.65896" lon="1.96456">
        <ele>1389</ele>
        <time>2018-07-07T09:30:40Z</time>
      </trkpt>
      <trkpt lat="42.65887" lon="1.9645">
        <ele>1390</ele>
        <time>2018-07-07T09:30:53Z</time>
      </trkpt>
      <trkpt lat="42.65874" lon="1.96448">
        <ele>1390</ele>
        <time>2018-07-07T09:31:05Z</time>
      </trkpt>
      <trkpt lat="42.65866" lon="1.96456">
        <ele>1390</ele>
        <time>2018-07-07T09:31:28Z</time>
      </trkpt>
      <trkpt lat="42.65858" lon="1.96462">
        <ele>1390</ele>
        <time>2018-07-07T09:31:41Z</time>
      </trkpt>
      <trkpt lat="42.65851" lon="1.96465">
        <ele>1390</ele>
        <time>2018-07-07T09:31:53Z</time>
      </trkpt>
      <trkpt lat="42.65843" lon="1.96466">
        <ele>1390</ele>
        <time>2018-07-07T09:32:05Z</time>
      </trkpt>
      <trkpt lat="42.65832" lon="1.96467">
        <ele>1394</ele>
        <time>2018-07-07T09:32:15Z</time>
      </trkpt>
      <trkpt lat="42.65822" lon="1.96469">
        <ele>1394</ele>
        <time>2018-07-07T09:32:24Z</time>
      </trkpt>
      <trkpt lat="42.65812" lon="1.96471">
        <ele>1395</ele>
        <time>2018-07-07T09:32:33Z</time>
      </trkpt>
      <trkpt lat="42.65803" lon="1.96475">
        <ele>1395</ele>
        <time>2018-07-07T09:32:41Z</time>
      </trkpt>
      <trkpt lat="42.65793" lon="1.9648">
        <ele>1395</ele>
        <time>2018-07-07T09:32:50Z</time>
      </trkpt>
      <trkpt lat="42.65785" lon="1.96484">
        <ele>1395</ele>
        <time>2018-07-07T09:32:59Z</time>
      </trkpt>
      <trkpt lat="42.65777" lon="1.96485">
        <ele>1395</ele>
        <time>2018-07-07T09:33:08Z</time>
      </trkpt>
      <trkpt lat="42.65769" lon="1.96488">
        <ele>1395</ele>
        <time>2018-07-07T09:33:28Z</time>
      </trkpt>
      <trkpt lat="42.6576" lon="1.96486">
        <ele>1395</ele>
        <time>2018-07-07T09:33:37Z</time>
      </trkpt>
      <trkpt lat="42.65751" lon="1.96486">
        <ele>1395</ele>
        <time>2018-07-07T09:33:48Z</time>
      </trkpt>
      <trkpt lat="42.65741" lon="1.96488">
        <ele>1396</ele>
        <time>2018-07-07T09:33:58Z</time>
      </trkpt>
      <trkpt lat="42.6573" lon="1.96494">
        <ele>1396</ele>
        <time>2018-07-07T09:34:08Z</time>
      </trkpt>
      <trkpt lat="42.65721" lon="1.96495">
        <ele>1397</ele>
        <time>2018-07-07T09:34:19Z</time>
      </trkpt>
      <trkpt lat="42.6571" lon="1.965">
        <ele>1393</ele>
        <time>2018-07-07T09:34:32Z</time>
      </trkpt>
      <trkpt lat="42.657" lon="1.96499">
        <ele>1396</ele>
        <time>2018-07-07T09:34:41Z</time>
      </trkpt>
      <trkpt lat="42.65691" lon="1.96495">
        <ele>1396</ele>
        <time>2018-07-07T09:34:49Z</time>
      </trkpt>
      <trkpt lat="42.65683" lon="1.96491">
        <ele>1396</ele>
        <time>2018-07-07T09:34:57Z</time>
      </trkpt>
      <trkpt lat="42.65674" lon="1.96486">
        <ele>1395</ele>
        <time>2018-07-07T09:35:06Z</time>
      </trkpt>
      <trkpt lat="42.65665" lon="1.96482">
        <ele>1395</ele>
        <time>2018-07-07T09:35:14Z</time>
      </trkpt>
      <trkpt lat="42.65656" lon="1.96476">
        <ele>1395</ele>
        <time>2018-07-07T09:35:23Z</time>
      </trkpt>
      <trkpt lat="42.65649" lon="1.96469">
        <ele>1396</ele>
        <time>2018-07-07T09:35:32Z</time>
      </trkpt>
      <trkpt lat="42.65641" lon="1.96463">
        <ele>1396</ele>
        <time>2018-07-07T09:35:40Z</time>
      </trkpt>
      <trkpt lat="42.65634" lon="1.96457">
        <ele>1397</ele>
        <time>2018-07-07T09:35:48Z</time>
      </trkpt>
      <trkpt lat="42.65623" lon="1.96453">
        <ele>1397</ele>
        <time>2018-07-07T09:35:57Z</time>
      </trkpt>
      <trkpt lat="42.65615" lon="1.96447">
        <ele>1397</ele>
        <time>2018-07-07T09:36:06Z</time>
      </trkpt>
      <trkpt lat="42.65608" lon="1.9644">
        <ele>1397</ele>
        <time>2018-07-07T09:36:14Z</time>
      </trkpt>
      <trkpt lat="42.65599" lon="1.96434">
        <ele>1398</ele>
        <time>2018-07-07T09:36:22Z</time>
      </trkpt>
      <trkpt lat="42.65589" lon="1.9643">
        <ele>1398</ele>
        <time>2018-07-07T09:36:31Z</time>
      </trkpt>
      <trkpt lat="42.65578" lon="1.96427">
        <ele>1398</ele>
        <time>2018-07-07T09:36:40Z</time>
      </trkpt>
      <trkpt lat="42.6557" lon="1.96424">
        <ele>1398</ele>
        <time>2018-07-07T09:36:48Z</time>
      </trkpt>
      <trkpt lat="42.6556" lon="1.96421">
        <ele>1398</ele>
        <time>2018-07-07T09:36:57Z</time>
      </trkpt>
      <trkpt lat="42.65551" lon="1.96417">
        <ele>1398</ele>
        <time>2018-07-07T09:37:06Z</time>
      </trkpt>
      <trkpt lat="42.65542" lon="1.96413">
        <ele>1403</ele>
        <time>2018-07-07T09:37:15Z</time>
      </trkpt>
      <trkpt lat="42.65533" lon="1.96411">
        <ele>1403</ele>
        <time>2018-07-07T09:37:24Z</time>
      </trkpt>
      <trkpt lat="42.65523" lon="1.96407">
        <ele>1403</ele>
        <time>2018-07-07T09:37:33Z</time>
      </trkpt>
      <trkpt lat="42.65514" lon="1.96404">
        <ele>1403</ele>
        <time>2018-07-07T09:37:42Z</time>
      </trkpt>
      <trkpt lat="42.65505" lon="1.96401">
        <ele>1403</ele>
        <time>2018-07-07T09:37:51Z</time>
      </trkpt>
      <trkpt lat="42.65494" lon="1.96396">
        <ele>1402</ele>
        <time>2018-07-07T09:38:00Z</time>
      </trkpt>
      <trkpt lat="42.65484" lon="1.96392">
        <ele>1402</ele>
        <time>2018-07-07T09:38:09Z</time>
      </trkpt>
      <trkpt lat="42.65475" lon="1.96386">
        <ele>1402</ele>
        <time>2018-07-07T09:38:18Z</time>
      </trkpt>
      <trkpt lat="42.65467" lon="1.96379">
        <ele>1402</ele>
        <time>2018-07-07T09:38:27Z</time>
      </trkpt>
      <trkpt lat="42.65459" lon="1.96372">
        <ele>1402</ele>
        <time>2018-07-07T09:38:36Z</time>
      </trkpt>
      <trkpt lat="42.6545" lon="1.96364">
        <ele>1403</ele>
        <time>2018-07-07T09:38:45Z</time>
      </trkpt>
      <trkpt lat="42.65442" lon="1.96357">
        <ele>1403</ele>
        <time>2018-07-07T09:38:54Z</time>
      </trkpt>
      <trkpt lat="42.65432" lon="1.96352">
        <ele>1403</ele>
        <time>2018-07-07T09:39:03Z</time>
      </trkpt>
      <trkpt lat="42.65423" lon="1.96345">
        <ele>1403</ele>
        <time>2018-07-07T09:39:13Z</time>
      </trkpt>
      <trkpt lat="42.65414" lon="1.9634">
        <ele>1403</ele>
        <time>2018-07-07T09:39:22Z</time>
      </trkpt>
      <trkpt lat="42.65406" lon="1.96335">
        <ele>1403</ele>
        <time>2018-07-07T09:39:31Z</time>
      </trkpt>
      <trkpt lat="42.65397" lon="1.96329">
        <ele>1408</ele>
        <time>2018-07-07T09:39:40Z</time>
      </trkpt>
      <trkpt lat="42.65389" lon="1.96326">
        <ele>1409</ele>
        <time>2018-07-07T09:39:48Z</time>
      </trkpt>
      <trkpt lat="42.6538" lon="1.96318">
        <ele>1410</ele>
        <time>2018-07-07T09:39:57Z</time>
      </trkpt>
      <trkpt lat="42.65372" lon="1.96314">
        <ele>1411</ele>
        <time>2018-07-07T09:40:05Z</time>
      </trkpt>
      <trkpt lat="42.65364" lon="1.96309">
        <ele>1411</ele>
        <time>2018-07-07T09:40:13Z</time>
      </trkpt>
      <trkpt lat="42.65355" lon="1.96303">
        <ele>1412</ele>
        <time>2018-07-07T09:40:21Z</time>
      </trkpt>
      <trkpt lat="42.65347" lon="1.96298">
        <ele>1412</ele>
        <time>2018-07-07T09:40:29Z</time>
      </trkpt>
      <trkpt lat="42.65339" lon="1.96295">
        <ele>1413</ele>
        <time>2018-07-07T09:40:37Z</time>
      </trkpt>
      <trkpt lat="42.6533" lon="1.96292">
        <ele>1413</ele>
        <time>2018-07-07T09:40:46Z</time>
      </trkpt>
      <trkpt lat="42.65321" lon="1.9629">
        <ele>1414</ele>
        <time>2018-07-07T09:40:55Z</time>
      </trkpt>
      <trkpt lat="42.65312" lon="1.96289">
        <ele>1414</ele>
        <time>2018-07-07T09:41:05Z</time>
      </trkpt>
      <trkpt lat="42.65302" lon="1.96285">
        <ele>1414</ele>
        <time>2018-07-07T09:41:15Z</time>
      </trkpt>
      <trkpt lat="42.65293" lon="1.96283">
        <ele>1414</ele>
        <time>2018-07-07T09:41:25Z</time>
      </trkpt>
      <trkpt lat="42.65284" lon="1.96278">
        <ele>1414</ele>
        <time>2018-07-07T09:41:35Z</time>
      </trkpt>
      <trkpt lat="42.65276" lon="1.96273">
        <ele>1415</ele>
        <time>2018-07-07T09:41:46Z</time>
      </trkpt>
      <trkpt lat="42.65267" lon="1.96268">
        <ele>1415</ele>
        <time>2018-07-07T09:41:56Z</time>
      </trkpt>
      <trkpt lat="42.65259" lon="1.96263">
        <ele>1416</ele>
        <time>2018-07-07T09:42:07Z</time>
      </trkpt>
      <trkpt lat="42.65252" lon="1.96254">
        <ele>1418</ele>
        <time>2018-07-07T09:42:18Z</time>
      </trkpt>
      <trkpt lat="42.65245" lon="1.96243">
        <ele>1422</ele>
        <time>2018-07-07T09:42:29Z</time>
      </trkpt>
      <trkpt lat="42.65239" lon="1.96233">
        <ele>1426</ele>
        <time>2018-07-07T09:42:39Z</time>
      </trkpt>
      <trkpt lat="42.65231" lon="1.96231">
        <ele>1427</ele>
        <time>2018-07-07T09:42:49Z</time>
      </trkpt>
      <trkpt lat="42.65222" lon="1.9623">
        <ele>1428</ele>
        <time>2018-07-07T09:42:59Z</time>
      </trkpt>
      <trkpt lat="42.65213" lon="1.96228">
        <ele>1428</ele>
        <time>2018-07-07T09:43:09Z</time>
      </trkpt>
      <trkpt lat="42.65202" lon="1.96231">
        <ele>1428</ele>
        <time>2018-07-07T09:43:22Z</time>
      </trkpt>
      <trkpt lat="42.65194" lon="1.96228">
        <ele>1428</ele>
        <time>2018-07-07T09:43:33Z</time>
      </trkpt>
      <trkpt lat="42.65186" lon="1.96222">
        <ele>1429</ele>
        <time>2018-07-07T09:43:43Z</time>
      </trkpt>
      <trkpt lat="42.65178" lon="1.96216">
        <ele>1430</ele>
        <time>2018-07-07T09:43:53Z</time>
      </trkpt>
      <trkpt lat="42.65169" lon="1.96214">
        <ele>1430</ele>
        <time>2018-07-07T09:44:02Z</time>
      </trkpt>
      <trkpt lat="42.65159" lon="1.96211">
        <ele>1432</ele>
        <time>2018-07-07T09:44:12Z</time>
      </trkpt>
      <trkpt lat="42.6515" lon="1.96207">
        <ele>1433</ele>
        <time>2018-07-07T09:44:21Z</time>
      </trkpt>
      <trkpt lat="42.6514" lon="1.96209">
        <ele>1433</ele>
        <time>2018-07-07T09:44:30Z</time>
      </trkpt>
      <trkpt lat="42.6513" lon="1.9621">
        <ele>1433</ele>
        <time>2018-07-07T09:44:39Z</time>
      </trkpt>
      <trkpt lat="42.65119" lon="1.96213">
        <ele>1433</ele>
        <time>2018-07-07T09:44:48Z</time>
      </trkpt>
      <trkpt lat="42.6511" lon="1.96215">
        <ele>1433</ele>
        <time>2018-07-07T09:44:57Z</time>
      </trkpt>
      <trkpt lat="42.65101" lon="1.96217">
        <ele>1433</ele>
        <time>2018-07-07T09:45:06Z</time>
      </trkpt>
      <trkpt lat="42.65092" lon="1.96219">
        <ele>1433</ele>
        <time>2018-07-07T09:45:16Z</time>
      </trkpt>
      <trkpt lat="42.6508" lon="1.96223">
        <ele>1434</ele>
        <time>2018-07-07T09:48:15Z</time>
      </trkpt>
      <trkpt lat="42.65071" lon="1.96223">
        <ele>1434</ele>
        <time>2018-07-07T09:48:26Z</time>
      </trkpt>
      <trkpt lat="42.65063" lon="1.96223">
        <ele>1434</ele>
        <time>2018-07-07T09:48:38Z</time>
      </trkpt>
      <trkpt lat="42.65055" lon="1.96223">
        <ele>1434</ele>
        <time>2018-07-07T09:48:51Z</time>
      </trkpt>
      <trkpt lat="42.65045" lon="1.96225">
        <ele>1434</ele>
        <time>2018-07-07T09:49:06Z</time>
      </trkpt>
      <trkpt lat="42.65036" lon="1.96225">
        <ele>1434</ele>
        <time>2018-07-07T09:49:22Z</time>
      </trkpt>
      <trkpt lat="42.65027" lon="1.96221">
        <ele>1435</ele>
        <time>2018-07-07T09:49:33Z</time>
      </trkpt>
      <trkpt lat="42.65019" lon="1.96217">
        <ele>1435</ele>
        <time>2018-07-07T09:49:45Z</time>
      </trkpt>
      <trkpt lat="42.6501" lon="1.96215">
        <ele>1435</ele>
        <time>2018-07-07T09:49:55Z</time>
      </trkpt>
      <trkpt lat="42.65001" lon="1.96212">
        <ele>1435</ele>
        <time>2018-07-07T09:50:05Z</time>
      </trkpt>
      <trkpt lat="42.64992" lon="1.96208">
        <ele>1433</ele>
        <time>2018-07-07T09:50:15Z</time>
      </trkpt>
      <trkpt lat="42.64983" lon="1.96204">
        <ele>1433</ele>
        <time>2018-07-07T09:50:25Z</time>
      </trkpt>
      <trkpt lat="42.64973" lon="1.96202">
        <ele>1433</ele>
        <time>2018-07-07T09:50:34Z</time>
      </trkpt>
      <trkpt lat="42.64963" lon="1.96198">
        <ele>1433</ele>
        <time>2018-07-07T09:50:43Z</time>
      </trkpt>
      <trkpt lat="42.64955" lon="1.96194">
        <ele>1433</ele>
        <time>2018-07-07T09:50:51Z</time>
      </trkpt>
      <trkpt lat="42.64946" lon="1.9619">
        <ele>1432</ele>
        <time>2018-07-07T09:50:59Z</time>
      </trkpt>
      <trkpt lat="42.64938" lon="1.96183">
        <ele>1432</ele>
        <time>2018-07-07T09:51:07Z</time>
      </trkpt>
      <trkpt lat="42.64929" lon="1.9618">
        <ele>1432</ele>
        <time>2018-07-07T09:51:15Z</time>
      </trkpt>
      <trkpt lat="42.64921" lon="1.96177">
        <ele>1432</ele>
        <time>2018-07-07T09:51:23Z</time>
      </trkpt>
      <trkpt lat="42.64913" lon="1.96173">
        <ele>1431</ele>
        <time>2018-07-07T09:51:31Z</time>
      </trkpt>
      <trkpt lat="42.64904" lon="1.9617">
        <ele>1430</ele>
        <time>2018-07-07T09:51:39Z</time>
      </trkpt>
      <trkpt lat="42.64895" lon="1.96166">
        <ele>1438</ele>
        <time>2018-07-07T09:51:47Z</time>
      </trkpt>
      <trkpt lat="42.64887" lon="1.96159">
        <ele>1439</ele>
        <time>2018-07-07T09:51:56Z</time>
      </trkpt>
      <trkpt lat="42.64879" lon="1.96152">
        <ele>1440</ele>
        <time>2018-07-07T09:52:05Z</time>
      </trkpt>
      <trkpt lat="42.64871" lon="1.96146">
        <ele>1441</ele>
        <time>2018-07-07T09:52:13Z</time>
      </trkpt>
      <trkpt lat="42.64862" lon="1.96141">
        <ele>1441</ele>
        <time>2018-07-07T09:52:21Z</time>
      </trkpt>
      <trkpt lat="42.64852" lon="1.96137">
        <ele>1442</ele>
        <time>2018-07-07T09:52:30Z</time>
      </trkpt>
      <trkpt lat="42.64843" lon="1.96133">
        <ele>1442</ele>
        <time>2018-07-07T09:52:39Z</time>
      </trkpt>
      <trkpt lat="42.64834" lon="1.9613">
        <ele>1444</ele>
        <time>2018-07-07T09:52:47Z</time>
      </trkpt>
      <trkpt lat="42.64825" lon="1.96126">
        <ele>1445</ele>
        <time>2018-07-07T09:52:55Z</time>
      </trkpt>
      <trkpt lat="42.64815" lon="1.96121">
        <ele>1446</ele>
        <time>2018-07-07T09:53:04Z</time>
      </trkpt>
      <trkpt lat="42.64807" lon="1.96117">
        <ele>1447</ele>
        <time>2018-07-07T09:53:13Z</time>
      </trkpt>
      <trkpt lat="42.64797" lon="1.96113">
        <ele>1447</ele>
        <time>2018-07-07T09:53:22Z</time>
      </trkpt>
      <trkpt lat="42.64788" lon="1.9611">
        <ele>1447</ele>
        <time>2018-07-07T09:53:31Z</time>
      </trkpt>
      <trkpt lat="42.64777" lon="1.96114">
        <ele>1447</ele>
        <time>2018-07-07T09:53:40Z</time>
      </trkpt>
      <trkpt lat="42.64765" lon="1.96117">
        <ele>1446</ele>
        <time>2018-07-07T09:53:49Z</time>
      </trkpt>
      <trkpt lat="42.64756" lon="1.96119">
        <ele>1446</ele>
        <time>2018-07-07T09:53:59Z</time>
      </trkpt>
      <trkpt lat="42.64743" lon="1.96121">
        <ele>1442</ele>
        <time>2018-07-07T09:54:09Z</time>
      </trkpt>
      <trkpt lat="42.64732" lon="1.96121">
        <ele>1441</ele>
        <time>2018-07-07T09:54:18Z</time>
      </trkpt>
      <trkpt lat="42.6472" lon="1.96121">
        <ele>1441</ele>
        <time>2018-07-07T09:54:27Z</time>
      </trkpt>
      <trkpt lat="42.6471" lon="1.96121">
        <ele>1440</ele>
        <time>2018-07-07T09:54:36Z</time>
      </trkpt>
      <trkpt lat="42.647" lon="1.96121">
        <ele>1440</ele>
        <time>2018-07-07T09:54:44Z</time>
      </trkpt>
      <trkpt lat="42.64691" lon="1.96117">
        <ele>1441</ele>
        <time>2018-07-07T09:54:53Z</time>
      </trkpt>
      <trkpt lat="42.64684" lon="1.96109">
        <ele>1442</ele>
        <time>2018-07-07T09:55:02Z</time>
      </trkpt>
      <trkpt lat="42.64676" lon="1.96101">
        <ele>1444</ele>
        <time>2018-07-07T09:55:11Z</time>
      </trkpt>
      <trkpt lat="42.64667" lon="1.96096">
        <ele>1444</ele>
        <time>2018-07-07T09:55:20Z</time>
      </trkpt>
      <trkpt lat="42.64659" lon="1.96089">
        <ele>1445</ele>
        <time>2018-07-07T09:55:30Z</time>
      </trkpt>
      <trkpt lat="42.6465" lon="1.9608">
        <ele>1455</ele>
        <time>2018-07-07T09:55:40Z</time>
      </trkpt>
      <trkpt lat="42.6464" lon="1.96076">
        <ele>1457</ele>
        <time>2018-07-07T09:55:50Z</time>
      </trkpt>
      <trkpt lat="42.64629" lon="1.96068">
        <ele>1458</ele>
        <time>2018-07-07T09:56:00Z</time>
      </trkpt>
      <trkpt lat="42.6462" lon="1.96062">
        <ele>1458</ele>
        <time>2018-07-07T09:56:09Z</time>
      </trkpt>
      <trkpt lat="42.6461" lon="1.96055">
        <ele>1458</ele>
        <time>2018-07-07T09:56:19Z</time>
      </trkpt>
      <trkpt lat="42.64602" lon="1.96048">
        <ele>1459</ele>
        <time>2018-07-07T09:56:27Z</time>
      </trkpt>
      <trkpt lat="42.64593" lon="1.96042">
        <ele>1460</ele>
        <time>2018-07-07T09:56:35Z</time>
      </trkpt>
      <trkpt lat="42.64585" lon="1.96033">
        <ele>1462</ele>
        <time>2018-07-07T09:56:44Z</time>
      </trkpt>
      <trkpt lat="42.64577" lon="1.96025">
        <ele>1457</ele>
        <time>2018-07-07T09:56:52Z</time>
      </trkpt>
      <trkpt lat="42.64567" lon="1.9602">
        <ele>1457</ele>
        <time>2018-07-07T09:57:01Z</time>
      </trkpt>
      <trkpt lat="42.64557" lon="1.96015">
        <ele>1456</ele>
        <time>2018-07-07T09:57:11Z</time>
      </trkpt>
      <trkpt lat="42.64548" lon="1.96008">
        <ele>1456</ele>
        <time>2018-07-07T09:57:20Z</time>
      </trkpt>
      <trkpt lat="42.64541" lon="1.95999">
        <ele>1471</ele>
        <time>2018-07-07T09:57:29Z</time>
      </trkpt>
      <trkpt lat="42.64532" lon="1.95993">
        <ele>1470</ele>
        <time>2018-07-07T09:57:39Z</time>
      </trkpt>
      <trkpt lat="42.64522" lon="1.95987">
        <ele>1468</ele>
        <time>2018-07-07T09:57:48Z</time>
      </trkpt>
      <trkpt lat="42.64513" lon="1.95979">
        <ele>1468</ele>
        <time>2018-07-07T09:57:57Z</time>
      </trkpt>
      <trkpt lat="42.64502" lon="1.95969">
        <ele>1471</ele>
        <time>2018-07-07T09:58:06Z</time>
      </trkpt>
      <trkpt lat="42.64491" lon="1.95964">
        <ele>1463</ele>
        <time>2018-07-07T09:58:16Z</time>
      </trkpt>
      <trkpt lat="42.64482" lon="1.9596">
        <ele>1464</ele>
        <time>2018-07-07T09:58:27Z</time>
      </trkpt>
      <trkpt lat="42.64474" lon="1.95951">
        <ele>1466</ele>
        <time>2018-07-07T09:58:38Z</time>
      </trkpt>
      <trkpt lat="42.64465" lon="1.95945">
        <ele>1466</ele>
        <time>2018-07-07T09:58:47Z</time>
      </trkpt>
      <trkpt lat="42.64456" lon="1.95938">
        <ele>1465</ele>
        <time>2018-07-07T09:58:55Z</time>
      </trkpt>
      <trkpt lat="42.64448" lon="1.95931">
        <ele>1465</ele>
        <time>2018-07-07T09:59:05Z</time>
      </trkpt>
      <trkpt lat="42.64438" lon="1.95926">
        <ele>1464</ele>
        <time>2018-07-07T09:59:13Z</time>
      </trkpt>
      <trkpt lat="42.6443" lon="1.95923">
        <ele>1463</ele>
        <time>2018-07-07T09:59:25Z</time>
      </trkpt>
      <trkpt lat="42.6442" lon="1.95932">
        <ele>1463</ele>
        <time>2018-07-07T09:59:42Z</time>
      </trkpt>
      <trkpt lat="42.64411" lon="1.95938">
        <ele>1460</ele>
        <time>2018-07-07T09:59:52Z</time>
      </trkpt>
      <trkpt lat="42.64403" lon="1.95945">
        <ele>1460</ele>
        <time>2018-07-07T10:00:02Z</time>
      </trkpt>
      <trkpt lat="42.64398" lon="1.95956">
        <ele>1460</ele>
        <time>2018-07-07T10:00:11Z</time>
      </trkpt>
      <trkpt lat="42.64392" lon="1.95955">
        <ele>1460</ele>
        <time>2018-07-07T10:00:24Z</time>
      </trkpt>
      <trkpt lat="42.64382" lon="1.95945">
        <ele>1460</ele>
        <time>2018-07-07T10:00:36Z</time>
      </trkpt>
      <trkpt lat="42.64386" lon="1.95937">
        <ele>1460</ele>
        <time>2018-07-07T10:00:53Z</time>
      </trkpt>
      <trkpt lat="42.64378" lon="1.9594">
        <ele>1460</ele>
        <time>2018-07-07T10:01:26Z</time>
      </trkpt>
      <trkpt lat="42.64387" lon="1.95953">
        <ele>1460</ele>
        <time>2018-07-07T10:03:07Z</time>
      </trkpt>
      <trkpt lat="42.64367" lon="1.95942">
        <ele>1460</ele>
        <time>2018-07-07T10:41:16Z</time>
      </trkpt>
      <trkpt lat="42.64363" lon="1.95951">
        <ele>1461</ele>
        <time>2018-07-07T10:42:03Z</time>
      </trkpt>
      <trkpt lat="42.64355" lon="1.95947">
        <ele>1460</ele>
        <time>2018-07-07T10:42:15Z</time>
      </trkpt>
      <trkpt lat="42.64347" lon="1.95942">
        <ele>1460</ele>
        <time>2018-07-07T10:42:29Z</time>
      </trkpt>
      <trkpt lat="42.64337" lon="1.95941">
        <ele>1460</ele>
        <time>2018-07-07T10:42:44Z</time>
      </trkpt>
      <trkpt lat="42.64327" lon="1.95932">
        <ele>1465</ele>
        <time>2018-07-07T10:42:58Z</time>
      </trkpt>
      <trkpt lat="42.64318" lon="1.95924">
        <ele>1465</ele>
        <time>2018-07-07T10:43:10Z</time>
      </trkpt>
      <trkpt lat="42.64308" lon="1.95919">
        <ele>1468</ele>
        <time>2018-07-07T10:43:23Z</time>
      </trkpt>
      <trkpt lat="42.643" lon="1.95913">
        <ele>1466</ele>
        <time>2018-07-07T10:43:38Z</time>
      </trkpt>
      <trkpt lat="42.64291" lon="1.95907">
        <ele>1467</ele>
        <time>2018-07-07T10:43:51Z</time>
      </trkpt>
      <trkpt lat="42.64281" lon="1.95905">
        <ele>1469</ele>
        <time>2018-07-07T10:44:04Z</time>
      </trkpt>
      <trkpt lat="42.64274" lon="1.959">
        <ele>1469</ele>
        <time>2018-07-07T10:44:17Z</time>
      </trkpt>
      <trkpt lat="42.64268" lon="1.95891">
        <ele>1469</ele>
        <time>2018-07-07T10:44:29Z</time>
      </trkpt>
      <trkpt lat="42.6426" lon="1.95883">
        <ele>1469</ele>
        <time>2018-07-07T10:44:42Z</time>
      </trkpt>
      <trkpt lat="42.64254" lon="1.95874">
        <ele>1468</ele>
        <time>2018-07-07T10:44:55Z</time>
      </trkpt>
      <trkpt lat="42.64244" lon="1.95861">
        <ele>1476</ele>
        <time>2018-07-07T10:45:13Z</time>
      </trkpt>
      <trkpt lat="42.64242" lon="1.95846">
        <ele>1472</ele>
        <time>2018-07-07T10:45:29Z</time>
      </trkpt>
      <trkpt lat="42.64232" lon="1.95832">
        <ele>1473</ele>
        <time>2018-07-07T10:45:42Z</time>
      </trkpt>
      <trkpt lat="42.6423" lon="1.95819">
        <ele>1474</ele>
        <time>2018-07-07T10:45:54Z</time>
      </trkpt>
      <trkpt lat="42.64224" lon="1.95809">
        <ele>1476</ele>
        <time>2018-07-07T10:46:09Z</time>
      </trkpt>
      <trkpt lat="42.64221" lon="1.95793">
        <ele>1477</ele>
        <time>2018-07-07T10:46:23Z</time>
      </trkpt>
      <trkpt lat="42.64214" lon="1.95771">
        <ele>1478</ele>
        <time>2018-07-07T10:46:39Z</time>
      </trkpt>
      <trkpt lat="42.64211" lon="1.95756">
        <ele>1479</ele>
        <time>2018-07-07T10:46:50Z</time>
      </trkpt>
      <trkpt lat="42.64208" lon="1.95743">
        <ele>1483</ele>
        <time>2018-07-07T10:47:01Z</time>
      </trkpt>
      <trkpt lat="42.64204" lon="1.95732">
        <ele>1484</ele>
        <time>2018-07-07T10:47:13Z</time>
      </trkpt>
      <trkpt lat="42.64199" lon="1.95718">
        <ele>1484</ele>
        <time>2018-07-07T10:47:25Z</time>
      </trkpt>
      <trkpt lat="42.64197" lon="1.95705">
        <ele>1485</ele>
        <time>2018-07-07T10:47:37Z</time>
      </trkpt>
      <trkpt lat="42.64197" lon="1.95693">
        <ele>1485</ele>
        <time>2018-07-07T10:47:51Z</time>
      </trkpt>
      <trkpt lat="42.64195" lon="1.95676">
        <ele>1486</ele>
        <time>2018-07-07T10:48:06Z</time>
      </trkpt>
      <trkpt lat="42.64186" lon="1.95663">
        <ele>1491</ele>
        <time>2018-07-07T10:48:23Z</time>
      </trkpt>
      <trkpt lat="42.64179" lon="1.95653">
        <ele>1491</ele>
        <time>2018-07-07T10:48:43Z</time>
      </trkpt>
      <trkpt lat="42.64168" lon="1.95642">
        <ele>1491</ele>
        <time>2018-07-07T10:48:57Z</time>
      </trkpt>
      <trkpt lat="42.64164" lon="1.95631">
        <ele>1498</ele>
        <time>2018-07-07T10:49:18Z</time>
      </trkpt>
      <trkpt lat="42.64156" lon="1.9562">
        <ele>1499</ele>
        <time>2018-07-07T10:49:36Z</time>
      </trkpt>
      <trkpt lat="42.64151" lon="1.95609">
        <ele>1498</ele>
        <time>2018-07-07T10:49:54Z</time>
      </trkpt>
      <trkpt lat="42.64139" lon="1.95603">
        <ele>1500</ele>
        <time>2018-07-07T10:50:14Z</time>
      </trkpt>
      <trkpt lat="42.64127" lon="1.95601">
        <ele>1503</ele>
        <time>2018-07-07T10:50:32Z</time>
      </trkpt>
      <trkpt lat="42.6412" lon="1.95611">
        <ele>1505</ele>
        <time>2018-07-07T10:51:00Z</time>
      </trkpt>
      <trkpt lat="42.64114" lon="1.95622">
        <ele>1506</ele>
        <time>2018-07-07T10:51:25Z</time>
      </trkpt>
      <trkpt lat="42.64107" lon="1.95632">
        <ele>1508</ele>
        <time>2018-07-07T10:51:59Z</time>
      </trkpt>
      <trkpt lat="42.64091" lon="1.95631">
        <ele>1510</ele>
        <time>2018-07-07T10:52:24Z</time>
      </trkpt>
      <trkpt lat="42.64086" lon="1.95626">
        <ele>1511</ele>
        <time>2018-07-07T10:52:46Z</time>
      </trkpt>
      <trkpt lat="42.64086" lon="1.95607">
        <ele>1511</ele>
        <time>2018-07-07T10:53:00Z</time>
      </trkpt>
      <trkpt lat="42.64085" lon="1.95593">
        <ele>1514</ele>
        <time>2018-07-07T10:53:17Z</time>
      </trkpt>
      <trkpt lat="42.64085" lon="1.9558">
        <ele>1516</ele>
        <time>2018-07-07T10:53:38Z</time>
      </trkpt>
      <trkpt lat="42.64073" lon="1.95568">
        <ele>1531</ele>
        <time>2018-07-07T10:54:00Z</time>
      </trkpt>
      <trkpt lat="42.64073" lon="1.95555">
        <ele>1533</ele>
        <time>2018-07-07T10:54:24Z</time>
      </trkpt>
      <trkpt lat="42.64075" lon="1.95537">
        <ele>1533</ele>
        <time>2018-07-07T10:54:39Z</time>
      </trkpt>
      <trkpt lat="42.64071" lon="1.95522">
        <ele>1531</ele>
        <time>2018-07-07T10:54:56Z</time>
      </trkpt>
      <trkpt lat="42.64067" lon="1.95507">
        <ele>1529</ele>
        <time>2018-07-07T10:55:11Z</time>
      </trkpt>
      <trkpt lat="42.64063" lon="1.9549">
        <ele>1533</ele>
        <time>2018-07-07T10:55:29Z</time>
      </trkpt>
      <trkpt lat="42.6406" lon="1.95474">
        <ele>1537</ele>
        <time>2018-07-07T10:55:50Z</time>
      </trkpt>
      <trkpt lat="42.64059" lon="1.95457">
        <ele>1540</ele>
        <time>2018-07-07T10:56:07Z</time>
      </trkpt>
      <trkpt lat="42.64054" lon="1.9544">
        <ele>1541</ele>
        <time>2018-07-07T10:56:30Z</time>
      </trkpt>
      <trkpt lat="42.64054" lon="1.95424">
        <ele>1541</ele>
        <time>2018-07-07T10:56:48Z</time>
      </trkpt>
      <trkpt lat="42.64053" lon="1.95412">
        <ele>1546</ele>
        <time>2018-07-07T10:57:02Z</time>
      </trkpt>
      <trkpt lat="42.64049" lon="1.95396">
        <ele>1549</ele>
        <time>2018-07-07T10:57:22Z</time>
      </trkpt>
      <trkpt lat="42.64051" lon="1.95379">
        <ele>1551</ele>
        <time>2018-07-07T10:57:38Z</time>
      </trkpt>
      <trkpt lat="42.64052" lon="1.95371">
        <ele>1551</ele>
        <time>2018-07-07T10:57:59Z</time>
      </trkpt>
      <trkpt lat="42.6405" lon="1.9536">
        <ele>1552</ele>
        <time>2018-07-07T10:58:19Z</time>
      </trkpt>
      <trkpt lat="42.64048" lon="1.95346">
        <ele>1553</ele>
        <time>2018-07-07T10:58:39Z</time>
      </trkpt>
      <trkpt lat="42.64043" lon="1.95331">
        <ele>1560</ele>
        <time>2018-07-07T10:58:59Z</time>
      </trkpt>
      <trkpt lat="42.64036" lon="1.95322">
        <ele>1562</ele>
        <time>2018-07-07T10:59:42Z</time>
      </trkpt>
      <trkpt lat="42.64028" lon="1.9531">
        <ele>1563</ele>
        <time>2018-07-07T11:00:01Z</time>
      </trkpt>
      <trkpt lat="42.64024" lon="1.95298">
        <ele>1564</ele>
        <time>2018-07-07T11:00:19Z</time>
      </trkpt>
      <trkpt lat="42.64022" lon="1.95287">
        <ele>1564</ele>
        <time>2018-07-07T11:00:40Z</time>
      </trkpt>
      <trkpt lat="42.64019" lon="1.95276">
        <ele>1565</ele>
        <time>2018-07-07T11:00:55Z</time>
      </trkpt>
      <trkpt lat="42.64019" lon="1.95262">
        <ele>1566</ele>
        <time>2018-07-07T11:01:18Z</time>
      </trkpt>
      <trkpt lat="42.64012" lon="1.95259">
        <ele>1567</ele>
        <time>2018-07-07T11:01:43Z</time>
      </trkpt>
      <trkpt lat="42.64006" lon="1.95249">
        <ele>1571</ele>
        <time>2018-07-07T11:02:01Z</time>
      </trkpt>
      <trkpt lat="42.64004" lon="1.95239">
        <ele>1571</ele>
        <time>2018-07-07T11:02:16Z</time>
      </trkpt>
      <trkpt lat="42.63996" lon="1.95236">
        <ele>1581</ele>
        <time>2018-07-07T11:02:40Z</time>
      </trkpt>
      <trkpt lat="42.63988" lon="1.95233">
        <ele>1585</ele>
        <time>2018-07-07T11:02:56Z</time>
      </trkpt>
      <trkpt lat="42.63982" lon="1.95241">
        <ele>1585</ele>
        <time>2018-07-07T11:03:20Z</time>
      </trkpt>
      <trkpt lat="42.63983" lon="1.95257">
        <ele>1587</ele>
        <time>2018-07-07T11:03:35Z</time>
      </trkpt>
      <trkpt lat="42.63982" lon="1.95272">
        <ele>1591</ele>
        <time>2018-07-07T11:03:54Z</time>
      </trkpt>
      <trkpt lat="42.63983" lon="1.95286">
        <ele>1592</ele>
        <time>2018-07-07T11:04:17Z</time>
      </trkpt>
      <trkpt lat="42.63979" lon="1.953">
        <ele>1594</ele>
        <time>2018-07-07T11:04:37Z</time>
      </trkpt>
      <trkpt lat="42.63969" lon="1.95297">
        <ele>1597</ele>
        <time>2018-07-07T11:04:56Z</time>
      </trkpt>
      <trkpt lat="42.63965" lon="1.95286">
        <ele>1598</ele>
        <time>2018-07-07T11:05:16Z</time>
      </trkpt>
      <trkpt lat="42.63962" lon="1.95273">
        <ele>1598</ele>
        <time>2018-07-07T11:05:35Z</time>
      </trkpt>
      <trkpt lat="42.63957" lon="1.95262">
        <ele>1600</ele>
        <time>2018-07-07T11:05:56Z</time>
      </trkpt>
      <trkpt lat="42.63953" lon="1.95253">
        <ele>1602</ele>
        <time>2018-07-07T11:06:12Z</time>
      </trkpt>
      <trkpt lat="42.6395" lon="1.95244">
        <ele>1600</ele>
        <time>2018-07-07T11:06:34Z</time>
      </trkpt>
      <trkpt lat="42.63943" lon="1.95232">
        <ele>1602</ele>
        <time>2018-07-07T11:06:54Z</time>
      </trkpt>
      <trkpt lat="42.63939" lon="1.95227">
        <ele>1602</ele>
        <time>2018-07-07T11:07:08Z</time>
      </trkpt>
      <trkpt lat="42.63937" lon="1.95216">
        <ele>1601</ele>
        <time>2018-07-07T11:07:30Z</time>
      </trkpt>
      <trkpt lat="42.63931" lon="1.95205">
        <ele>1601</ele>
        <time>2018-07-07T11:07:48Z</time>
      </trkpt>
      <trkpt lat="42.63924" lon="1.95199">
        <ele>1601</ele>
        <time>2018-07-07T11:08:04Z</time>
      </trkpt>
      <trkpt lat="42.63917" lon="1.95191">
        <ele>1602</ele>
        <time>2018-07-07T11:08:22Z</time>
      </trkpt>
      <trkpt lat="42.63908" lon="1.95187">
        <ele>1622</ele>
        <time>2018-07-07T11:08:36Z</time>
      </trkpt>
      <trkpt lat="42.63901" lon="1.95182">
        <ele>1622</ele>
        <time>2018-07-07T11:08:48Z</time>
      </trkpt>
      <trkpt lat="42.63896" lon="1.95172">
        <ele>1622</ele>
        <time>2018-07-07T11:09:02Z</time>
      </trkpt>
      <trkpt lat="42.63887" lon="1.95168">
        <ele>1626</ele>
        <time>2018-07-07T11:09:15Z</time>
      </trkpt>
      <trkpt lat="42.6388" lon="1.95164">
        <ele>1619</ele>
        <time>2018-07-07T11:09:26Z</time>
      </trkpt>
      <trkpt lat="42.63875" lon="1.95153">
        <ele>1620</ele>
        <time>2018-07-07T11:09:38Z</time>
      </trkpt>
      <trkpt lat="42.63869" lon="1.95142">
        <ele>1621</ele>
        <time>2018-07-07T11:09:49Z</time>
      </trkpt>
      <trkpt lat="42.63862" lon="1.95135">
        <ele>1622</ele>
        <time>2018-07-07T11:10:00Z</time>
      </trkpt>
      <trkpt lat="42.63854" lon="1.95129">
        <ele>1622</ele>
        <time>2018-07-07T11:10:11Z</time>
      </trkpt>
      <trkpt lat="42.63845" lon="1.95126">
        <ele>1623</ele>
        <time>2018-07-07T11:10:22Z</time>
      </trkpt>
      <trkpt lat="42.63836" lon="1.95125">
        <ele>1624</ele>
        <time>2018-07-07T11:10:34Z</time>
      </trkpt>
      <trkpt lat="42.63827" lon="1.95126">
        <ele>1642</ele>
        <time>2018-07-07T11:10:47Z</time>
      </trkpt>
      <trkpt lat="42.63821" lon="1.95134">
        <ele>1644</ele>
        <time>2018-07-07T11:11:02Z</time>
      </trkpt>
      <trkpt lat="42.63812" lon="1.95135">
        <ele>1645</ele>
        <time>2018-07-07T11:11:16Z</time>
      </trkpt>
      <trkpt lat="42.63805" lon="1.9514">
        <ele>1647</ele>
        <time>2018-07-07T11:11:31Z</time>
      </trkpt>
      <trkpt lat="42.63798" lon="1.95141">
        <ele>1648</ele>
        <time>2018-07-07T11:12:05Z</time>
      </trkpt>
      <trkpt lat="42.638" lon="1.9515">
        <ele>1649</ele>
        <time>2018-07-07T11:12:20Z</time>
      </trkpt>
      <trkpt lat="42.63792" lon="1.95147">
        <ele>1650</ele>
        <time>2018-07-07T11:12:34Z</time>
      </trkpt>
      <trkpt lat="42.63786" lon="1.95139">
        <ele>1651</ele>
        <time>2018-07-07T11:12:46Z</time>
      </trkpt>
      <trkpt lat="42.6378" lon="1.95132">
        <ele>1651</ele>
        <time>2018-07-07T11:12:58Z</time>
      </trkpt>
      <trkpt lat="42.6377" lon="1.95128">
        <ele>1651</ele>
        <time>2018-07-07T11:13:14Z</time>
      </trkpt>
      <trkpt lat="42.63763" lon="1.95122">
        <ele>1651</ele>
        <time>2018-07-07T11:13:29Z</time>
      </trkpt>
      <trkpt lat="42.63756" lon="1.95119">
        <ele>1651</ele>
        <time>2018-07-07T11:13:51Z</time>
      </trkpt>
      <trkpt lat="42.63749" lon="1.95121">
        <ele>1670</ele>
        <time>2018-07-07T11:14:05Z</time>
      </trkpt>
      <trkpt lat="42.63742" lon="1.95118">
        <ele>1670</ele>
        <time>2018-07-07T11:14:26Z</time>
      </trkpt>
      <trkpt lat="42.63734" lon="1.95115">
        <ele>1670</ele>
        <time>2018-07-07T11:14:41Z</time>
      </trkpt>
      <trkpt lat="42.63728" lon="1.95114">
        <ele>1671</ele>
        <time>2018-07-07T11:14:56Z</time>
      </trkpt>
      <trkpt lat="42.63731" lon="1.95122">
        <ele>1672</ele>
        <time>2018-07-07T11:15:08Z</time>
      </trkpt>
      <trkpt lat="42.63736" lon="1.95132">
        <ele>1674</ele>
        <time>2018-07-07T11:15:22Z</time>
      </trkpt>
      <trkpt lat="42.63741" lon="1.95144">
        <ele>1675</ele>
        <time>2018-07-07T11:15:37Z</time>
      </trkpt>
      <trkpt lat="42.6374" lon="1.95152">
        <ele>1676</ele>
        <time>2018-07-07T11:15:56Z</time>
      </trkpt>
      <trkpt lat="42.6373" lon="1.95148">
        <ele>1677</ele>
        <time>2018-07-07T11:16:23Z</time>
      </trkpt>
      <trkpt lat="42.63721" lon="1.95142">
        <ele>1677</ele>
        <time>2018-07-07T11:16:39Z</time>
      </trkpt>
      <trkpt lat="42.63714" lon="1.95141">
        <ele>1678</ele>
        <time>2018-07-07T11:16:55Z</time>
      </trkpt>
      <trkpt lat="42.63708" lon="1.95144">
        <ele>1680</ele>
        <time>2018-07-07T11:17:11Z</time>
      </trkpt>
      <trkpt lat="42.63703" lon="1.95142">
        <ele>1681</ele>
        <time>2018-07-07T11:17:31Z</time>
      </trkpt>
      <trkpt lat="42.63696" lon="1.95136">
        <ele>1681</ele>
        <time>2018-07-07T11:17:51Z</time>
      </trkpt>
      <trkpt lat="42.63687" lon="1.95133">
        <ele>1682</ele>
        <time>2018-07-07T11:18:11Z</time>
      </trkpt>
      <trkpt lat="42.63674" lon="1.95127">
        <ele>1683</ele>
        <time>2018-07-07T11:18:44Z</time>
      </trkpt>
      <trkpt lat="42.63664" lon="1.95121">
        <ele>1700</ele>
        <time>2018-07-07T11:19:02Z</time>
      </trkpt>
      <trkpt lat="42.6366" lon="1.95125">
        <ele>1702</ele>
        <time>2018-07-07T11:19:20Z</time>
      </trkpt>
      <trkpt lat="42.63659" lon="1.95134">
        <ele>1704</ele>
        <time>2018-07-07T11:19:39Z</time>
      </trkpt>
      <trkpt lat="42.63655" lon="1.95135">
        <ele>1704</ele>
        <time>2018-07-07T11:19:56Z</time>
      </trkpt>
      <trkpt lat="42.63652" lon="1.95139">
        <ele>1705</ele>
        <time>2018-07-07T11:20:22Z</time>
      </trkpt>
      <trkpt lat="42.63644" lon="1.95136">
        <ele>1705</ele>
        <time>2018-07-07T11:20:36Z</time>
      </trkpt>
      <trkpt lat="42.63639" lon="1.95127">
        <ele>1705</ele>
        <time>2018-07-07T11:20:52Z</time>
      </trkpt>
      <trkpt lat="42.63633" lon="1.95122">
        <ele>1705</ele>
        <time>2018-07-07T11:21:08Z</time>
      </trkpt>
      <trkpt lat="42.63626" lon="1.95114">
        <ele>1705</ele>
        <time>2018-07-07T11:21:21Z</time>
      </trkpt>
      <trkpt lat="42.63618" lon="1.95109">
        <ele>1705</ele>
        <time>2018-07-07T11:21:34Z</time>
      </trkpt>
      <trkpt lat="42.63611" lon="1.95103">
        <ele>1706</ele>
        <time>2018-07-07T11:21:46Z</time>
      </trkpt>
      <trkpt lat="42.63604" lon="1.95103">
        <ele>1707</ele>
        <time>2018-07-07T11:21:59Z</time>
      </trkpt>
      <trkpt lat="42.63597" lon="1.95099">
        <ele>1707</ele>
        <time>2018-07-07T11:22:13Z</time>
      </trkpt>
      <trkpt lat="42.63591" lon="1.95091">
        <ele>1707</ele>
        <time>2018-07-07T11:22:25Z</time>
      </trkpt>
      <trkpt lat="42.63584" lon="1.95084">
        <ele>1707</ele>
        <time>2018-07-07T11:22:36Z</time>
      </trkpt>
      <trkpt lat="42.63575" lon="1.9508">
        <ele>1707</ele>
        <time>2018-07-07T11:22:50Z</time>
      </trkpt>
      <trkpt lat="42.63566" lon="1.95074">
        <ele>1707</ele>
        <time>2018-07-07T11:23:04Z</time>
      </trkpt>
      <trkpt lat="42.63561" lon="1.95069">
        <ele>1707</ele>
        <time>2018-07-07T11:29:15Z</time>
      </trkpt>
      <trkpt lat="42.63553" lon="1.95071">
        <ele>1708</ele>
        <time>2018-07-07T11:29:27Z</time>
      </trkpt>
      <trkpt lat="42.63545" lon="1.95081">
        <ele>1709</ele>
        <time>2018-07-07T11:29:39Z</time>
      </trkpt>
      <trkpt lat="42.63538" lon="1.95092">
        <ele>1727</ele>
        <time>2018-07-07T11:29:52Z</time>
      </trkpt>
      <trkpt lat="42.63529" lon="1.95092">
        <ele>1728</ele>
        <time>2018-07-07T11:30:04Z</time>
      </trkpt>
      <trkpt lat="42.6352" lon="1.95093">
        <ele>1729</ele>
        <time>2018-07-07T11:30:18Z</time>
      </trkpt>
      <trkpt lat="42.63512" lon="1.95096">
        <ele>1729</ele>
        <time>2018-07-07T11:30:37Z</time>
      </trkpt>
      <trkpt lat="42.63506" lon="1.95089">
        <ele>1728</ele>
        <time>2018-07-07T11:30:53Z</time>
      </trkpt>
      <trkpt lat="42.635" lon="1.95078">
        <ele>1728</ele>
        <time>2018-07-07T11:31:08Z</time>
      </trkpt>
      <trkpt lat="42.63492" lon="1.95074">
        <ele>1729</ele>
        <time>2018-07-07T11:31:29Z</time>
      </trkpt>
      <trkpt lat="42.63485" lon="1.95068">
        <ele>1730</ele>
        <time>2018-07-07T11:31:45Z</time>
      </trkpt>
      <trkpt lat="42.63478" lon="1.95065">
        <ele>1731</ele>
        <time>2018-07-07T11:31:59Z</time>
      </trkpt>
      <trkpt lat="42.63467" lon="1.95065">
        <ele>1733</ele>
        <time>2018-07-07T11:32:12Z</time>
      </trkpt>
      <trkpt lat="42.63457" lon="1.95067">
        <ele>1736</ele>
        <time>2018-07-07T11:32:25Z</time>
      </trkpt>
      <trkpt lat="42.63447" lon="1.95067">
        <ele>1739</ele>
        <time>2018-07-07T11:32:44Z</time>
      </trkpt>
      <trkpt lat="42.63438" lon="1.95071">
        <ele>1743</ele>
        <time>2018-07-07T11:33:02Z</time>
      </trkpt>
      <trkpt lat="42.63428" lon="1.95069">
        <ele>1746</ele>
        <time>2018-07-07T11:33:20Z</time>
      </trkpt>
      <trkpt lat="42.6342" lon="1.95073">
        <ele>1751</ele>
        <time>2018-07-07T11:33:35Z</time>
      </trkpt>
      <trkpt lat="42.63411" lon="1.95071">
        <ele>1765</ele>
        <time>2018-07-07T11:33:51Z</time>
      </trkpt>
      <trkpt lat="42.63407" lon="1.95077">
        <ele>1765</ele>
        <time>2018-07-07T11:34:09Z</time>
      </trkpt>
      <trkpt lat="42.63399" lon="1.95076">
        <ele>1768</ele>
        <time>2018-07-07T11:34:26Z</time>
      </trkpt>
      <trkpt lat="42.63388" lon="1.95076">
        <ele>1771</ele>
        <time>2018-07-07T11:34:42Z</time>
      </trkpt>
      <trkpt lat="42.63381" lon="1.95077">
        <ele>1773</ele>
        <time>2018-07-07T11:35:02Z</time>
      </trkpt>
      <trkpt lat="42.63372" lon="1.95078">
        <ele>1776</ele>
        <time>2018-07-07T11:35:19Z</time>
      </trkpt>
      <trkpt lat="42.63363" lon="1.95076">
        <ele>1779</ele>
        <time>2018-07-07T11:35:42Z</time>
      </trkpt>
      <trkpt lat="42.63354" lon="1.95072">
        <ele>1782</ele>
        <time>2018-07-07T11:36:04Z</time>
      </trkpt>
      <trkpt lat="42.63347" lon="1.95069">
        <ele>1784</ele>
        <time>2018-07-07T11:36:21Z</time>
      </trkpt>
      <trkpt lat="42.63339" lon="1.9507">
        <ele>1787</ele>
        <time>2018-07-07T11:36:45Z</time>
      </trkpt>
      <trkpt lat="42.63333" lon="1.95067">
        <ele>1787</ele>
        <time>2018-07-07T11:37:00Z</time>
      </trkpt>
      <trkpt lat="42.63326" lon="1.95067">
        <ele>1806</ele>
        <time>2018-07-07T11:37:20Z</time>
      </trkpt>
      <trkpt lat="42.63319" lon="1.95072">
        <ele>1806</ele>
        <time>2018-07-07T11:37:47Z</time>
      </trkpt>
      <trkpt lat="42.63314" lon="1.95073">
        <ele>1808</ele>
        <time>2018-07-07T11:38:09Z</time>
      </trkpt>
      <trkpt lat="42.63308" lon="1.95073">
        <ele>1810</ele>
        <time>2018-07-07T11:38:30Z</time>
      </trkpt>
      <trkpt lat="42.63302" lon="1.9507">
        <ele>1812</ele>
        <time>2018-07-07T11:38:56Z</time>
      </trkpt>
      <trkpt lat="42.63298" lon="1.95074">
        <ele>1813</ele>
        <time>2018-07-07T11:39:14Z</time>
      </trkpt>
      <trkpt lat="42.63294" lon="1.95076">
        <ele>1814</ele>
        <time>2018-07-07T11:39:36Z</time>
      </trkpt>
      <trkpt lat="42.63292" lon="1.95079">
        <ele>1815</ele>
        <time>2018-07-07T11:40:11Z</time>
      </trkpt>
      <trkpt lat="42.63284" lon="1.95085">
        <ele>1819</ele>
        <time>2018-07-07T11:40:32Z</time>
      </trkpt>
      <trkpt lat="42.63279" lon="1.95087">
        <ele>1821</ele>
        <time>2018-07-07T11:41:00Z</time>
      </trkpt>
      <trkpt lat="42.63273" lon="1.95093">
        <ele>1822</ele>
        <time>2018-07-07T11:41:20Z</time>
      </trkpt>
      <trkpt lat="42.63251" lon="1.95091">
        <ele>1827</ele>
        <time>2018-07-07T11:41:38Z</time>
      </trkpt>
      <trkpt lat="42.63245" lon="1.9509">
        <ele>1836</ele>
        <time>2018-07-07T11:42:03Z</time>
      </trkpt>
      <trkpt lat="42.63236" lon="1.95088">
        <ele>1840</ele>
        <time>2018-07-07T11:42:24Z</time>
      </trkpt>
      <trkpt lat="42.6323" lon="1.95086">
        <ele>1842</ele>
        <time>2018-07-07T11:42:46Z</time>
      </trkpt>
      <trkpt lat="42.63224" lon="1.95085">
        <ele>1844</ele>
        <time>2018-07-07T11:43:11Z</time>
      </trkpt>
      <trkpt lat="42.63218" lon="1.95084">
        <ele>1846</ele>
        <time>2018-07-07T11:43:31Z</time>
      </trkpt>
      <trkpt lat="42.63213" lon="1.95085">
        <ele>1848</ele>
        <time>2018-07-07T11:43:44Z</time>
      </trkpt>
      <trkpt lat="42.63206" lon="1.95085">
        <ele>1850</ele>
        <time>2018-07-07T11:43:59Z</time>
      </trkpt>
      <trkpt lat="42.63204" lon="1.95079">
        <ele>1850</ele>
        <time>2018-07-07T11:44:19Z</time>
      </trkpt>
      <trkpt lat="42.63196" lon="1.95071">
        <ele>1852</ele>
        <time>2018-07-07T11:44:46Z</time>
      </trkpt>
      <trkpt lat="42.63187" lon="1.95065">
        <ele>1854</ele>
        <time>2018-07-07T11:45:20Z</time>
      </trkpt>
      <trkpt lat="42.63181" lon="1.95067">
        <ele>1855</ele>
        <time>2018-07-07T11:45:36Z</time>
      </trkpt>
      <trkpt lat="42.63174" lon="1.95064">
        <ele>1855</ele>
        <time>2018-07-07T11:45:53Z</time>
      </trkpt>
      <trkpt lat="42.63166" lon="1.95067">
        <ele>1872</ele>
        <time>2018-07-07T11:46:07Z</time>
      </trkpt>
      <trkpt lat="42.6316" lon="1.95068">
        <ele>1873</ele>
        <time>2018-07-07T11:46:24Z</time>
      </trkpt>
      <trkpt lat="42.63153" lon="1.95065">
        <ele>1876</ele>
        <time>2018-07-07T11:46:46Z</time>
      </trkpt>
      <trkpt lat="42.63144" lon="1.95065">
        <ele>1879</ele>
        <time>2018-07-07T11:47:15Z</time>
      </trkpt>
      <trkpt lat="42.63137" lon="1.95061">
        <ele>1883</ele>
        <time>2018-07-07T11:47:33Z</time>
      </trkpt>
      <trkpt lat="42.63128" lon="1.95057">
        <ele>1886</ele>
        <time>2018-07-07T11:47:53Z</time>
      </trkpt>
      <trkpt lat="42.63119" lon="1.95053">
        <ele>1889</ele>
        <time>2018-07-07T11:48:14Z</time>
      </trkpt>
      <trkpt lat="42.6311" lon="1.9505">
        <ele>1891</ele>
        <time>2018-07-07T11:48:30Z</time>
      </trkpt>
      <trkpt lat="42.63104" lon="1.9504">
        <ele>1893</ele>
        <time>2018-07-07T11:48:55Z</time>
      </trkpt>
      <trkpt lat="42.63094" lon="1.95039">
        <ele>1895</ele>
        <time>2018-07-07T11:49:20Z</time>
      </trkpt>
      <trkpt lat="42.63086" lon="1.95033">
        <ele>1896</ele>
        <time>2018-07-07T11:49:38Z</time>
      </trkpt>
      <trkpt lat="42.6308" lon="1.95024">
        <ele>1913</ele>
        <time>2018-07-07T11:50:01Z</time>
      </trkpt>
      <trkpt lat="42.63074" lon="1.95017">
        <ele>1913</ele>
        <time>2018-07-07T11:50:18Z</time>
      </trkpt>
      <trkpt lat="42.63067" lon="1.95009">
        <ele>1913</ele>
        <time>2018-07-07T11:51:00Z</time>
      </trkpt>
      <trkpt lat="42.6306" lon="1.95006">
        <ele>1914</ele>
        <time>2018-07-07T11:51:16Z</time>
      </trkpt>
      <trkpt lat="42.63055" lon="1.95001">
        <ele>1914</ele>
        <time>2018-07-07T11:51:32Z</time>
      </trkpt>
      <trkpt lat="42.63046" lon="1.94997">
        <ele>1920</ele>
        <time>2018-07-07T11:51:47Z</time>
      </trkpt>
      <trkpt lat="42.63041" lon="1.94987">
        <ele>1920</ele>
        <time>2018-07-07T11:52:02Z</time>
      </trkpt>
      <trkpt lat="42.63033" lon="1.94983">
        <ele>1920</ele>
        <time>2018-07-07T11:52:17Z</time>
      </trkpt>
      <trkpt lat="42.63026" lon="1.9498">
        <ele>1921</ele>
        <time>2018-07-07T11:52:28Z</time>
      </trkpt>
      <trkpt lat="42.63018" lon="1.94976">
        <ele>1921</ele>
        <time>2018-07-07T11:52:42Z</time>
      </trkpt>
      <trkpt lat="42.63009" lon="1.94968">
        <ele>1922</ele>
        <time>2018-07-07T11:52:55Z</time>
      </trkpt>
      <trkpt lat="42.63" lon="1.94965">
        <ele>1924</ele>
        <time>2018-07-07T11:53:10Z</time>
      </trkpt>
      <trkpt lat="42.62991" lon="1.94963">
        <ele>1924</ele>
        <time>2018-07-07T11:53:24Z</time>
      </trkpt>
      <trkpt lat="42.62979" lon="1.9496">
        <ele>1925</ele>
        <time>2018-07-07T11:53:37Z</time>
      </trkpt>
      <trkpt lat="42.6297" lon="1.94955">
        <ele>1926</ele>
        <time>2018-07-07T11:53:49Z</time>
      </trkpt>
      <trkpt lat="42.62959" lon="1.94949">
        <ele>1927</ele>
        <time>2018-07-07T11:54:01Z</time>
      </trkpt>
      <trkpt lat="42.62951" lon="1.94944">
        <ele>1927</ele>
        <time>2018-07-07T11:54:12Z</time>
      </trkpt>
      <trkpt lat="42.62942" lon="1.94939">
        <ele>1927</ele>
        <time>2018-07-07T11:54:24Z</time>
      </trkpt>
      <trkpt lat="42.62934" lon="1.94938">
        <ele>1927</ele>
        <time>2018-07-07T11:54:37Z</time>
      </trkpt>
      <trkpt lat="42.62924" lon="1.9493">
        <ele>1928</ele>
        <time>2018-07-07T11:54:51Z</time>
      </trkpt>
      <trkpt lat="42.62916" lon="1.94924">
        <ele>1933</ele>
        <time>2018-07-07T11:55:06Z</time>
      </trkpt>
      <trkpt lat="42.6291" lon="1.94914">
        <ele>1934</ele>
        <time>2018-07-07T11:55:33Z</time>
      </trkpt>
      <trkpt lat="42.62905" lon="1.94905">
        <ele>1939</ele>
        <time>2018-07-07T11:55:53Z</time>
      </trkpt>
      <trkpt lat="42.62897" lon="1.94903">
        <ele>1942</ele>
        <time>2018-07-07T11:56:12Z</time>
      </trkpt>
      <trkpt lat="42.62891" lon="1.94896">
        <ele>1944</ele>
        <time>2018-07-07T11:56:30Z</time>
      </trkpt>
      <trkpt lat="42.62882" lon="1.94896">
        <ele>1946</ele>
        <time>2018-07-07T11:56:49Z</time>
      </trkpt>
      <trkpt lat="42.62875" lon="1.94891">
        <ele>1948</ele>
        <time>2018-07-07T11:57:02Z</time>
      </trkpt>
      <trkpt lat="42.62873" lon="1.94884">
        <ele>1949</ele>
        <time>2018-07-07T11:57:17Z</time>
      </trkpt>
      <trkpt lat="42.62871" lon="1.94878">
        <ele>1949</ele>
        <time>2018-07-07T11:57:40Z</time>
      </trkpt>
      <trkpt lat="42.62864" lon="1.94877">
        <ele>1950</ele>
        <time>2018-07-07T11:58:01Z</time>
      </trkpt>
      <trkpt lat="42.62855" lon="1.94875">
        <ele>1951</ele>
        <time>2018-07-07T11:58:27Z</time>
      </trkpt>
      <trkpt lat="42.62847" lon="1.9487">
        <ele>1952</ele>
        <time>2018-07-07T11:58:52Z</time>
      </trkpt>
      <trkpt lat="42.62839" lon="1.94866">
        <ele>1953</ele>
        <time>2018-07-07T11:59:09Z</time>
      </trkpt>
      <trkpt lat="42.62831" lon="1.94857">
        <ele>1966</ele>
        <time>2018-07-07T11:59:27Z</time>
      </trkpt>
      <trkpt lat="42.62825" lon="1.94858">
        <ele>1967</ele>
        <time>2018-07-07T11:59:51Z</time>
      </trkpt>
      <trkpt lat="42.62819" lon="1.94859">
        <ele>1968</ele>
        <time>2018-07-07T12:00:11Z</time>
      </trkpt>
      <trkpt lat="42.62815" lon="1.94848">
        <ele>1968</ele>
        <time>2018-07-07T12:00:31Z</time>
      </trkpt>
      <trkpt lat="42.62808" lon="1.94846">
        <ele>1969</ele>
        <time>2018-07-07T12:00:48Z</time>
      </trkpt>
      <trkpt lat="42.62805" lon="1.94837">
        <ele>1969</ele>
        <time>2018-07-07T12:01:06Z</time>
      </trkpt>
      <trkpt lat="42.62799" lon="1.94838">
        <ele>1970</ele>
        <time>2018-07-07T12:01:24Z</time>
      </trkpt>
      <trkpt lat="42.62794" lon="1.94829">
        <ele>1972</ele>
        <time>2018-07-07T12:01:42Z</time>
      </trkpt>
      <trkpt lat="42.6279" lon="1.94825">
        <ele>1973</ele>
        <time>2018-07-07T12:01:57Z</time>
      </trkpt>
      <trkpt lat="42.62782" lon="1.94822">
        <ele>1974</ele>
        <time>2018-07-07T12:02:23Z</time>
      </trkpt>
      <trkpt lat="42.62777" lon="1.94813">
        <ele>1974</ele>
        <time>2018-07-07T12:02:38Z</time>
      </trkpt>
      <trkpt lat="42.62769" lon="1.94807">
        <ele>1974</ele>
        <time>2018-07-07T12:03:03Z</time>
      </trkpt>
      <trkpt lat="42.62762" lon="1.94801">
        <ele>1974</ele>
        <time>2018-07-07T12:03:16Z</time>
      </trkpt>
      <trkpt lat="42.62756" lon="1.94796">
        <ele>1974</ele>
        <time>2018-07-07T12:03:32Z</time>
      </trkpt>
      <trkpt lat="42.62751" lon="1.94786">
        <ele>1974</ele>
        <time>2018-07-07T12:03:48Z</time>
      </trkpt>
      <trkpt lat="42.62746" lon="1.94775">
        <ele>1974</ele>
        <time>2018-07-07T12:04:21Z</time>
      </trkpt>
      <trkpt lat="42.62739" lon="1.94768">
        <ele>1974</ele>
        <time>2018-07-07T12:04:42Z</time>
      </trkpt>
      <trkpt lat="42.62729" lon="1.94761">
        <ele>1973</ele>
        <time>2018-07-07T12:04:58Z</time>
      </trkpt>
      <trkpt lat="42.6272" lon="1.94753">
        <ele>1973</ele>
        <time>2018-07-07T12:05:16Z</time>
      </trkpt>
      <trkpt lat="42.62719" lon="1.94744">
        <ele>1970</ele>
        <time>2018-07-07T12:05:35Z</time>
      </trkpt>
      <trkpt lat="42.62717" lon="1.94733">
        <ele>1970</ele>
        <time>2018-07-07T12:05:47Z</time>
      </trkpt>
      <trkpt lat="42.62712" lon="1.94722">
        <ele>1970</ele>
        <time>2018-07-07T12:05:59Z</time>
      </trkpt>
      <trkpt lat="42.62708" lon="1.94715">
        <ele>1970</ele>
        <time>2018-07-07T12:06:10Z</time>
      </trkpt>
      <trkpt lat="42.62704" lon="1.94704">
        <ele>1971</ele>
        <time>2018-07-07T12:06:22Z</time>
      </trkpt>
      <trkpt lat="42.62704" lon="1.94692">
        <ele>1971</ele>
        <time>2018-07-07T12:06:35Z</time>
      </trkpt>
      <trkpt lat="42.62703" lon="1.94681">
        <ele>1971</ele>
        <time>2018-07-07T12:06:50Z</time>
      </trkpt>
      <trkpt lat="42.62702" lon="1.94677">
        <ele>1971</ele>
        <time>2018-07-07T12:07:02Z</time>
      </trkpt>
      <trkpt lat="42.627" lon="1.94666">
        <ele>1975</ele>
        <time>2018-07-07T12:07:15Z</time>
      </trkpt>
      <trkpt lat="42.62698" lon="1.94655">
        <ele>1975</ele>
        <time>2018-07-07T12:07:31Z</time>
      </trkpt>
      <trkpt lat="42.62696" lon="1.94643">
        <ele>1975</ele>
        <time>2018-07-07T12:07:49Z</time>
      </trkpt>
      <trkpt lat="42.62692" lon="1.94635">
        <ele>1975</ele>
        <time>2018-07-07T12:08:06Z</time>
      </trkpt>
      <trkpt lat="42.62685" lon="1.94624">
        <ele>1974</ele>
        <time>2018-07-07T12:08:19Z</time>
      </trkpt>
      <trkpt lat="42.62681" lon="1.94613">
        <ele>1974</ele>
        <time>2018-07-07T12:08:32Z</time>
      </trkpt>
      <trkpt lat="42.6268" lon="1.94601">
        <ele>1973</ele>
        <time>2018-07-07T12:08:45Z</time>
      </trkpt>
      <trkpt lat="42.6268" lon="1.94589">
        <ele>1972</ele>
        <time>2018-07-07T12:08:58Z</time>
      </trkpt>
      <trkpt lat="42.62681" lon="1.94577">
        <ele>1971</ele>
        <time>2018-07-07T12:09:11Z</time>
      </trkpt>
      <trkpt lat="42.62679" lon="1.94567">
        <ele>1971</ele>
        <time>2018-07-07T12:10:36Z</time>
      </trkpt>
      <trkpt lat="42.62681" lon="1.94558">
        <ele>1971</ele>
        <time>2018-07-07T12:14:58Z</time>
      </trkpt>
      <trkpt lat="42.62687" lon="1.94551">
        <ele>1971</ele>
        <time>2018-07-07T12:15:11Z</time>
      </trkpt>
      <trkpt lat="42.62693" lon="1.94544">
        <ele>1971</ele>
        <time>2018-07-07T12:15:21Z</time>
      </trkpt>
      <trkpt lat="42.62698" lon="1.94533">
        <ele>1970</ele>
        <time>2018-07-07T12:15:30Z</time>
      </trkpt>
      <trkpt lat="42.62697" lon="1.9452">
        <ele>1969</ele>
        <time>2018-07-07T12:15:39Z</time>
      </trkpt>
      <trkpt lat="42.62687" lon="1.94512">
        <ele>1968</ele>
        <time>2018-07-07T12:15:49Z</time>
      </trkpt>
      <trkpt lat="42.62678" lon="1.94507">
        <ele>1966</ele>
        <time>2018-07-07T12:16:00Z</time>
      </trkpt>
      <trkpt lat="42.62672" lon="1.945">
        <ele>1964</ele>
        <time>2018-07-07T12:16:14Z</time>
      </trkpt>
      <trkpt lat="42.62669" lon="1.94491">
        <ele>1965</ele>
        <time>2018-07-07T12:16:22Z</time>
      </trkpt>
      <trkpt lat="42.62668" lon="1.94492">
        <ele>1964</ele>
        <time>2018-07-07T12:16:31Z</time>
      </trkpt>
      <trkpt lat="42.62665" lon="1.9448">
        <ele>1961</ele>
        <time>2018-07-07T12:16:41Z</time>
      </trkpt>
      <trkpt lat="42.6267" lon="1.94468">
        <ele>1967</ele>
        <time>2018-07-07T12:16:50Z</time>
      </trkpt>
      <trkpt lat="42.62672" lon="1.94457">
        <ele>1967</ele>
        <time>2018-07-07T12:17:00Z</time>
      </trkpt>
      <trkpt lat="42.62671" lon="1.94444">
        <ele>1968</ele>
        <time>2018-07-07T12:17:10Z</time>
      </trkpt>
      <trkpt lat="42.62668" lon="1.94434">
        <ele>1968</ele>
        <time>2018-07-07T12:17:19Z</time>
      </trkpt>
      <trkpt lat="42.62663" lon="1.94423">
        <ele>1966</ele>
        <time>2018-07-07T12:17:36Z</time>
      </trkpt>
      <trkpt lat="42.62663" lon="1.94411">
        <ele>1969</ele>
        <time>2018-07-07T12:17:50Z</time>
      </trkpt>
      <trkpt lat="42.6266" lon="1.94418">
        <ele>1966</ele>
        <time>2018-07-07T12:18:21Z</time>
      </trkpt>
      <trkpt lat="42.62664" lon="1.94409">
        <ele>1969</ele>
        <time>2018-07-08T06:22:53Z</time>
      </trkpt>
      <trkpt lat="42.62668" lon="1.94408">
        <ele>1971</ele>
        <time>2018-07-08T06:35:17Z</time>
      </trkpt>
      <trkpt lat="42.62668" lon="1.94404">
        <ele>1972</ele>
        <time>2018-07-08T06:36:26Z</time>
      </trkpt>
      <trkpt lat="42.62658" lon="1.94406">
        <ele>1968</ele>
        <time>2018-07-08T06:37:20Z</time>
      </trkpt>
      <trkpt lat="42.62667" lon="1.94419">
        <ele>1969</ele>
        <time>2018-07-08T06:37:49Z</time>
      </trkpt>
      <trkpt lat="42.62673" lon="1.94433">
        <ele>1968</ele>
        <time>2018-07-08T06:38:05Z</time>
      </trkpt>
      <trkpt lat="42.62675" lon="1.94446">
        <ele>1968</ele>
        <time>2018-07-08T06:38:14Z</time>
      </trkpt>
      <trkpt lat="42.62675" lon="1.9446">
        <ele>1967</ele>
        <time>2018-07-08T06:38:24Z</time>
      </trkpt>
      <trkpt lat="42.62677" lon="1.94471">
        <ele>1967</ele>
        <time>2018-07-08T06:38:33Z</time>
      </trkpt>
      <trkpt lat="42.62671" lon="1.94481">
        <ele>1966</ele>
        <time>2018-07-08T06:38:42Z</time>
      </trkpt>
      <trkpt lat="42.62669" lon="1.94493">
        <ele>1964</ele>
        <time>2018-07-08T06:38:50Z</time>
      </trkpt>
      <trkpt lat="42.62672" lon="1.94506">
        <ele>1965</ele>
        <time>2018-07-08T06:38:59Z</time>
      </trkpt>
      <trkpt lat="42.62677" lon="1.94517">
        <ele>1967</ele>
        <time>2018-07-08T06:39:09Z</time>
      </trkpt>
      <trkpt lat="42.62683" lon="1.94522">
        <ele>1968</ele>
        <time>2018-07-08T06:39:24Z</time>
      </trkpt>
      <trkpt lat="42.62691" lon="1.94525">
        <ele>1969</ele>
        <time>2018-07-08T06:39:35Z</time>
      </trkpt>
      <trkpt lat="42.627" lon="1.94529">
        <ele>1970</ele>
        <time>2018-07-08T06:39:44Z</time>
      </trkpt>
      <trkpt lat="42.62697" lon="1.94543">
        <ele>1971</ele>
        <time>2018-07-08T06:39:56Z</time>
      </trkpt>
      <trkpt lat="42.6269" lon="1.94553">
        <ele>1971</ele>
        <time>2018-07-08T06:40:07Z</time>
      </trkpt>
      <trkpt lat="42.62685" lon="1.94562">
        <ele>1971</ele>
        <time>2018-07-08T06:40:22Z</time>
      </trkpt>
      <trkpt lat="42.62681" lon="1.94573">
        <ele>1971</ele>
        <time>2018-07-08T06:40:35Z</time>
      </trkpt>
      <trkpt lat="42.62684" lon="1.94582">
        <ele>1971</ele>
        <time>2018-07-08T06:41:03Z</time>
      </trkpt>
      <trkpt lat="42.62683" lon="1.94594">
        <ele>1973</ele>
        <time>2018-07-08T06:41:15Z</time>
      </trkpt>
      <trkpt lat="42.62682" lon="1.94607">
        <ele>1974</ele>
        <time>2018-07-08T06:41:24Z</time>
      </trkpt>
      <trkpt lat="42.62682" lon="1.9462">
        <ele>1974</ele>
        <time>2018-07-08T06:41:34Z</time>
      </trkpt>
      <trkpt lat="42.62688" lon="1.94629">
        <ele>1974</ele>
        <time>2018-07-08T06:41:45Z</time>
      </trkpt>
      <trkpt lat="42.62692" lon="1.94641">
        <ele>1974</ele>
        <time>2018-07-08T06:41:59Z</time>
      </trkpt>
      <trkpt lat="42.62698" lon="1.9465">
        <ele>1975</ele>
        <time>2018-07-08T06:42:09Z</time>
      </trkpt>
      <trkpt lat="42.62701" lon="1.94662">
        <ele>1975</ele>
        <time>2018-07-08T06:42:22Z</time>
      </trkpt>
      <trkpt lat="42.62701" lon="1.94674">
        <ele>1971</ele>
        <time>2018-07-08T06:42:34Z</time>
      </trkpt>
      <trkpt lat="42.62706" lon="1.94687">
        <ele>1972</ele>
        <time>2018-07-08T06:42:46Z</time>
      </trkpt>
      <trkpt lat="42.6271" lon="1.94699">
        <ele>1971</ele>
        <time>2018-07-08T06:43:01Z</time>
      </trkpt>
      <trkpt lat="42.62708" lon="1.9471">
        <ele>1971</ele>
        <time>2018-07-08T06:43:11Z</time>
      </trkpt>
      <trkpt lat="42.62712" lon="1.94722">
        <ele>1970</ele>
        <time>2018-07-08T06:43:24Z</time>
      </trkpt>
      <trkpt lat="42.62716" lon="1.94727">
        <ele>1970</ele>
        <time>2018-07-08T06:44:30Z</time>
      </trkpt>
      <trkpt lat="42.62721" lon="1.94739">
        <ele>1970</ele>
        <time>2018-07-08T06:44:39Z</time>
      </trkpt>
      <trkpt lat="42.62726" lon="1.94751">
        <ele>1973</ele>
        <time>2018-07-08T06:44:50Z</time>
      </trkpt>
      <trkpt lat="42.62725" lon="1.94761">
        <ele>1973</ele>
        <time>2018-07-08T06:45:05Z</time>
      </trkpt>
      <trkpt lat="42.62731" lon="1.94767">
        <ele>1974</ele>
        <time>2018-07-08T06:45:23Z</time>
      </trkpt>
      <trkpt lat="42.62739" lon="1.94772">
        <ele>1974</ele>
        <time>2018-07-08T06:45:40Z</time>
      </trkpt>
      <trkpt lat="42.62746" lon="1.94778">
        <ele>1974</ele>
        <time>2018-07-08T06:45:56Z</time>
      </trkpt>
      <trkpt lat="42.62751" lon="1.94785">
        <ele>1974</ele>
        <time>2018-07-08T06:46:08Z</time>
      </trkpt>
      <trkpt lat="42.62756" lon="1.94795">
        <ele>1974</ele>
        <time>2018-07-08T06:46:21Z</time>
      </trkpt>
      <trkpt lat="42.62758" lon="1.94809">
        <ele>1975</ele>
        <time>2018-07-08T06:46:33Z</time>
      </trkpt>
      <trkpt lat="42.6276" lon="1.94823">
        <ele>1976</ele>
        <time>2018-07-08T06:46:44Z</time>
      </trkpt>
      <trkpt lat="42.62764" lon="1.94829">
        <ele>1976</ele>
        <time>2018-07-08T06:47:16Z</time>
      </trkpt>
      <trkpt lat="42.62769" lon="1.94841">
        <ele>1975</ele>
        <time>2018-07-08T06:47:27Z</time>
      </trkpt>
      <trkpt lat="42.62772" lon="1.94854">
        <ele>1975</ele>
        <time>2018-07-08T06:47:37Z</time>
      </trkpt>
      <trkpt lat="42.62775" lon="1.94868">
        <ele>1975</ele>
        <time>2018-07-08T06:47:48Z</time>
      </trkpt>
      <trkpt lat="42.62779" lon="1.94881">
        <ele>1975</ele>
        <time>2018-07-08T06:47:59Z</time>
      </trkpt>
      <trkpt lat="42.62782" lon="1.94896">
        <ele>1976</ele>
        <time>2018-07-08T06:48:10Z</time>
      </trkpt>
      <trkpt lat="42.62784" lon="1.9491">
        <ele>1976</ele>
        <time>2018-07-08T06:48:21Z</time>
      </trkpt>
      <trkpt lat="42.62787" lon="1.94924">
        <ele>1987</ele>
        <time>2018-07-08T06:48:32Z</time>
      </trkpt>
      <trkpt lat="42.6279" lon="1.94937">
        <ele>1988</ele>
        <time>2018-07-08T06:48:42Z</time>
      </trkpt>
      <trkpt lat="42.62794" lon="1.9495">
        <ele>1988</ele>
        <time>2018-07-08T06:48:54Z</time>
      </trkpt>
      <trkpt lat="42.62798" lon="1.94964">
        <ele>1990</ele>
        <time>2018-07-08T06:49:04Z</time>
      </trkpt>
      <trkpt lat="42.62801" lon="1.94976">
        <ele>1991</ele>
        <time>2018-07-08T06:49:14Z</time>
      </trkpt>
      <trkpt lat="42.62802" lon="1.94988">
        <ele>1992</ele>
        <time>2018-07-08T06:49:24Z</time>
      </trkpt>
      <trkpt lat="42.62801" lon="1.95001">
        <ele>2006</ele>
        <time>2018-07-08T06:49:35Z</time>
      </trkpt>
      <trkpt lat="42.62807" lon="1.95008">
        <ele>2005</ele>
        <time>2018-07-08T06:50:01Z</time>
      </trkpt>
      <trkpt lat="42.62813" lon="1.95018">
        <ele>2004</ele>
        <time>2018-07-08T06:50:16Z</time>
      </trkpt>
      <trkpt lat="42.62822" lon="1.95018">
        <ele>2001</ele>
        <time>2018-07-08T06:50:33Z</time>
      </trkpt>
      <trkpt lat="42.62821" lon="1.95012">
        <ele>1999</ele>
        <time>2018-07-08T06:50:48Z</time>
      </trkpt>
      <trkpt lat="42.62829" lon="1.95018">
        <ele>1999</ele>
        <time>2018-07-08T06:51:04Z</time>
      </trkpt>
      <trkpt lat="42.62838" lon="1.95025">
        <ele>1975</ele>
        <time>2018-07-08T06:51:22Z</time>
      </trkpt>
      <trkpt lat="42.62844" lon="1.95035">
        <ele>1973</ele>
        <time>2018-07-08T06:51:37Z</time>
      </trkpt>
      <trkpt lat="42.62852" lon="1.95042">
        <ele>1971</ele>
        <time>2018-07-08T06:51:51Z</time>
      </trkpt>
      <trkpt lat="42.6286" lon="1.95051">
        <ele>1970</ele>
        <time>2018-07-08T06:52:02Z</time>
      </trkpt>
      <trkpt lat="42.62865" lon="1.95061">
        <ele>1970</ele>
        <time>2018-07-08T06:52:13Z</time>
      </trkpt>
      <trkpt lat="42.62873" lon="1.95065">
        <ele>1968</ele>
        <time>2018-07-08T06:52:24Z</time>
      </trkpt>
      <trkpt lat="42.62883" lon="1.95066">
        <ele>1965</ele>
        <time>2018-07-08T06:52:38Z</time>
      </trkpt>
      <trkpt lat="42.62893" lon="1.95068">
        <ele>1962</ele>
        <time>2018-07-08T06:52:49Z</time>
      </trkpt>
      <trkpt lat="42.62902" lon="1.95068">
        <ele>1960</ele>
        <time>2018-07-08T06:53:00Z</time>
      </trkpt>
      <trkpt lat="42.62912" lon="1.95068">
        <ele>1959</ele>
        <time>2018-07-08T06:53:11Z</time>
      </trkpt>
      <trkpt lat="42.62921" lon="1.95066">
        <ele>1943</ele>
        <time>2018-07-08T06:53:23Z</time>
      </trkpt>
      <trkpt lat="42.62929" lon="1.95069">
        <ele>1943</ele>
        <time>2018-07-08T06:53:35Z</time>
      </trkpt>
      <trkpt lat="42.62938" lon="1.95069">
        <ele>1940</ele>
        <time>2018-07-08T06:53:47Z</time>
      </trkpt>
      <trkpt lat="42.62946" lon="1.9507">
        <ele>1938</ele>
        <time>2018-07-08T06:53:59Z</time>
      </trkpt>
      <trkpt lat="42.62957" lon="1.95072">
        <ele>1936</ele>
        <time>2018-07-08T06:54:10Z</time>
      </trkpt>
      <trkpt lat="42.62963" lon="1.9508">
        <ele>1935</ele>
        <time>2018-07-08T06:54:21Z</time>
      </trkpt>
      <trkpt lat="42.62971" lon="1.95082">
        <ele>1934</ele>
        <time>2018-07-08T06:54:35Z</time>
      </trkpt>
      <trkpt lat="42.62979" lon="1.95083">
        <ele>1933</ele>
        <time>2018-07-08T06:54:48Z</time>
      </trkpt>
      <trkpt lat="42.62979" lon="1.95072">
        <ele>1932</ele>
        <time>2018-07-08T06:55:03Z</time>
      </trkpt>
      <trkpt lat="42.62988" lon="1.95074">
        <ele>1932</ele>
        <time>2018-07-08T06:55:18Z</time>
      </trkpt>
      <trkpt lat="42.62996" lon="1.95076">
        <ele>1931</ele>
        <time>2018-07-08T06:55:37Z</time>
      </trkpt>
      <trkpt lat="42.63003" lon="1.95077">
        <ele>1927</ele>
        <time>2018-07-08T06:55:53Z</time>
      </trkpt>
      <trkpt lat="42.6301" lon="1.95083">
        <ele>1925</ele>
        <time>2018-07-08T06:56:06Z</time>
      </trkpt>
      <trkpt lat="42.63015" lon="1.95093">
        <ele>1928</ele>
        <time>2018-07-08T06:56:18Z</time>
      </trkpt>
      <trkpt lat="42.63022" lon="1.95102">
        <ele>1927</ele>
        <time>2018-07-08T06:56:34Z</time>
      </trkpt>
      <trkpt lat="42.63029" lon="1.95109">
        <ele>1927</ele>
        <time>2018-07-08T06:56:48Z</time>
      </trkpt>
      <trkpt lat="42.63038" lon="1.95112">
        <ele>1925</ele>
        <time>2018-07-08T06:57:02Z</time>
      </trkpt>
      <trkpt lat="42.63045" lon="1.9512">
        <ele>1924</ele>
        <time>2018-07-08T06:57:12Z</time>
      </trkpt>
      <trkpt lat="42.63056" lon="1.9512">
        <ele>1922</ele>
        <time>2018-07-08T06:57:25Z</time>
      </trkpt>
      <trkpt lat="42.63064" lon="1.95124">
        <ele>1921</ele>
        <time>2018-07-08T06:57:40Z</time>
      </trkpt>
      <trkpt lat="42.6307" lon="1.95134">
        <ele>1921</ele>
        <time>2018-07-08T06:57:59Z</time>
      </trkpt>
      <trkpt lat="42.63074" lon="1.95147">
        <ele>1921</ele>
        <time>2018-07-08T06:58:11Z</time>
      </trkpt>
      <trkpt lat="42.6308" lon="1.95158">
        <ele>1918</ele>
        <time>2018-07-08T06:58:22Z</time>
      </trkpt>
      <trkpt lat="42.63086" lon="1.95166">
        <ele>1913</ele>
        <time>2018-07-08T06:58:33Z</time>
      </trkpt>
      <trkpt lat="42.63094" lon="1.95175">
        <ele>1918</ele>
        <time>2018-07-08T06:58:45Z</time>
      </trkpt>
      <trkpt lat="42.63102" lon="1.95181">
        <ele>1919</ele>
        <time>2018-07-08T06:58:56Z</time>
      </trkpt>
      <trkpt lat="42.63111" lon="1.95188">
        <ele>1920</ele>
        <time>2018-07-08T06:59:09Z</time>
      </trkpt>
      <trkpt lat="42.63118" lon="1.95194">
        <ele>1920</ele>
        <time>2018-07-08T06:59:21Z</time>
      </trkpt>
      <trkpt lat="42.63126" lon="1.95198">
        <ele>1920</ele>
        <time>2018-07-08T06:59:37Z</time>
      </trkpt>
      <trkpt lat="42.63134" lon="1.95203">
        <ele>1920</ele>
        <time>2018-07-08T06:59:48Z</time>
      </trkpt>
      <trkpt lat="42.63145" lon="1.9521">
        <ele>1921</ele>
        <time>2018-07-08T07:00:00Z</time>
      </trkpt>
      <trkpt lat="42.63151" lon="1.95215">
        <ele>1922</ele>
        <time>2018-07-08T07:00:21Z</time>
      </trkpt>
      <trkpt lat="42.63159" lon="1.95223">
        <ele>1925</ele>
        <time>2018-07-08T07:00:32Z</time>
      </trkpt>
      <trkpt lat="42.63167" lon="1.95227">
        <ele>1911</ele>
        <time>2018-07-08T07:00:42Z</time>
      </trkpt>
      <trkpt lat="42.63176" lon="1.95232">
        <ele>1914</ele>
        <time>2018-07-08T07:00:51Z</time>
      </trkpt>
      <trkpt lat="42.63183" lon="1.9524">
        <ele>1914</ele>
        <time>2018-07-08T07:01:02Z</time>
      </trkpt>
      <trkpt lat="42.63192" lon="1.95245">
        <ele>1911</ele>
        <time>2018-07-08T07:01:14Z</time>
      </trkpt>
      <trkpt lat="42.63201" lon="1.95251">
        <ele>1944</ele>
        <time>2018-07-08T07:01:26Z</time>
      </trkpt>
      <trkpt lat="42.6321" lon="1.95255">
        <ele>1943</ele>
        <time>2018-07-08T07:01:40Z</time>
      </trkpt>
      <trkpt lat="42.63219" lon="1.95261">
        <ele>1942</ele>
        <time>2018-07-08T07:01:51Z</time>
      </trkpt>
      <trkpt lat="42.63228" lon="1.95265">
        <ele>1940</ele>
        <time>2018-07-08T07:02:09Z</time>
      </trkpt>
      <trkpt lat="42.63238" lon="1.95266">
        <ele>1936</ele>
        <time>2018-07-08T07:02:23Z</time>
      </trkpt>
      <trkpt lat="42.63248" lon="1.95267">
        <ele>1934</ele>
        <time>2018-07-08T07:02:37Z</time>
      </trkpt>
      <trkpt lat="42.63257" lon="1.95265">
        <ele>1920</ele>
        <time>2018-07-08T07:02:54Z</time>
      </trkpt>
      <trkpt lat="42.63266" lon="1.95264">
        <ele>1920</ele>
        <time>2018-07-08T07:03:09Z</time>
      </trkpt>
      <trkpt lat="42.63276" lon="1.95262">
        <ele>1919</ele>
        <time>2018-07-08T07:03:38Z</time>
      </trkpt>
      <trkpt lat="42.63284" lon="1.95267">
        <ele>1919</ele>
        <time>2018-07-08T07:03:53Z</time>
      </trkpt>
      <trkpt lat="42.63293" lon="1.95272">
        <ele>1918</ele>
        <time>2018-07-08T07:04:08Z</time>
      </trkpt>
      <trkpt lat="42.63302" lon="1.95276">
        <ele>1917</ele>
        <time>2018-07-08T07:04:19Z</time>
      </trkpt>
      <trkpt lat="42.63312" lon="1.95276">
        <ele>1915</ele>
        <time>2018-07-08T07:04:32Z</time>
      </trkpt>
      <trkpt lat="42.6332" lon="1.9528">
        <ele>1914</ele>
        <time>2018-07-08T07:04:44Z</time>
      </trkpt>
      <trkpt lat="42.63328" lon="1.95283">
        <ele>1914</ele>
        <time>2018-07-08T07:05:00Z</time>
      </trkpt>
      <trkpt lat="42.63336" lon="1.9529">
        <ele>1893</ele>
        <time>2018-07-08T07:05:17Z</time>
      </trkpt>
      <trkpt lat="42.63343" lon="1.95296">
        <ele>1894</ele>
        <time>2018-07-08T07:06:32Z</time>
      </trkpt>
      <trkpt lat="42.63351" lon="1.95304">
        <ele>1896</ele>
        <time>2018-07-08T07:06:43Z</time>
      </trkpt>
      <trkpt lat="42.63357" lon="1.95307">
        <ele>1895</ele>
        <time>2018-07-08T07:06:57Z</time>
      </trkpt>
      <trkpt lat="42.63363" lon="1.95315">
        <ele>1895</ele>
        <time>2018-07-08T07:07:11Z</time>
      </trkpt>
      <trkpt lat="42.63373" lon="1.95319">
        <ele>1892</ele>
        <time>2018-07-08T07:07:27Z</time>
      </trkpt>
      <trkpt lat="42.63381" lon="1.95326">
        <ele>1890</ele>
        <time>2018-07-08T07:07:43Z</time>
      </trkpt>
      <trkpt lat="42.63388" lon="1.95337">
        <ele>1917</ele>
        <time>2018-07-08T07:08:02Z</time>
      </trkpt>
      <trkpt lat="42.63398" lon="1.95344">
        <ele>1912</ele>
        <time>2018-07-08T07:08:18Z</time>
      </trkpt>
      <trkpt lat="42.63408" lon="1.95349">
        <ele>1909</ele>
        <time>2018-07-08T07:08:36Z</time>
      </trkpt>
      <trkpt lat="42.63415" lon="1.95355">
        <ele>1912</ele>
        <time>2018-07-08T07:08:59Z</time>
      </trkpt>
      <trkpt lat="42.63425" lon="1.9536">
        <ele>1889</ele>
        <time>2018-07-08T07:09:11Z</time>
      </trkpt>
      <trkpt lat="42.63433" lon="1.95368">
        <ele>1891</ele>
        <time>2018-07-08T07:09:26Z</time>
      </trkpt>
      <trkpt lat="42.63441" lon="1.95376">
        <ele>1892</ele>
        <time>2018-07-08T07:09:38Z</time>
      </trkpt>
      <trkpt lat="42.63449" lon="1.95379">
        <ele>1891</ele>
        <time>2018-07-08T07:09:56Z</time>
      </trkpt>
      <trkpt lat="42.6346" lon="1.95385">
        <ele>1889</ele>
        <time>2018-07-08T07:10:14Z</time>
      </trkpt>
      <trkpt lat="42.63466" lon="1.95395">
        <ele>1890</ele>
        <time>2018-07-08T07:10:29Z</time>
      </trkpt>
      <trkpt lat="42.63473" lon="1.95401">
        <ele>1889</ele>
        <time>2018-07-08T07:10:44Z</time>
      </trkpt>
      <trkpt lat="42.63481" lon="1.95409">
        <ele>1889</ele>
        <time>2018-07-08T07:10:57Z</time>
      </trkpt>
      <trkpt lat="42.63489" lon="1.95417">
        <ele>1904</ele>
        <time>2018-07-08T07:11:11Z</time>
      </trkpt>
      <trkpt lat="42.63496" lon="1.95428">
        <ele>1905</ele>
        <time>2018-07-08T07:11:25Z</time>
      </trkpt>
      <trkpt lat="42.63498" lon="1.95437">
        <ele>1913</ele>
        <time>2018-07-08T07:11:40Z</time>
      </trkpt>
      <trkpt lat="42.63502" lon="1.95446">
        <ele>1890</ele>
        <time>2018-07-08T07:11:57Z</time>
      </trkpt>
      <trkpt lat="42.63509" lon="1.95454">
        <ele>1891</ele>
        <time>2018-07-08T07:12:11Z</time>
      </trkpt>
      <trkpt lat="42.63517" lon="1.95463">
        <ele>1893</ele>
        <time>2018-07-08T07:12:32Z</time>
      </trkpt>
      <trkpt lat="42.63522" lon="1.95473">
        <ele>1895</ele>
        <time>2018-07-08T07:12:48Z</time>
      </trkpt>
      <trkpt lat="42.63524" lon="1.95482">
        <ele>1898</ele>
        <time>2018-07-08T07:13:04Z</time>
      </trkpt>
      <trkpt lat="42.63532" lon="1.95488">
        <ele>1896</ele>
        <time>2018-07-08T07:13:20Z</time>
      </trkpt>
      <trkpt lat="42.63537" lon="1.95496">
        <ele>1895</ele>
        <time>2018-07-08T07:13:33Z</time>
      </trkpt>
      <trkpt lat="42.63543" lon="1.95503">
        <ele>1917</ele>
        <time>2018-07-08T07:13:46Z</time>
      </trkpt>
      <trkpt lat="42.63551" lon="1.95512">
        <ele>1915</ele>
        <time>2018-07-08T07:14:01Z</time>
      </trkpt>
      <trkpt lat="42.63553" lon="1.95524">
        <ele>1917</ele>
        <time>2018-07-08T07:14:21Z</time>
      </trkpt>
      <trkpt lat="42.6356" lon="1.9553">
        <ele>1916</ele>
        <time>2018-07-08T07:15:25Z</time>
      </trkpt>
      <trkpt lat="42.63568" lon="1.95538">
        <ele>1917</ele>
        <time>2018-07-08T07:15:39Z</time>
      </trkpt>
      <trkpt lat="42.63576" lon="1.95544">
        <ele>1917</ele>
        <time>2018-07-08T07:15:55Z</time>
      </trkpt>
      <trkpt lat="42.63582" lon="1.95554">
        <ele>1919</ele>
        <time>2018-07-08T07:16:08Z</time>
      </trkpt>
      <trkpt lat="42.6359" lon="1.95561">
        <ele>1892</ele>
        <time>2018-07-08T07:16:36Z</time>
      </trkpt>
      <trkpt lat="42.63595" lon="1.95571">
        <ele>1896</ele>
        <time>2018-07-08T07:16:48Z</time>
      </trkpt>
      <trkpt lat="42.63599" lon="1.95581">
        <ele>1897</ele>
        <time>2018-07-08T07:17:09Z</time>
      </trkpt>
      <trkpt lat="42.63607" lon="1.9559">
        <ele>1908</ele>
        <time>2018-07-08T07:17:58Z</time>
      </trkpt>
      <trkpt lat="42.63611" lon="1.956">
        <ele>1906</ele>
        <time>2018-07-08T07:18:40Z</time>
      </trkpt>
      <trkpt lat="42.63615" lon="1.9561">
        <ele>1906</ele>
        <time>2018-07-08T07:19:15Z</time>
      </trkpt>
      <trkpt lat="42.63622" lon="1.95621">
        <ele>1905</ele>
        <time>2018-07-08T07:19:30Z</time>
      </trkpt>
      <trkpt lat="42.63626" lon="1.95634">
        <ele>1906</ele>
        <time>2018-07-08T07:19:45Z</time>
      </trkpt>
      <trkpt lat="42.63632" lon="1.95646">
        <ele>1905</ele>
        <time>2018-07-08T07:20:01Z</time>
      </trkpt>
      <trkpt lat="42.63635" lon="1.95661">
        <ele>1905</ele>
        <time>2018-07-08T07:20:13Z</time>
      </trkpt>
      <trkpt lat="42.63635" lon="1.95674">
        <ele>1925</ele>
        <time>2018-07-08T07:20:25Z</time>
      </trkpt>
      <trkpt lat="42.63638" lon="1.95686">
        <ele>1926</ele>
        <time>2018-07-08T07:20:40Z</time>
      </trkpt>
      <trkpt lat="42.63647" lon="1.95696">
        <ele>1925</ele>
        <time>2018-07-08T07:20:57Z</time>
      </trkpt>
      <trkpt lat="42.63654" lon="1.95703">
        <ele>1925</ele>
        <time>2018-07-08T07:21:12Z</time>
      </trkpt>
      <trkpt lat="42.63662" lon="1.95711">
        <ele>1926</ele>
        <time>2018-07-08T07:21:28Z</time>
      </trkpt>
      <trkpt lat="42.63659" lon="1.95724">
        <ele>1929</ele>
        <time>2018-07-08T07:21:45Z</time>
      </trkpt>
      <trkpt lat="42.63662" lon="1.95739">
        <ele>1927</ele>
        <time>2018-07-08T07:22:07Z</time>
      </trkpt>
      <trkpt lat="42.63661" lon="1.95748">
        <ele>1924</ele>
        <time>2018-07-08T07:22:34Z</time>
      </trkpt>
      <trkpt lat="42.63668" lon="1.95762">
        <ele>1908</ele>
        <time>2018-07-08T07:22:54Z</time>
      </trkpt>
      <trkpt lat="42.63674" lon="1.95762">
        <ele>1905</ele>
        <time>2018-07-08T07:23:10Z</time>
      </trkpt>
      <trkpt lat="42.63678" lon="1.95766">
        <ele>1902</ele>
        <time>2018-07-08T07:23:25Z</time>
      </trkpt>
      <trkpt lat="42.63683" lon="1.95776">
        <ele>1897</ele>
        <time>2018-07-08T07:23:38Z</time>
      </trkpt>
      <trkpt lat="42.6369" lon="1.95785">
        <ele>1893</ele>
        <time>2018-07-08T07:23:54Z</time>
      </trkpt>
      <trkpt lat="42.63695" lon="1.95796">
        <ele>1893</ele>
        <time>2018-07-08T07:24:08Z</time>
      </trkpt>
      <trkpt lat="42.63696" lon="1.95805">
        <ele>1894</ele>
        <time>2018-07-08T07:24:57Z</time>
      </trkpt>
      <trkpt lat="42.63693" lon="1.9582">
        <ele>1900</ele>
        <time>2018-07-08T07:25:17Z</time>
      </trkpt>
      <trkpt lat="42.63689" lon="1.9583">
        <ele>1907</ele>
        <time>2018-07-08T07:25:31Z</time>
      </trkpt>
      <trkpt lat="42.6369" lon="1.95842">
        <ele>1915</ele>
        <time>2018-07-08T07:25:54Z</time>
      </trkpt>
      <trkpt lat="42.63694" lon="1.95854">
        <ele>1911</ele>
        <time>2018-07-08T07:26:04Z</time>
      </trkpt>
      <trkpt lat="42.63699" lon="1.95863">
        <ele>1908</ele>
        <time>2018-07-08T07:26:15Z</time>
      </trkpt>
      <trkpt lat="42.63704" lon="1.95875">
        <ele>1906</ele>
        <time>2018-07-08T07:26:33Z</time>
      </trkpt>
      <trkpt lat="42.63705" lon="1.95885">
        <ele>1906</ele>
        <time>2018-07-08T07:27:03Z</time>
      </trkpt>
      <trkpt lat="42.63707" lon="1.95893">
        <ele>1907</ele>
        <time>2018-07-08T07:27:31Z</time>
      </trkpt>
      <trkpt lat="42.63712" lon="1.95901">
        <ele>1904</ele>
        <time>2018-07-08T07:27:56Z</time>
      </trkpt>
      <trkpt lat="42.63716" lon="1.95916">
        <ele>1902</ele>
        <time>2018-07-08T07:28:16Z</time>
      </trkpt>
      <trkpt lat="42.63719" lon="1.95929">
        <ele>1911</ele>
        <time>2018-07-08T07:28:35Z</time>
      </trkpt>
      <trkpt lat="42.63718" lon="1.95942">
        <ele>1914</ele>
        <time>2018-07-08T07:28:50Z</time>
      </trkpt>
      <trkpt lat="42.63715" lon="1.95955">
        <ele>1917</ele>
        <time>2018-07-08T07:29:03Z</time>
      </trkpt>
      <trkpt lat="42.63712" lon="1.95967">
        <ele>1919</ele>
        <time>2018-07-08T07:29:15Z</time>
      </trkpt>
      <trkpt lat="42.6371" lon="1.95978">
        <ele>1921</ele>
        <time>2018-07-08T07:29:30Z</time>
      </trkpt>
      <trkpt lat="42.63707" lon="1.95989">
        <ele>1924</ele>
        <time>2018-07-08T07:29:44Z</time>
      </trkpt>
      <trkpt lat="42.63702" lon="1.95999">
        <ele>1928</ele>
        <time>2018-07-08T07:29:58Z</time>
      </trkpt>
      <trkpt lat="42.63697" lon="1.9601">
        <ele>1930</ele>
        <time>2018-07-08T07:30:10Z</time>
      </trkpt>
      <trkpt lat="42.63694" lon="1.96021">
        <ele>1930</ele>
        <time>2018-07-08T07:30:29Z</time>
      </trkpt>
      <trkpt lat="42.63692" lon="1.96034">
        <ele>1928</ele>
        <time>2018-07-08T07:30:43Z</time>
      </trkpt>
      <trkpt lat="42.6369" lon="1.96045">
        <ele>1927</ele>
        <time>2018-07-08T07:30:58Z</time>
      </trkpt>
      <trkpt lat="42.63689" lon="1.96058">
        <ele>1927</ele>
        <time>2018-07-08T07:31:18Z</time>
      </trkpt>
      <trkpt lat="42.63684" lon="1.96067">
        <ele>1930</ele>
        <time>2018-07-08T07:31:34Z</time>
      </trkpt>
      <trkpt lat="42.63683" lon="1.96077">
        <ele>1933</ele>
        <time>2018-07-08T07:31:51Z</time>
      </trkpt>
      <trkpt lat="42.63682" lon="1.96089">
        <ele>1928</ele>
        <time>2018-07-08T07:32:12Z</time>
      </trkpt>
      <trkpt lat="42.63679" lon="1.96099">
        <ele>1927</ele>
        <time>2018-07-08T07:32:39Z</time>
      </trkpt>
      <trkpt lat="42.63679" lon="1.96109">
        <ele>1923</ele>
        <time>2018-07-08T07:33:03Z</time>
      </trkpt>
      <trkpt lat="42.6368" lon="1.96117">
        <ele>1921</ele>
        <time>2018-07-08T07:33:24Z</time>
      </trkpt>
      <trkpt lat="42.63683" lon="1.96128">
        <ele>1919</ele>
        <time>2018-07-08T07:33:41Z</time>
      </trkpt>
      <trkpt lat="42.63681" lon="1.96139">
        <ele>1921</ele>
        <time>2018-07-08T07:34:30Z</time>
      </trkpt>
      <trkpt lat="42.63676" lon="1.96147">
        <ele>1925</ele>
        <time>2018-07-08T07:34:51Z</time>
      </trkpt>
      <trkpt lat="42.6367" lon="1.96156">
        <ele>1932</ele>
        <time>2018-07-08T07:35:07Z</time>
      </trkpt>
      <trkpt lat="42.63665" lon="1.96163">
        <ele>1950</ele>
        <time>2018-07-08T07:35:25Z</time>
      </trkpt>
      <trkpt lat="42.63658" lon="1.96171">
        <ele>1956</ele>
        <time>2018-07-08T07:35:46Z</time>
      </trkpt>
      <trkpt lat="42.63654" lon="1.96181">
        <ele>1963</ele>
        <time>2018-07-08T07:36:00Z</time>
      </trkpt>
      <trkpt lat="42.63653" lon="1.96192">
        <ele>1967</ele>
        <time>2018-07-08T07:36:22Z</time>
      </trkpt>
      <trkpt lat="42.6365" lon="1.96197">
        <ele>1969</ele>
        <time>2018-07-08T07:36:41Z</time>
      </trkpt>
      <trkpt lat="42.63647" lon="1.96203">
        <ele>1971</ele>
        <time>2018-07-08T07:37:07Z</time>
      </trkpt>
      <trkpt lat="42.63641" lon="1.96211">
        <ele>1973</ele>
        <time>2018-07-08T07:37:36Z</time>
      </trkpt>
      <trkpt lat="42.63646" lon="1.96216">
        <ele>1971</ele>
        <time>2018-07-08T07:40:44Z</time>
      </trkpt>
      <trkpt lat="42.63644" lon="1.96226">
        <ele>1970</ele>
        <time>2018-07-08T07:41:19Z</time>
      </trkpt>
      <trkpt lat="42.63643" lon="1.96237">
        <ele>1968</ele>
        <time>2018-07-08T07:41:39Z</time>
      </trkpt>
      <trkpt lat="42.63639" lon="1.96241">
        <ele>1970</ele>
        <time>2018-07-08T07:42:04Z</time>
      </trkpt>
      <trkpt lat="42.6364" lon="1.96253">
        <ele>1964</ele>
        <time>2018-07-08T07:42:24Z</time>
      </trkpt>
      <trkpt lat="42.63639" lon="1.96264">
        <ele>1965</ele>
        <time>2018-07-08T07:43:06Z</time>
      </trkpt>
      <trkpt lat="42.63634" lon="1.9627">
        <ele>1968</ele>
        <time>2018-07-08T07:43:18Z</time>
      </trkpt>
      <trkpt lat="42.63627" lon="1.96279">
        <ele>1971</ele>
        <time>2018-07-08T07:43:32Z</time>
      </trkpt>
      <trkpt lat="42.63623" lon="1.96291">
        <ele>1972</ele>
        <time>2018-07-08T07:43:46Z</time>
      </trkpt>
      <trkpt lat="42.63619" lon="1.96302">
        <ele>1972</ele>
        <time>2018-07-08T07:43:59Z</time>
      </trkpt>
      <trkpt lat="42.63613" lon="1.96309">
        <ele>1974</ele>
        <time>2018-07-08T07:44:13Z</time>
      </trkpt>
      <trkpt lat="42.63609" lon="1.96321">
        <ele>1975</ele>
        <time>2018-07-08T07:44:24Z</time>
      </trkpt>
      <trkpt lat="42.63613" lon="1.96333">
        <ele>1974</ele>
        <time>2018-07-08T07:44:35Z</time>
      </trkpt>
      <trkpt lat="42.63614" lon="1.96346">
        <ele>1969</ele>
        <time>2018-07-08T07:44:48Z</time>
      </trkpt>
      <trkpt lat="42.63609" lon="1.96358">
        <ele>1969</ele>
        <time>2018-07-08T07:45:02Z</time>
      </trkpt>
      <trkpt lat="42.63606" lon="1.96369">
        <ele>1969</ele>
        <time>2018-07-08T07:45:12Z</time>
      </trkpt>
      <trkpt lat="42.63599" lon="1.96378">
        <ele>1970</ele>
        <time>2018-07-08T07:45:24Z</time>
      </trkpt>
      <trkpt lat="42.63593" lon="1.96387">
        <ele>1971</ele>
        <time>2018-07-08T07:45:34Z</time>
      </trkpt>
      <trkpt lat="42.63591" lon="1.96399">
        <ele>1972</ele>
        <time>2018-07-08T07:45:44Z</time>
      </trkpt>
      <trkpt lat="42.63589" lon="1.9641">
        <ele>1975</ele>
        <time>2018-07-08T07:45:56Z</time>
      </trkpt>
      <trkpt lat="42.63584" lon="1.9642">
        <ele>1977</ele>
        <time>2018-07-08T07:46:07Z</time>
      </trkpt>
      <trkpt lat="42.6358" lon="1.9643">
        <ele>1984</ele>
        <time>2018-07-08T07:46:19Z</time>
      </trkpt>
      <trkpt lat="42.63576" lon="1.96441">
        <ele>1986</ele>
        <time>2018-07-08T07:46:29Z</time>
      </trkpt>
      <trkpt lat="42.63572" lon="1.9645">
        <ele>1986</ele>
        <time>2018-07-08T07:46:42Z</time>
      </trkpt>
      <trkpt lat="42.63567" lon="1.96462">
        <ele>1986</ele>
        <time>2018-07-08T07:46:53Z</time>
      </trkpt>
      <trkpt lat="42.63568" lon="1.96475">
        <ele>1984</ele>
        <time>2018-07-08T07:47:04Z</time>
      </trkpt>
      <trkpt lat="42.63567" lon="1.96488">
        <ele>1982</ele>
        <time>2018-07-08T07:47:15Z</time>
      </trkpt>
      <trkpt lat="42.63567" lon="1.96502">
        <ele>1976</ele>
        <time>2018-07-08T07:47:25Z</time>
      </trkpt>
      <trkpt lat="42.63566" lon="1.96515">
        <ele>1978</ele>
        <time>2018-07-08T07:47:37Z</time>
      </trkpt>
      <trkpt lat="42.63563" lon="1.96526">
        <ele>1979</ele>
        <time>2018-07-08T07:47:49Z</time>
      </trkpt>
      <trkpt lat="42.63559" lon="1.96536">
        <ele>1980</ele>
        <time>2018-07-08T07:47:59Z</time>
      </trkpt>
      <trkpt lat="42.63558" lon="1.96548">
        <ele>1980</ele>
        <time>2018-07-08T07:48:09Z</time>
      </trkpt>
      <trkpt lat="42.63559" lon="1.96562">
        <ele>1978</ele>
        <time>2018-07-08T07:48:20Z</time>
      </trkpt>
      <trkpt lat="42.63558" lon="1.96575">
        <ele>1977</ele>
        <time>2018-07-08T07:48:41Z</time>
      </trkpt>
      <trkpt lat="42.63561" lon="1.96587">
        <ele>1971</ele>
        <time>2018-07-08T07:48:51Z</time>
      </trkpt>
      <trkpt lat="42.63566" lon="1.96597">
        <ele>1970</ele>
        <time>2018-07-08T07:49:01Z</time>
      </trkpt>
      <trkpt lat="42.63571" lon="1.96609">
        <ele>1970</ele>
        <time>2018-07-08T07:49:12Z</time>
      </trkpt>
      <trkpt lat="42.63575" lon="1.96621">
        <ele>1969</ele>
        <time>2018-07-08T07:49:22Z</time>
      </trkpt>
      <trkpt lat="42.63573" lon="1.96634">
        <ele>1968</ele>
        <time>2018-07-08T07:49:33Z</time>
      </trkpt>
      <trkpt lat="42.6357" lon="1.96646">
        <ele>1967</ele>
        <time>2018-07-08T07:49:43Z</time>
      </trkpt>
      <trkpt lat="42.63564" lon="1.96653">
        <ele>1967</ele>
        <time>2018-07-08T07:49:55Z</time>
      </trkpt>
      <trkpt lat="42.63557" lon="1.96661">
        <ele>1968</ele>
        <time>2018-07-08T07:50:11Z</time>
      </trkpt>
      <trkpt lat="42.63551" lon="1.9667">
        <ele>1966</ele>
        <time>2018-07-08T07:50:27Z</time>
      </trkpt>
      <trkpt lat="42.63547" lon="1.96679">
        <ele>1967</ele>
        <time>2018-07-08T07:50:47Z</time>
      </trkpt>
      <trkpt lat="42.63542" lon="1.9669">
        <ele>1968</ele>
        <time>2018-07-08T07:50:59Z</time>
      </trkpt>
      <trkpt lat="42.63546" lon="1.96701">
        <ele>1968</ele>
        <time>2018-07-08T07:51:09Z</time>
      </trkpt>
      <trkpt lat="42.63554" lon="1.96707">
        <ele>1967</ele>
        <time>2018-07-08T07:51:24Z</time>
      </trkpt>
      <trkpt lat="42.63558" lon="1.96715">
        <ele>1967</ele>
        <time>2018-07-08T07:51:55Z</time>
      </trkpt>
      <trkpt lat="42.63566" lon="1.96721">
        <ele>1967</ele>
        <time>2018-07-08T07:52:04Z</time>
      </trkpt>
      <trkpt lat="42.63574" lon="1.96722">
        <ele>1967</ele>
        <time>2018-07-08T07:52:16Z</time>
      </trkpt>
      <trkpt lat="42.63585" lon="1.96722">
        <ele>1962</ele>
        <time>2018-07-08T07:52:27Z</time>
      </trkpt>
      <trkpt lat="42.63596" lon="1.96722">
        <ele>1962</ele>
        <time>2018-07-08T07:52:38Z</time>
      </trkpt>
      <trkpt lat="42.63605" lon="1.96723">
        <ele>1961</ele>
        <time>2018-07-08T07:52:52Z</time>
      </trkpt>
      <trkpt lat="42.63616" lon="1.96721">
        <ele>1961</ele>
        <time>2018-07-08T07:53:04Z</time>
      </trkpt>
      <trkpt lat="42.63626" lon="1.96722">
        <ele>1960</ele>
        <time>2018-07-08T07:53:18Z</time>
      </trkpt>
      <trkpt lat="42.63635" lon="1.96723">
        <ele>1960</ele>
        <time>2018-07-08T07:53:28Z</time>
      </trkpt>
      <trkpt lat="42.63642" lon="1.96728">
        <ele>1960</ele>
        <time>2018-07-08T07:53:39Z</time>
      </trkpt>
      <trkpt lat="42.63652" lon="1.96731">
        <ele>1960</ele>
        <time>2018-07-08T07:53:48Z</time>
      </trkpt>
      <trkpt lat="42.63657" lon="1.96738">
        <ele>1960</ele>
        <time>2018-07-08T07:53:58Z</time>
      </trkpt>
      <trkpt lat="42.63662" lon="1.96747">
        <ele>1961</ele>
        <time>2018-07-08T07:54:10Z</time>
      </trkpt>
      <trkpt lat="42.63667" lon="1.96758">
        <ele>1960</ele>
        <time>2018-07-08T07:54:23Z</time>
      </trkpt>
      <trkpt lat="42.63671" lon="1.96769">
        <ele>1960</ele>
        <time>2018-07-08T07:54:37Z</time>
      </trkpt>
      <trkpt lat="42.63681" lon="1.96769">
        <ele>1959</ele>
        <time>2018-07-08T07:54:49Z</time>
      </trkpt>
      <trkpt lat="42.6369" lon="1.96774">
        <ele>1959</ele>
        <time>2018-07-08T07:55:00Z</time>
      </trkpt>
      <trkpt lat="42.63698" lon="1.96777">
        <ele>1958</ele>
        <time>2018-07-08T07:55:30Z</time>
      </trkpt>
      <trkpt lat="42.63706" lon="1.96783">
        <ele>1958</ele>
        <time>2018-07-08T07:55:56Z</time>
      </trkpt>
      <trkpt lat="42.63714" lon="1.96786">
        <ele>1957</ele>
        <time>2018-07-08T07:56:08Z</time>
      </trkpt>
      <trkpt lat="42.63712" lon="1.96777">
        <ele>1957</ele>
        <time>2018-07-08T07:56:47Z</time>
      </trkpt>
      <trkpt lat="42.63707" lon="1.96765">
        <ele>1957</ele>
        <time>2018-07-08T07:56:59Z</time>
      </trkpt>
      <trkpt lat="42.63706" lon="1.96754">
        <ele>1957</ele>
        <time>2018-07-08T07:57:11Z</time>
      </trkpt>
      <trkpt lat="42.63708" lon="1.96742">
        <ele>1951</ele>
        <time>2018-07-08T07:57:22Z</time>
      </trkpt>
      <trkpt lat="42.63714" lon="1.96734">
        <ele>1950</ele>
        <time>2018-07-08T07:57:33Z</time>
      </trkpt>
      <trkpt lat="42.63719" lon="1.96726">
        <ele>1949</ele>
        <time>2018-07-08T07:57:46Z</time>
      </trkpt>
      <trkpt lat="42.63727" lon="1.96731">
        <ele>1949</ele>
        <time>2018-07-08T07:57:59Z</time>
      </trkpt>
      <trkpt lat="42.63736" lon="1.96734">
        <ele>1948</ele>
        <time>2018-07-08T07:58:12Z</time>
      </trkpt>
      <trkpt lat="42.63744" lon="1.96738">
        <ele>1948</ele>
        <time>2018-07-08T07:58:24Z</time>
      </trkpt>
      <trkpt lat="42.63753" lon="1.96741">
        <ele>1939</ele>
        <time>2018-07-08T07:58:35Z</time>
      </trkpt>
      <trkpt lat="42.63763" lon="1.96741">
        <ele>1935</ele>
        <time>2018-07-08T07:58:46Z</time>
      </trkpt>
      <trkpt lat="42.63771" lon="1.96746">
        <ele>1932</ele>
        <time>2018-07-08T07:58:56Z</time>
      </trkpt>
      <trkpt lat="42.63779" lon="1.96751">
        <ele>1938</ele>
        <time>2018-07-08T07:59:06Z</time>
      </trkpt>
      <trkpt lat="42.63785" lon="1.9676">
        <ele>1937</ele>
        <time>2018-07-08T07:59:16Z</time>
      </trkpt>
      <trkpt lat="42.63792" lon="1.96767">
        <ele>1935</ele>
        <time>2018-07-08T07:59:26Z</time>
      </trkpt>
      <trkpt lat="42.63801" lon="1.96772">
        <ele>1934</ele>
        <time>2018-07-08T07:59:36Z</time>
      </trkpt>
      <trkpt lat="42.63807" lon="1.96779">
        <ele>1933</ele>
        <time>2018-07-08T07:59:46Z</time>
      </trkpt>
      <trkpt lat="42.63816" lon="1.96785">
        <ele>1933</ele>
        <time>2018-07-08T07:59:56Z</time>
      </trkpt>
      <trkpt lat="42.63825" lon="1.96789">
        <ele>1932</ele>
        <time>2018-07-08T08:00:09Z</time>
      </trkpt>
      <trkpt lat="42.63835" lon="1.96791">
        <ele>1910</ele>
        <time>2018-07-08T08:00:28Z</time>
      </trkpt>
      <trkpt lat="42.63841" lon="1.96798">
        <ele>1911</ele>
        <time>2018-07-08T08:00:43Z</time>
      </trkpt>
      <trkpt lat="42.63849" lon="1.96804">
        <ele>1911</ele>
        <time>2018-07-08T08:01:00Z</time>
      </trkpt>
      <trkpt lat="42.63856" lon="1.96812">
        <ele>1911</ele>
        <time>2018-07-08T08:01:16Z</time>
      </trkpt>
      <trkpt lat="42.63864" lon="1.96818">
        <ele>1910</ele>
        <time>2018-07-08T08:01:29Z</time>
      </trkpt>
      <trkpt lat="42.63871" lon="1.96826">
        <ele>1908</ele>
        <time>2018-07-08T08:01:45Z</time>
      </trkpt>
      <trkpt lat="42.63877" lon="1.96836">
        <ele>1923</ele>
        <time>2018-07-08T08:02:00Z</time>
      </trkpt>
      <trkpt lat="42.63887" lon="1.96837">
        <ele>1921</ele>
        <time>2018-07-08T08:02:45Z</time>
      </trkpt>
      <trkpt lat="42.63895" lon="1.96832">
        <ele>1903</ele>
        <time>2018-07-08T08:03:01Z</time>
      </trkpt>
      <trkpt lat="42.63905" lon="1.96833">
        <ele>1901</ele>
        <time>2018-07-08T08:03:16Z</time>
      </trkpt>
      <trkpt lat="42.63915" lon="1.96837">
        <ele>1904</ele>
        <time>2018-07-08T08:03:27Z</time>
      </trkpt>
      <trkpt lat="42.63925" lon="1.9684">
        <ele>1906</ele>
        <time>2018-07-08T08:03:40Z</time>
      </trkpt>
      <trkpt lat="42.63938" lon="1.96841">
        <ele>1910</ele>
        <time>2018-07-08T08:03:56Z</time>
      </trkpt>
      <trkpt lat="42.63948" lon="1.96839">
        <ele>1911</ele>
        <time>2018-07-08T08:04:14Z</time>
      </trkpt>
      <trkpt lat="42.63958" lon="1.96834">
        <ele>1911</ele>
        <time>2018-07-08T08:04:29Z</time>
      </trkpt>
      <trkpt lat="42.63967" lon="1.96831">
        <ele>1886</ele>
        <time>2018-07-08T08:04:44Z</time>
      </trkpt>
      <trkpt lat="42.63976" lon="1.96827">
        <ele>1887</ele>
        <time>2018-07-08T08:05:01Z</time>
      </trkpt>
      <trkpt lat="42.63985" lon="1.96821">
        <ele>1888</ele>
        <time>2018-07-08T08:05:15Z</time>
      </trkpt>
      <trkpt lat="42.63994" lon="1.96816">
        <ele>1887</ele>
        <time>2018-07-08T08:05:29Z</time>
      </trkpt>
      <trkpt lat="42.64002" lon="1.96808">
        <ele>1881</ele>
        <time>2018-07-08T08:05:45Z</time>
      </trkpt>
      <trkpt lat="42.64012" lon="1.96801">
        <ele>1877</ele>
        <time>2018-07-08T08:06:02Z</time>
      </trkpt>
      <trkpt lat="42.64019" lon="1.96794">
        <ele>1874</ele>
        <time>2018-07-08T08:06:18Z</time>
      </trkpt>
      <trkpt lat="42.64021" lon="1.96787">
        <ele>1872</ele>
        <time>2018-07-08T08:06:37Z</time>
      </trkpt>
      <trkpt lat="42.64012" lon="1.96786">
        <ele>1871</ele>
        <time>2018-07-08T08:06:50Z</time>
      </trkpt>
      <trkpt lat="42.64003" lon="1.96784">
        <ele>1871</ele>
        <time>2018-07-08T08:07:06Z</time>
      </trkpt>
      <trkpt lat="42.63995" lon="1.96781">
        <ele>1873</ele>
        <time>2018-07-08T08:07:23Z</time>
      </trkpt>
      <trkpt lat="42.63988" lon="1.96778">
        <ele>1872</ele>
        <time>2018-07-08T08:07:42Z</time>
      </trkpt>
      <trkpt lat="42.63978" lon="1.96775">
        <ele>1872</ele>
        <time>2018-07-08T08:07:58Z</time>
      </trkpt>
      <trkpt lat="42.6397" lon="1.96771">
        <ele>1872</ele>
        <time>2018-07-08T08:08:14Z</time>
      </trkpt>
      <trkpt lat="42.63974" lon="1.96768">
        <ele>1871</ele>
        <time>2018-07-08T08:08:31Z</time>
      </trkpt>
      <trkpt lat="42.63981" lon="1.96762">
        <ele>1867</ele>
        <time>2018-07-08T08:09:00Z</time>
      </trkpt>
      <trkpt lat="42.63991" lon="1.96757">
        <ele>1862</ele>
        <time>2018-07-08T08:09:13Z</time>
      </trkpt>
      <trkpt lat="42.64" lon="1.96752">
        <ele>1854</ele>
        <time>2018-07-08T08:09:26Z</time>
      </trkpt>
      <trkpt lat="42.64001" lon="1.96747">
        <ele>1849</ele>
        <time>2018-07-08T08:09:40Z</time>
      </trkpt>
      <trkpt lat="42.63994" lon="1.96742">
        <ele>1848</ele>
        <time>2018-07-08T08:09:54Z</time>
      </trkpt>
      <trkpt lat="42.63986" lon="1.9674">
        <ele>1845</ele>
        <time>2018-07-08T08:10:12Z</time>
      </trkpt>
      <trkpt lat="42.63982" lon="1.96736">
        <ele>1844</ele>
        <time>2018-07-08T08:10:28Z</time>
      </trkpt>
      <trkpt lat="42.6399" lon="1.96728">
        <ele>1843</ele>
        <time>2018-07-08T08:10:44Z</time>
      </trkpt>
      <trkpt lat="42.63998" lon="1.96722">
        <ele>1841</ele>
        <time>2018-07-08T08:11:01Z</time>
      </trkpt>
      <trkpt lat="42.64007" lon="1.96715">
        <ele>1832</ele>
        <time>2018-07-08T08:11:18Z</time>
      </trkpt>
      <trkpt lat="42.64016" lon="1.96711">
        <ele>1830</ele>
        <time>2018-07-08T08:11:34Z</time>
      </trkpt>
      <trkpt lat="42.64025" lon="1.96705">
        <ele>1828</ele>
        <time>2018-07-08T08:11:50Z</time>
      </trkpt>
      <trkpt lat="42.64034" lon="1.96696">
        <ele>1826</ele>
        <time>2018-07-08T08:12:04Z</time>
      </trkpt>
      <trkpt lat="42.64042" lon="1.9669">
        <ele>1824</ele>
        <time>2018-07-08T08:12:17Z</time>
      </trkpt>
      <trkpt lat="42.64051" lon="1.96685">
        <ele>1823</ele>
        <time>2018-07-08T08:12:29Z</time>
      </trkpt>
      <trkpt lat="42.64058" lon="1.96679">
        <ele>1820</ele>
        <time>2018-07-08T08:12:44Z</time>
      </trkpt>
      <trkpt lat="42.64067" lon="1.96678">
        <ele>1817</ele>
        <time>2018-07-08T08:12:57Z</time>
      </trkpt>
      <trkpt lat="42.64075" lon="1.96671">
        <ele>1812</ele>
        <time>2018-07-08T08:13:11Z</time>
      </trkpt>
      <trkpt lat="42.64085" lon="1.96673">
        <ele>1807</ele>
        <time>2018-07-08T08:13:23Z</time>
      </trkpt>
      <trkpt lat="42.64095" lon="1.96679">
        <ele>1811</ele>
        <time>2018-07-08T08:13:36Z</time>
      </trkpt>
      <trkpt lat="42.64103" lon="1.96685">
        <ele>1813</ele>
        <time>2018-07-08T08:13:47Z</time>
      </trkpt>
      <trkpt lat="42.64112" lon="1.96692">
        <ele>1815</ele>
        <time>2018-07-08T08:14:02Z</time>
      </trkpt>
      <trkpt lat="42.64121" lon="1.96696">
        <ele>1815</ele>
        <time>2018-07-08T08:14:15Z</time>
      </trkpt>
      <trkpt lat="42.64131" lon="1.96699">
        <ele>1815</ele>
        <time>2018-07-08T08:14:29Z</time>
      </trkpt>
      <trkpt lat="42.64143" lon="1.96697">
        <ele>1812</ele>
        <time>2018-07-08T08:14:43Z</time>
      </trkpt>
      <trkpt lat="42.64154" lon="1.967">
        <ele>1812</ele>
        <time>2018-07-08T08:14:59Z</time>
      </trkpt>
      <trkpt lat="42.64166" lon="1.96703">
        <ele>1812</ele>
        <time>2018-07-08T08:15:14Z</time>
      </trkpt>
      <trkpt lat="42.64177" lon="1.96704">
        <ele>1794</ele>
        <time>2018-07-08T08:15:30Z</time>
      </trkpt>
      <trkpt lat="42.6419" lon="1.96708">
        <ele>1793</ele>
        <time>2018-07-08T08:15:49Z</time>
      </trkpt>
      <trkpt lat="42.642" lon="1.96707">
        <ele>1791</ele>
        <time>2018-07-08T08:16:08Z</time>
      </trkpt>
      <trkpt lat="42.64213" lon="1.96712">
        <ele>1789</ele>
        <time>2018-07-08T08:16:28Z</time>
      </trkpt>
      <trkpt lat="42.64224" lon="1.96712">
        <ele>1787</ele>
        <time>2018-07-08T08:16:45Z</time>
      </trkpt>
      <trkpt lat="42.64224" lon="1.9671">
        <ele>1786</ele>
        <time>2018-07-08T08:17:01Z</time>
      </trkpt>
      <trkpt lat="42.64215" lon="1.96701">
        <ele>1785</ele>
        <time>2018-07-08T08:17:17Z</time>
      </trkpt>
      <trkpt lat="42.64207" lon="1.96697">
        <ele>1786</ele>
        <time>2018-07-08T08:17:31Z</time>
      </trkpt>
      <trkpt lat="42.64199" lon="1.9669">
        <ele>1786</ele>
        <time>2018-07-08T08:17:43Z</time>
      </trkpt>
      <trkpt lat="42.64201" lon="1.96688">
        <ele>1785</ele>
        <time>2018-07-08T08:18:00Z</time>
      </trkpt>
      <trkpt lat="42.64213" lon="1.9669">
        <ele>1783</ele>
        <time>2018-07-08T08:18:18Z</time>
      </trkpt>
      <trkpt lat="42.64206" lon="1.9668">
        <ele>1782</ele>
        <time>2018-07-08T08:18:33Z</time>
      </trkpt>
      <trkpt lat="42.642" lon="1.96672">
        <ele>1783</ele>
        <time>2018-07-08T08:18:46Z</time>
      </trkpt>
      <trkpt lat="42.64192" lon="1.96666">
        <ele>1758</ele>
        <time>2018-07-08T08:19:02Z</time>
      </trkpt>
      <trkpt lat="42.64185" lon="1.96655">
        <ele>1760</ele>
        <time>2018-07-08T08:19:19Z</time>
      </trkpt>
      <trkpt lat="42.64192" lon="1.96654">
        <ele>1756</ele>
        <time>2018-07-08T08:19:37Z</time>
      </trkpt>
      <trkpt lat="42.64204" lon="1.96657">
        <ele>1752</ele>
        <time>2018-07-08T08:19:56Z</time>
      </trkpt>
      <trkpt lat="42.64215" lon="1.96657">
        <ele>1748</ele>
        <time>2018-07-08T08:20:11Z</time>
      </trkpt>
      <trkpt lat="42.64214" lon="1.96646">
        <ele>1747</ele>
        <time>2018-07-08T08:20:25Z</time>
      </trkpt>
      <trkpt lat="42.64209" lon="1.96639">
        <ele>1747</ele>
        <time>2018-07-08T08:20:39Z</time>
      </trkpt>
      <trkpt lat="42.64208" lon="1.96633">
        <ele>1745</ele>
        <time>2018-07-08T08:20:56Z</time>
      </trkpt>
      <trkpt lat="42.64219" lon="1.96636">
        <ele>1744</ele>
        <time>2018-07-08T08:21:53Z</time>
      </trkpt>
      <trkpt lat="42.64228" lon="1.96632">
        <ele>1741</ele>
        <time>2018-07-08T08:22:09Z</time>
      </trkpt>
      <trkpt lat="42.64235" lon="1.96638">
        <ele>1742</ele>
        <time>2018-07-08T08:22:42Z</time>
      </trkpt>
      <trkpt lat="42.64244" lon="1.96636">
        <ele>1740</ele>
        <time>2018-07-08T08:22:58Z</time>
      </trkpt>
      <trkpt lat="42.6425" lon="1.96632">
        <ele>1739</ele>
        <time>2018-07-08T08:23:15Z</time>
      </trkpt>
      <trkpt lat="42.64242" lon="1.96622">
        <ele>1736</ele>
        <time>2018-07-08T08:23:31Z</time>
      </trkpt>
      <trkpt lat="42.64233" lon="1.96615">
        <ele>1735</ele>
        <time>2018-07-08T08:23:47Z</time>
      </trkpt>
      <trkpt lat="42.64225" lon="1.96607">
        <ele>1734</ele>
        <time>2018-07-08T08:24:00Z</time>
      </trkpt>
      <trkpt lat="42.64217" lon="1.966">
        <ele>1735</ele>
        <time>2018-07-08T08:24:12Z</time>
      </trkpt>
      <trkpt lat="42.64209" lon="1.96592">
        <ele>1736</ele>
        <time>2018-07-08T08:24:26Z</time>
      </trkpt>
      <trkpt lat="42.64202" lon="1.96584">
        <ele>1737</ele>
        <time>2018-07-08T08:24:38Z</time>
      </trkpt>
      <trkpt lat="42.64198" lon="1.96577">
        <ele>1713</ele>
        <time>2018-07-08T08:24:53Z</time>
      </trkpt>
      <trkpt lat="42.64207" lon="1.9658">
        <ele>1709</ele>
        <time>2018-07-08T08:25:09Z</time>
      </trkpt>
      <trkpt lat="42.64218" lon="1.9658">
        <ele>1706</ele>
        <time>2018-07-08T08:25:24Z</time>
      </trkpt>
      <trkpt lat="42.64228" lon="1.96576">
        <ele>1704</ele>
        <time>2018-07-08T08:25:43Z</time>
      </trkpt>
      <trkpt lat="42.64241" lon="1.96573">
        <ele>1703</ele>
        <time>2018-07-08T08:26:07Z</time>
      </trkpt>
      <trkpt lat="42.64255" lon="1.96576">
        <ele>1694</ele>
        <time>2018-07-08T08:26:32Z</time>
      </trkpt>
      <trkpt lat="42.64255" lon="1.96566">
        <ele>1687</ele>
        <time>2018-07-08T08:26:52Z</time>
      </trkpt>
      <trkpt lat="42.6425" lon="1.96555">
        <ele>1698</ele>
        <time>2018-07-08T08:27:13Z</time>
      </trkpt>
      <trkpt lat="42.64242" lon="1.96545">
        <ele>1696</ele>
        <time>2018-07-08T08:27:30Z</time>
      </trkpt>
      <trkpt lat="42.64243" lon="1.96539">
        <ele>1694</ele>
        <time>2018-07-08T08:27:49Z</time>
      </trkpt>
      <trkpt lat="42.64255" lon="1.96541">
        <ele>1675</ele>
        <time>2018-07-08T08:28:11Z</time>
      </trkpt>
      <trkpt lat="42.64269" lon="1.96535">
        <ele>1671</ele>
        <time>2018-07-08T08:28:40Z</time>
      </trkpt>
      <trkpt lat="42.64272" lon="1.96531">
        <ele>1670</ele>
        <time>2018-07-08T08:29:03Z</time>
      </trkpt>
      <trkpt lat="42.64274" lon="1.96525">
        <ele>1668</ele>
        <time>2018-07-08T08:29:27Z</time>
      </trkpt>
      <trkpt lat="42.64272" lon="1.96516">
        <ele>1667</ele>
        <time>2018-07-08T08:29:49Z</time>
      </trkpt>
      <trkpt lat="42.64285" lon="1.96512">
        <ele>1665</ele>
        <time>2018-07-08T08:30:13Z</time>
      </trkpt>
      <trkpt lat="42.64276" lon="1.96504">
        <ele>1665</ele>
        <time>2018-07-08T08:30:34Z</time>
      </trkpt>
      <trkpt lat="42.64267" lon="1.96494">
        <ele>1647</ele>
        <time>2018-07-08T08:30:53Z</time>
      </trkpt>
      <trkpt lat="42.64258" lon="1.96481">
        <ele>1645</ele>
        <time>2018-07-08T08:31:09Z</time>
      </trkpt>
      <trkpt lat="42.64267" lon="1.96479">
        <ele>1641</ele>
        <time>2018-07-08T08:31:36Z</time>
      </trkpt>
      <trkpt lat="42.64278" lon="1.96475">
        <ele>1637</ele>
        <time>2018-07-08T08:32:01Z</time>
      </trkpt>
      <trkpt lat="42.6427" lon="1.96461">
        <ele>1635</ele>
        <time>2018-07-08T08:32:22Z</time>
      </trkpt>
      <trkpt lat="42.64278" lon="1.96457">
        <ele>1633</ele>
        <time>2018-07-08T08:32:39Z</time>
      </trkpt>
      <trkpt lat="42.64284" lon="1.9646">
        <ele>1633</ele>
        <time>2018-07-08T08:32:58Z</time>
      </trkpt>
      <trkpt lat="42.64275" lon="1.96447">
        <ele>1631</ele>
        <time>2018-07-08T08:33:22Z</time>
      </trkpt>
      <trkpt lat="42.64287" lon="1.96447">
        <ele>1629</ele>
        <time>2018-07-08T08:33:44Z</time>
      </trkpt>
      <trkpt lat="42.6429" lon="1.96439">
        <ele>1627</ele>
        <time>2018-07-08T08:34:04Z</time>
      </trkpt>
      <trkpt lat="42.64293" lon="1.96433">
        <ele>1625</ele>
        <time>2018-07-08T08:34:27Z</time>
      </trkpt>
      <trkpt lat="42.64299" lon="1.9643">
        <ele>1624</ele>
        <time>2018-07-08T08:34:56Z</time>
      </trkpt>
      <trkpt lat="42.64291" lon="1.96419">
        <ele>1624</ele>
        <time>2018-07-08T08:35:22Z</time>
      </trkpt>
      <trkpt lat="42.64294" lon="1.96406">
        <ele>1600</ele>
        <time>2018-07-08T08:35:48Z</time>
      </trkpt>
      <trkpt lat="42.643" lon="1.96405">
        <ele>1599</ele>
        <time>2018-07-08T08:36:12Z</time>
      </trkpt>
      <trkpt lat="42.64312" lon="1.96413">
        <ele>1598</ele>
        <time>2018-07-08T08:36:34Z</time>
      </trkpt>
      <trkpt lat="42.64312" lon="1.96394">
        <ele>1596</ele>
        <time>2018-07-08T08:37:03Z</time>
      </trkpt>
      <trkpt lat="42.64326" lon="1.96399">
        <ele>1596</ele>
        <time>2018-07-08T08:37:27Z</time>
      </trkpt>
      <trkpt lat="42.64338" lon="1.96408">
        <ele>1587</ele>
        <time>2018-07-08T08:37:52Z</time>
      </trkpt>
      <trkpt lat="42.6435" lon="1.964">
        <ele>1578</ele>
        <time>2018-07-08T08:38:15Z</time>
      </trkpt>
      <trkpt lat="42.64353" lon="1.96389">
        <ele>1574</ele>
        <time>2018-07-08T08:38:43Z</time>
      </trkpt>
      <trkpt lat="42.64361" lon="1.9638">
        <ele>1569</ele>
        <time>2018-07-08T08:39:06Z</time>
      </trkpt>
      <trkpt lat="42.64372" lon="1.96375">
        <ele>1566</ele>
        <time>2018-07-08T08:39:26Z</time>
      </trkpt>
      <trkpt lat="42.64383" lon="1.96372">
        <ele>1564</ele>
        <time>2018-07-08T08:39:39Z</time>
      </trkpt>
      <trkpt lat="42.64375" lon="1.96357">
        <ele>1563</ele>
        <time>2018-07-08T08:39:59Z</time>
      </trkpt>
      <trkpt lat="42.64368" lon="1.96344">
        <ele>1562</ele>
        <time>2018-07-08T08:40:19Z</time>
      </trkpt>
      <trkpt lat="42.64364" lon="1.96332">
        <ele>1545</ele>
        <time>2018-07-08T08:40:39Z</time>
      </trkpt>
      <trkpt lat="42.64375" lon="1.96332">
        <ele>1541</ele>
        <time>2018-07-08T08:41:00Z</time>
      </trkpt>
      <trkpt lat="42.64382" lon="1.96325">
        <ele>1539</ele>
        <time>2018-07-08T08:41:23Z</time>
      </trkpt>
      <trkpt lat="42.64375" lon="1.9631">
        <ele>1539</ele>
        <time>2018-07-08T08:41:44Z</time>
      </trkpt>
      <trkpt lat="42.64369" lon="1.96294">
        <ele>1537</ele>
        <time>2018-07-08T08:42:05Z</time>
      </trkpt>
      <trkpt lat="42.64372" lon="1.96285">
        <ele>1535</ele>
        <time>2018-07-08T08:42:22Z</time>
      </trkpt>
      <trkpt lat="42.64363" lon="1.96268">
        <ele>1534</ele>
        <time>2018-07-08T08:42:40Z</time>
      </trkpt>
      <trkpt lat="42.64356" lon="1.96252">
        <ele>1534</ele>
        <time>2018-07-08T08:42:56Z</time>
      </trkpt>
      <trkpt lat="42.64346" lon="1.96241">
        <ele>1523</ele>
        <time>2018-07-08T08:43:10Z</time>
      </trkpt>
      <trkpt lat="42.64339" lon="1.96231">
        <ele>1521</ele>
        <time>2018-07-08T08:43:24Z</time>
      </trkpt>
      <trkpt lat="42.6434" lon="1.96225">
        <ele>1518</ele>
        <time>2018-07-08T08:43:47Z</time>
      </trkpt>
      <trkpt lat="42.64345" lon="1.9622">
        <ele>1516</ele>
        <time>2018-07-08T08:44:06Z</time>
      </trkpt>
      <trkpt lat="42.64341" lon="1.96205">
        <ele>1513</ele>
        <time>2018-07-08T08:44:21Z</time>
      </trkpt>
      <trkpt lat="42.64345" lon="1.96196">
        <ele>1511</ele>
        <time>2018-07-08T08:44:34Z</time>
      </trkpt>
      <trkpt lat="42.64353" lon="1.96198">
        <ele>1511</ele>
        <time>2018-07-08T08:44:47Z</time>
      </trkpt>
      <trkpt lat="42.6436" lon="1.96193">
        <ele>1509</ele>
        <time>2018-07-08T08:45:05Z</time>
      </trkpt>
      <trkpt lat="42.6437" lon="1.96193">
        <ele>1508</ele>
        <time>2018-07-08T08:45:23Z</time>
      </trkpt>
      <trkpt lat="42.64377" lon="1.96187">
        <ele>1506</ele>
        <time>2018-07-08T08:45:42Z</time>
      </trkpt>
      <trkpt lat="42.64383" lon="1.96185">
        <ele>1504</ele>
        <time>2018-07-08T08:45:59Z</time>
      </trkpt>
      <trkpt lat="42.6439" lon="1.96186">
        <ele>1503</ele>
        <time>2018-07-08T08:46:14Z</time>
      </trkpt>
      <trkpt lat="42.64396" lon="1.96179">
        <ele>1499</ele>
        <time>2018-07-08T08:46:27Z</time>
      </trkpt>
      <trkpt lat="42.64402" lon="1.9617">
        <ele>1495</ele>
        <time>2018-07-08T08:46:41Z</time>
      </trkpt>
      <trkpt lat="42.64411" lon="1.96164">
        <ele>1484</ele>
        <time>2018-07-08T08:46:54Z</time>
      </trkpt>
      <trkpt lat="42.6442" lon="1.96157">
        <ele>1476</ele>
        <time>2018-07-08T08:47:09Z</time>
      </trkpt>
      <trkpt lat="42.64426" lon="1.96146">
        <ele>1470</ele>
        <time>2018-07-08T08:47:24Z</time>
      </trkpt>
      <trkpt lat="42.64431" lon="1.96134">
        <ele>1466</ele>
        <time>2018-07-08T08:47:47Z</time>
      </trkpt>
      <trkpt lat="42.64431" lon="1.96121">
        <ele>1464</ele>
        <time>2018-07-08T08:47:58Z</time>
      </trkpt>
      <trkpt lat="42.64436" lon="1.96113">
        <ele>1462</ele>
        <time>2018-07-08T08:48:10Z</time>
      </trkpt>
      <trkpt lat="42.64442" lon="1.96101">
        <ele>1461</ele>
        <time>2018-07-08T08:48:21Z</time>
      </trkpt>
      <trkpt lat="42.64445" lon="1.96088">
        <ele>1460</ele>
        <time>2018-07-08T08:48:31Z</time>
      </trkpt>
      <trkpt lat="42.64444" lon="1.96074">
        <ele>1455</ele>
        <time>2018-07-08T08:48:40Z</time>
      </trkpt>
      <trkpt lat="42.64438" lon="1.96063">
        <ele>1455</ele>
        <time>2018-07-08T08:48:52Z</time>
      </trkpt>
      <trkpt lat="42.64429" lon="1.96059">
        <ele>1455</ele>
        <time>2018-07-08T08:49:06Z</time>
      </trkpt>
      <trkpt lat="42.64419" lon="1.96057">
        <ele>1456</ele>
        <time>2018-07-08T08:49:19Z</time>
      </trkpt>
      <trkpt lat="42.6441" lon="1.96054">
        <ele>1464</ele>
        <time>2018-07-08T08:49:31Z</time>
      </trkpt>
      <trkpt lat="42.644" lon="1.96052">
        <ele>1465</ele>
        <time>2018-07-08T08:49:42Z</time>
      </trkpt>
      <trkpt lat="42.64398" lon="1.96049">
        <ele>1465</ele>
        <time>2018-07-08T08:50:17Z</time>
      </trkpt>
      <trkpt lat="42.64392" lon="1.96048">
        <ele>1466</ele>
        <time>2018-07-08T08:50:44Z</time>
      </trkpt>
      <trkpt lat="42.64386" lon="1.9605">
        <ele>1466</ele>
        <time>2018-07-08T08:51:07Z</time>
      </trkpt>
      <trkpt lat="42.64384" lon="1.9605">
        <ele>1466</ele>
        <time>2018-07-08T08:51:53Z</time>
      </trkpt>
      <trkpt lat="42.64385" lon="1.9604">
        <ele>1466</ele>
        <time>2018-07-08T08:52:43Z</time>
      </trkpt>
      <trkpt lat="42.64388" lon="1.96033">
        <ele>1465</ele>
        <time>2018-07-08T08:52:58Z</time>
      </trkpt>
      <trkpt lat="42.64395" lon="1.96026">
        <ele>1463</ele>
        <time>2018-07-08T08:53:16Z</time>
      </trkpt>
      <trkpt lat="42.64402" lon="1.96014">
        <ele>1460</ele>
        <time>2018-07-08T08:53:36Z</time>
      </trkpt>
      <trkpt lat="42.64399" lon="1.95999">
        <ele>1457</ele>
        <time>2018-07-08T08:53:49Z</time>
      </trkpt>
      <trkpt lat="42.64395" lon="1.95987">
        <ele>1458</ele>
        <time>2018-07-08T08:54:00Z</time>
      </trkpt>
      <trkpt lat="42.64388" lon="1.95977">
        <ele>1459</ele>
        <time>2018-07-08T08:54:13Z</time>
      </trkpt>
      <trkpt lat="42.64383" lon="1.95967">
        <ele>1460</ele>
        <time>2018-07-08T08:54:27Z</time>
      </trkpt>
      <trkpt lat="42.64384" lon="1.95965">
        <ele>1460</ele>
        <time>2018-07-08T08:54:48Z</time>
      </trkpt>
      <trkpt lat="42.64392" lon="1.95963">
        <ele>1459</ele>
        <time>2018-07-08T08:55:00Z</time>
      </trkpt>
      <trkpt lat="42.644" lon="1.95954">
        <ele>1460</ele>
        <time>2018-07-08T08:55:12Z</time>
      </trkpt>
      <trkpt lat="42.64396" lon="1.95951">
        <ele>1460</ele>
        <time>2018-07-08T08:55:36Z</time>
      </trkpt>
      <trkpt lat="42.644" lon="1.95947">
        <ele>1460</ele>
        <time>2018-07-08T09:04:01Z</time>
      </trkpt>
      <trkpt lat="42.64418" lon="1.95952">
        <ele>1461</ele>
        <time>2018-07-08T09:15:21Z</time>
      </trkpt>
      <trkpt lat="42.64414" lon="1.95953">
        <ele>1459</ele>
        <time>2018-07-08T09:25:42Z</time>
      </trkpt>
      <trkpt lat="42.64425" lon="1.95939">
        <ele>1463</ele>
        <time>2018-07-08T09:33:29Z</time>
      </trkpt>
      <trkpt lat="42.64406" lon="1.95947">
        <ele>1460</ele>
        <time>2018-07-08T09:35:44Z</time>
      </trkpt>
      <trkpt lat="42.64413" lon="1.95947">
        <ele>1460</ele>
        <time>2018-07-08T09:35:57Z</time>
      </trkpt>
      <trkpt lat="42.64406" lon="1.9595">
        <ele>1460</ele>
        <time>2018-07-08T09:38:22Z</time>
      </trkpt>
      <trkpt lat="42.6441" lon="1.95956">
        <ele>1459</ele>
        <time>2018-07-08T09:39:29Z</time>
      </trkpt>
      <trkpt lat="42.64409" lon="1.9595">
        <ele>1460</ele>
        <time>2018-07-08T09:40:50Z</time>
      </trkpt>
      <trkpt lat="42.64416" lon="1.95944">
        <ele>1460</ele>
        <time>2018-07-08T09:41:00Z</time>
      </trkpt>
      <trkpt lat="42.64424" lon="1.95935">
        <ele>1463</ele>
        <time>2018-07-08T09:41:11Z</time>
      </trkpt>
      <trkpt lat="42.64432" lon="1.95928">
        <ele>1463</ele>
        <time>2018-07-08T09:41:23Z</time>
      </trkpt>
      <trkpt lat="42.64441" lon="1.95931">
        <ele>1464</ele>
        <time>2018-07-08T09:41:35Z</time>
      </trkpt>
      <trkpt lat="42.64452" lon="1.95934">
        <ele>1465</ele>
        <time>2018-07-08T09:41:44Z</time>
      </trkpt>
      <trkpt lat="42.64461" lon="1.95939">
        <ele>1466</ele>
        <time>2018-07-08T09:41:54Z</time>
      </trkpt>
      <trkpt lat="42.64469" lon="1.95948">
        <ele>1466</ele>
        <time>2018-07-08T09:42:05Z</time>
      </trkpt>
      <trkpt lat="42.64479" lon="1.95954">
        <ele>1466</ele>
        <time>2018-07-08T09:42:13Z</time>
      </trkpt>
      <trkpt lat="42.6449" lon="1.95958">
        <ele>1465</ele>
        <time>2018-07-08T09:42:21Z</time>
      </trkpt>
      <trkpt lat="42.645" lon="1.95962">
        <ele>1464</ele>
        <time>2018-07-08T09:42:28Z</time>
      </trkpt>
      <trkpt lat="42.64511" lon="1.95966">
        <ele>1473</ele>
        <time>2018-07-08T09:42:36Z</time>
      </trkpt>
      <trkpt lat="42.64521" lon="1.9597">
        <ele>1473</ele>
        <time>2018-07-08T09:42:43Z</time>
      </trkpt>
      <trkpt lat="42.6453" lon="1.95976">
        <ele>1473</ele>
        <time>2018-07-08T09:42:50Z</time>
      </trkpt>
      <trkpt lat="42.64539" lon="1.95984">
        <ele>1473</ele>
        <time>2018-07-08T09:42:57Z</time>
      </trkpt>
      <trkpt lat="42.64546" lon="1.95997">
        <ele>1472</ele>
        <time>2018-07-08T09:43:06Z</time>
      </trkpt>
      <trkpt lat="42.64556" lon="1.96003">
        <ele>1458</ele>
        <time>2018-07-08T09:43:14Z</time>
      </trkpt>
      <trkpt lat="42.64567" lon="1.9601">
        <ele>1460</ele>
        <time>2018-07-08T09:43:22Z</time>
      </trkpt>
      <trkpt lat="42.64573" lon="1.96016">
        <ele>1460</ele>
        <time>2018-07-08T09:43:30Z</time>
      </trkpt>
      <trkpt lat="42.64584" lon="1.96017">
        <ele>1466</ele>
        <time>2018-07-08T09:43:37Z</time>
      </trkpt>
      <trkpt lat="42.64593" lon="1.96022">
        <ele>1465</ele>
        <time>2018-07-08T09:43:46Z</time>
      </trkpt>
      <trkpt lat="42.64603" lon="1.96021">
        <ele>1465</ele>
        <time>2018-07-08T09:43:52Z</time>
      </trkpt>
      <trkpt lat="42.64611" lon="1.96025">
        <ele>1464</ele>
        <time>2018-07-08T09:43:58Z</time>
      </trkpt>
      <trkpt lat="42.64615" lon="1.96034">
        <ele>1463</ele>
        <time>2018-07-08T09:44:07Z</time>
      </trkpt>
      <trkpt lat="42.64623" lon="1.96041">
        <ele>1462</ele>
        <time>2018-07-08T09:44:15Z</time>
      </trkpt>
      <trkpt lat="42.64631" lon="1.96045">
        <ele>1462</ele>
        <time>2018-07-08T09:44:23Z</time>
      </trkpt>
      <trkpt lat="42.64632" lon="1.96054">
        <ele>1460</ele>
        <time>2018-07-08T09:44:31Z</time>
      </trkpt>
      <trkpt lat="42.64638" lon="1.96059">
        <ele>1460</ele>
        <time>2018-07-08T09:44:39Z</time>
      </trkpt>
      <trkpt lat="42.64645" lon="1.96064">
        <ele>1459</ele>
        <time>2018-07-08T09:44:49Z</time>
      </trkpt>
      <trkpt lat="42.64654" lon="1.96068">
        <ele>1457</ele>
        <time>2018-07-08T09:44:57Z</time>
      </trkpt>
      <trkpt lat="42.64665" lon="1.96072">
        <ele>1455</ele>
        <time>2018-07-08T09:45:06Z</time>
      </trkpt>
      <trkpt lat="42.64671" lon="1.96083">
        <ele>1454</ele>
        <time>2018-07-08T09:45:16Z</time>
      </trkpt>
      <trkpt lat="42.64678" lon="1.96092">
        <ele>1446</ele>
        <time>2018-07-08T09:45:26Z</time>
      </trkpt>
      <trkpt lat="42.64684" lon="1.96101">
        <ele>1443</ele>
        <time>2018-07-08T09:45:36Z</time>
      </trkpt>
      <trkpt lat="42.64682" lon="1.96109">
        <ele>1442</ele>
        <time>2018-07-08T09:47:13Z</time>
      </trkpt>
      <trkpt lat="42.6469" lon="1.96116">
        <ele>1441</ele>
        <time>2018-07-08T09:47:20Z</time>
      </trkpt>
      <trkpt lat="42.64697" lon="1.96122">
        <ele>1440</ele>
        <time>2018-07-08T09:47:28Z</time>
      </trkpt>
      <trkpt lat="42.64705" lon="1.96123">
        <ele>1440</ele>
        <time>2018-07-08T09:47:36Z</time>
      </trkpt>
      <trkpt lat="42.64715" lon="1.96125">
        <ele>1440</ele>
        <time>2018-07-08T09:47:48Z</time>
      </trkpt>
      <trkpt lat="42.64725" lon="1.96125">
        <ele>1440</ele>
        <time>2018-07-08T09:47:56Z</time>
      </trkpt>
      <trkpt lat="42.64735" lon="1.96125">
        <ele>1441</ele>
        <time>2018-07-08T09:48:04Z</time>
      </trkpt>
      <trkpt lat="42.64748" lon="1.96125">
        <ele>1441</ele>
        <time>2018-07-08T09:48:12Z</time>
      </trkpt>
      <trkpt lat="42.64762" lon="1.96123">
        <ele>1445</ele>
        <time>2018-07-08T09:48:21Z</time>
      </trkpt>
      <trkpt lat="42.64775" lon="1.96117">
        <ele>1446</ele>
        <time>2018-07-08T09:48:29Z</time>
      </trkpt>
      <trkpt lat="42.64785" lon="1.96111">
        <ele>1447</ele>
        <time>2018-07-08T09:48:37Z</time>
      </trkpt>
      <trkpt lat="42.64795" lon="1.96109">
        <ele>1448</ele>
        <time>2018-07-08T09:48:44Z</time>
      </trkpt>
      <trkpt lat="42.64805" lon="1.96111">
        <ele>1448</ele>
        <time>2018-07-08T09:48:52Z</time>
      </trkpt>
      <trkpt lat="42.64814" lon="1.96115">
        <ele>1448</ele>
        <time>2018-07-08T09:49:00Z</time>
      </trkpt>
      <trkpt lat="42.64824" lon="1.9612">
        <ele>1447</ele>
        <time>2018-07-08T09:49:08Z</time>
      </trkpt>
      <trkpt lat="42.64833" lon="1.96123">
        <ele>1446</ele>
        <time>2018-07-08T09:49:16Z</time>
      </trkpt>
      <trkpt lat="42.64843" lon="1.96128">
        <ele>1444</ele>
        <time>2018-07-08T09:49:24Z</time>
      </trkpt>
      <trkpt lat="42.64853" lon="1.96131">
        <ele>1443</ele>
        <time>2018-07-08T09:49:32Z</time>
      </trkpt>
      <trkpt lat="42.64862" lon="1.96134">
        <ele>1443</ele>
        <time>2018-07-08T09:49:40Z</time>
      </trkpt>
      <trkpt lat="42.64872" lon="1.9614">
        <ele>1442</ele>
        <time>2018-07-08T09:49:49Z</time>
      </trkpt>
      <trkpt lat="42.64881" lon="1.96147">
        <ele>1441</ele>
        <time>2018-07-08T09:49:58Z</time>
      </trkpt>
      <trkpt lat="42.64885" lon="1.9616">
        <ele>1439</ele>
        <time>2018-07-08T09:50:22Z</time>
      </trkpt>
      <trkpt lat="42.64894" lon="1.96166">
        <ele>1438</ele>
        <time>2018-07-08T09:50:30Z</time>
      </trkpt>
      <trkpt lat="42.64904" lon="1.96171">
        <ele>1430</ele>
        <time>2018-07-08T09:50:39Z</time>
      </trkpt>
      <trkpt lat="42.64914" lon="1.96175">
        <ele>1430</ele>
        <time>2018-07-08T09:50:48Z</time>
      </trkpt>
      <trkpt lat="42.64922" lon="1.96178">
        <ele>1432</ele>
        <time>2018-07-08T09:50:56Z</time>
      </trkpt>
      <trkpt lat="42.6493" lon="1.96181">
        <ele>1432</ele>
        <time>2018-07-08T09:51:04Z</time>
      </trkpt>
      <trkpt lat="42.64939" lon="1.96183">
        <ele>1432</ele>
        <time>2018-07-08T09:51:12Z</time>
      </trkpt>
      <trkpt lat="42.64948" lon="1.96188">
        <ele>1433</ele>
        <time>2018-07-08T09:51:21Z</time>
      </trkpt>
      <trkpt lat="42.64955" lon="1.96195">
        <ele>1433</ele>
        <time>2018-07-08T09:51:29Z</time>
      </trkpt>
      <trkpt lat="42.64964" lon="1.96198">
        <ele>1433</ele>
        <time>2018-07-08T09:51:38Z</time>
      </trkpt>
      <trkpt lat="42.64972" lon="1.96202">
        <ele>1433</ele>
        <time>2018-07-08T09:51:46Z</time>
      </trkpt>
      <trkpt lat="42.64981" lon="1.96206">
        <ele>1433</ele>
        <time>2018-07-08T09:51:56Z</time>
      </trkpt>
      <trkpt lat="42.64989" lon="1.96207">
        <ele>1433</ele>
        <time>2018-07-08T09:53:48Z</time>
      </trkpt>
      <trkpt lat="42.64997" lon="1.96211">
        <ele>1433</ele>
        <time>2018-07-08T09:53:58Z</time>
      </trkpt>
      <trkpt lat="42.65006" lon="1.96214">
        <ele>1435</ele>
        <time>2018-07-08T09:54:07Z</time>
      </trkpt>
      <trkpt lat="42.65014" lon="1.96217">
        <ele>1435</ele>
        <time>2018-07-08T09:54:16Z</time>
      </trkpt>
      <trkpt lat="42.65023" lon="1.96221">
        <ele>1434</ele>
        <time>2018-07-08T09:54:24Z</time>
      </trkpt>
      <trkpt lat="42.65032" lon="1.96223">
        <ele>1434</ele>
        <time>2018-07-08T09:54:33Z</time>
      </trkpt>
      <trkpt lat="42.65041" lon="1.96224">
        <ele>1434</ele>
        <time>2018-07-08T09:54:42Z</time>
      </trkpt>
      <trkpt lat="42.65049" lon="1.96224">
        <ele>1434</ele>
        <time>2018-07-08T09:54:54Z</time>
      </trkpt>
      <trkpt lat="42.65059" lon="1.96223">
        <ele>1434</ele>
        <time>2018-07-08T09:55:04Z</time>
      </trkpt>
      <trkpt lat="42.65068" lon="1.96223">
        <ele>1434</ele>
        <time>2018-07-08T09:55:13Z</time>
      </trkpt>
      <trkpt lat="42.65077" lon="1.96221">
        <ele>1434</ele>
        <time>2018-07-08T09:55:24Z</time>
      </trkpt>
      <trkpt lat="42.65086" lon="1.96218">
        <ele>1433</ele>
        <time>2018-07-08T09:55:33Z</time>
      </trkpt>
      <trkpt lat="42.65095" lon="1.96217">
        <ele>1433</ele>
        <time>2018-07-08T09:55:41Z</time>
      </trkpt>
      <trkpt lat="42.65103" lon="1.96216">
        <ele>1433</ele>
        <time>2018-07-08T09:55:51Z</time>
      </trkpt>
      <trkpt lat="42.65112" lon="1.96215">
        <ele>1433</ele>
        <time>2018-07-08T09:56:00Z</time>
      </trkpt>
      <trkpt lat="42.65122" lon="1.96215">
        <ele>1433</ele>
        <time>2018-07-08T09:56:08Z</time>
      </trkpt>
      <trkpt lat="42.6513" lon="1.96212">
        <ele>1433</ele>
        <time>2018-07-08T09:56:17Z</time>
      </trkpt>
      <trkpt lat="42.6514" lon="1.96213">
        <ele>1433</ele>
        <time>2018-07-08T09:56:26Z</time>
      </trkpt>
      <trkpt lat="42.65147" lon="1.96218">
        <ele>1432</ele>
        <time>2018-07-08T09:58:17Z</time>
      </trkpt>
      <trkpt lat="42.6515" lon="1.96219">
        <ele>1431</ele>
        <time>2018-07-08T09:58:38Z</time>
      </trkpt>
      <trkpt lat="42.65156" lon="1.96221">
        <ele>1431</ele>
        <time>2018-07-08T09:59:15Z</time>
      </trkpt>
      <trkpt lat="42.65164" lon="1.96223">
        <ele>1430</ele>
        <time>2018-07-08T09:59:27Z</time>
      </trkpt>
      <trkpt lat="42.65188" lon="1.9622">
        <ele>1429</ele>
        <time>2018-07-08T09:59:38Z</time>
      </trkpt>
      <trkpt lat="42.65195" lon="1.96227">
        <ele>1429</ele>
        <time>2018-07-08T09:59:47Z</time>
      </trkpt>
      <trkpt lat="42.65204" lon="1.96229">
        <ele>1428</ele>
        <time>2018-07-08T09:59:58Z</time>
      </trkpt>
      <trkpt lat="42.65213" lon="1.96227">
        <ele>1428</ele>
        <time>2018-07-08T10:00:08Z</time>
      </trkpt>
      <trkpt lat="42.65222" lon="1.96228">
        <ele>1428</ele>
        <time>2018-07-08T10:00:18Z</time>
      </trkpt>
      <trkpt lat="42.65232" lon="1.96229">
        <ele>1427</ele>
        <time>2018-07-08T10:00:28Z</time>
      </trkpt>
      <trkpt lat="42.6524" lon="1.96236">
        <ele>1425</ele>
        <time>2018-07-08T10:00:37Z</time>
      </trkpt>
      <trkpt lat="42.65245" lon="1.96248">
        <ele>1421</ele>
        <time>2018-07-08T10:00:46Z</time>
      </trkpt>
      <trkpt lat="42.65252" lon="1.96257">
        <ele>1418</ele>
        <time>2018-07-08T10:00:55Z</time>
      </trkpt>
      <trkpt lat="42.65261" lon="1.96262">
        <ele>1416</ele>
        <time>2018-07-08T10:01:04Z</time>
      </trkpt>
      <trkpt lat="42.65269" lon="1.96267">
        <ele>1416</ele>
        <time>2018-07-08T10:01:14Z</time>
      </trkpt>
      <trkpt lat="42.65277" lon="1.96271">
        <ele>1415</ele>
        <time>2018-07-08T10:01:24Z</time>
      </trkpt>
      <trkpt lat="42.65286" lon="1.96275">
        <ele>1415</ele>
        <time>2018-07-08T10:01:34Z</time>
      </trkpt>
      <trkpt lat="42.65295" lon="1.9628">
        <ele>1414</ele>
        <time>2018-07-08T10:01:43Z</time>
      </trkpt>
      <trkpt lat="42.65304" lon="1.96283">
        <ele>1414</ele>
        <time>2018-07-08T10:01:52Z</time>
      </trkpt>
      <trkpt lat="42.65315" lon="1.96285">
        <ele>1414</ele>
        <time>2018-07-08T10:02:02Z</time>
      </trkpt>
      <trkpt lat="42.65324" lon="1.96288">
        <ele>1414</ele>
        <time>2018-07-08T10:02:11Z</time>
      </trkpt>
      <trkpt lat="42.65333" lon="1.9629">
        <ele>1413</ele>
        <time>2018-07-08T10:02:19Z</time>
      </trkpt>
      <trkpt lat="42.65343" lon="1.96293">
        <ele>1413</ele>
        <time>2018-07-08T10:02:27Z</time>
      </trkpt>
      <trkpt lat="42.65352" lon="1.96299">
        <ele>1412</ele>
        <time>2018-07-08T10:02:37Z</time>
      </trkpt>
      <trkpt lat="42.6536" lon="1.96304">
        <ele>1412</ele>
        <time>2018-07-08T10:02:50Z</time>
      </trkpt>
      <trkpt lat="42.65369" lon="1.96309">
        <ele>1411</ele>
        <time>2018-07-08T10:02:59Z</time>
      </trkpt>
      <trkpt lat="42.65378" lon="1.96315">
        <ele>1411</ele>
        <time>2018-07-08T10:03:11Z</time>
      </trkpt>
      <trkpt lat="42.65387" lon="1.9632">
        <ele>1410</ele>
        <time>2018-07-08T10:03:24Z</time>
      </trkpt>
      <trkpt lat="42.65396" lon="1.96326">
        <ele>1409</ele>
        <time>2018-07-08T10:03:35Z</time>
      </trkpt>
      <trkpt lat="42.65404" lon="1.96332">
        <ele>1407</ele>
        <time>2018-07-08T10:03:47Z</time>
      </trkpt>
      <trkpt lat="42.65412" lon="1.96338">
        <ele>1404</ele>
        <time>2018-07-08T10:03:56Z</time>
      </trkpt>
      <trkpt lat="42.6542" lon="1.96343">
        <ele>1403</ele>
        <time>2018-07-08T10:04:05Z</time>
      </trkpt>
      <trkpt lat="42.65429" lon="1.96348">
        <ele>1403</ele>
        <time>2018-07-08T10:04:15Z</time>
      </trkpt>
      <trkpt lat="42.65438" lon="1.96353">
        <ele>1403</ele>
        <time>2018-07-08T10:04:24Z</time>
      </trkpt>
      <trkpt lat="42.65447" lon="1.96359">
        <ele>1403</ele>
        <time>2018-07-08T10:04:34Z</time>
      </trkpt>
      <trkpt lat="42.65455" lon="1.96366">
        <ele>1403</ele>
        <time>2018-07-08T10:04:44Z</time>
      </trkpt>
      <trkpt lat="42.65464" lon="1.96372">
        <ele>1403</ele>
        <time>2018-07-08T10:04:53Z</time>
      </trkpt>
      <trkpt lat="42.65473" lon="1.9638">
        <ele>1402</ele>
        <time>2018-07-08T10:05:02Z</time>
      </trkpt>
      <trkpt lat="42.65481" lon="1.96387">
        <ele>1402</ele>
        <time>2018-07-08T10:05:10Z</time>
      </trkpt>
      <trkpt lat="42.65489" lon="1.96392">
        <ele>1402</ele>
        <time>2018-07-08T10:05:18Z</time>
      </trkpt>
      <trkpt lat="42.65498" lon="1.96396">
        <ele>1402</ele>
        <time>2018-07-08T10:05:27Z</time>
      </trkpt>
      <trkpt lat="42.65507" lon="1.96399">
        <ele>1403</ele>
        <time>2018-07-08T10:05:35Z</time>
      </trkpt>
      <trkpt lat="42.65517" lon="1.96402">
        <ele>1403</ele>
        <time>2018-07-08T10:05:44Z</time>
      </trkpt>
      <trkpt lat="42.65525" lon="1.96404">
        <ele>1403</ele>
        <time>2018-07-08T10:05:52Z</time>
      </trkpt>
      <trkpt lat="42.65534" lon="1.96409">
        <ele>1403</ele>
        <time>2018-07-08T10:06:00Z</time>
      </trkpt>
      <trkpt lat="42.65544" lon="1.96413">
        <ele>1403</ele>
        <time>2018-07-08T10:06:08Z</time>
      </trkpt>
      <trkpt lat="42.65553" lon="1.96415">
        <ele>1403</ele>
        <time>2018-07-08T10:06:16Z</time>
      </trkpt>
      <trkpt lat="42.65563" lon="1.96419">
        <ele>1398</ele>
        <time>2018-07-08T10:06:24Z</time>
      </trkpt>
      <trkpt lat="42.65572" lon="1.96422">
        <ele>1398</ele>
        <time>2018-07-08T10:06:32Z</time>
      </trkpt>
      <trkpt lat="42.65582" lon="1.96427">
        <ele>1398</ele>
        <time>2018-07-08T10:06:40Z</time>
      </trkpt>
      <trkpt lat="42.6559" lon="1.96428">
        <ele>1398</ele>
        <time>2018-07-08T10:06:48Z</time>
      </trkpt>
      <trkpt lat="42.656" lon="1.96431">
        <ele>1398</ele>
        <time>2018-07-08T10:06:56Z</time>
      </trkpt>
      <trkpt lat="42.65609" lon="1.96436">
        <ele>1397</ele>
        <time>2018-07-08T10:07:04Z</time>
      </trkpt>
      <trkpt lat="42.65617" lon="1.96443">
        <ele>1397</ele>
        <time>2018-07-08T10:07:12Z</time>
      </trkpt>
      <trkpt lat="42.65626" lon="1.9645">
        <ele>1397</ele>
        <time>2018-07-08T10:07:20Z</time>
      </trkpt>
      <trkpt lat="42.65635" lon="1.96454">
        <ele>1397</ele>
        <time>2018-07-08T10:07:29Z</time>
      </trkpt>
      <trkpt lat="42.65645" lon="1.9646">
        <ele>1397</ele>
        <time>2018-07-08T10:07:38Z</time>
      </trkpt>
      <trkpt lat="42.65653" lon="1.96467">
        <ele>1396</ele>
        <time>2018-07-08T10:07:46Z</time>
      </trkpt>
      <trkpt lat="42.65661" lon="1.96476">
        <ele>1395</ele>
        <time>2018-07-08T10:07:55Z</time>
      </trkpt>
      <trkpt lat="42.6567" lon="1.9648">
        <ele>1396</ele>
        <time>2018-07-08T10:08:04Z</time>
      </trkpt>
      <trkpt lat="42.65679" lon="1.96485">
        <ele>1396</ele>
        <time>2018-07-08T10:08:13Z</time>
      </trkpt>
      <trkpt lat="42.65689" lon="1.9649">
        <ele>1396</ele>
        <time>2018-07-08T10:08:22Z</time>
      </trkpt>
      <trkpt lat="42.65697" lon="1.96493">
        <ele>1397</ele>
        <time>2018-07-08T10:08:31Z</time>
      </trkpt>
      <trkpt lat="42.65707" lon="1.96497">
        <ele>1397</ele>
        <time>2018-07-08T10:08:41Z</time>
      </trkpt>
      <trkpt lat="42.65717" lon="1.96499">
        <ele>1397</ele>
        <time>2018-07-08T10:08:51Z</time>
      </trkpt>
      <trkpt lat="42.65726" lon="1.96497">
        <ele>1396</ele>
        <time>2018-07-08T10:09:00Z</time>
      </trkpt>
      <trkpt lat="42.65734" lon="1.96494">
        <ele>1396</ele>
        <time>2018-07-08T10:09:09Z</time>
      </trkpt>
      <trkpt lat="42.65743" lon="1.96489">
        <ele>1396</ele>
        <time>2018-07-08T10:09:18Z</time>
      </trkpt>
      <trkpt lat="42.65752" lon="1.96486">
        <ele>1395</ele>
        <time>2018-07-08T10:09:26Z</time>
      </trkpt>
      <trkpt lat="42.65761" lon="1.96486">
        <ele>1395</ele>
        <time>2018-07-08T10:09:34Z</time>
      </trkpt>
      <trkpt lat="42.65771" lon="1.96488">
        <ele>1395</ele>
        <time>2018-07-08T10:09:42Z</time>
      </trkpt>
      <trkpt lat="42.6578" lon="1.96489">
        <ele>1395</ele>
        <time>2018-07-08T10:09:50Z</time>
      </trkpt>
      <trkpt lat="42.65789" lon="1.96489">
        <ele>1395</ele>
        <time>2018-07-08T10:09:58Z</time>
      </trkpt>
      <trkpt lat="42.65799" lon="1.96486">
        <ele>1394</ele>
        <time>2018-07-08T10:10:06Z</time>
      </trkpt>
      <trkpt lat="42.65808" lon="1.96482">
        <ele>1394</ele>
        <time>2018-07-08T10:10:14Z</time>
      </trkpt>
      <trkpt lat="42.65817" lon="1.96476">
        <ele>1394</ele>
        <time>2018-07-08T10:10:22Z</time>
      </trkpt>
      <trkpt lat="42.65826" lon="1.96472">
        <ele>1394</ele>
        <time>2018-07-08T10:10:30Z</time>
      </trkpt>
      <trkpt lat="42.65836" lon="1.9647">
        <ele>1389</ele>
        <time>2018-07-08T10:10:38Z</time>
      </trkpt>
      <trkpt lat="42.65845" lon="1.96469">
        <ele>1389</ele>
        <time>2018-07-08T10:10:46Z</time>
      </trkpt>
      <trkpt lat="42.65854" lon="1.96467">
        <ele>1389</ele>
        <time>2018-07-08T10:10:54Z</time>
      </trkpt>
      <trkpt lat="42.65863" lon="1.96461">
        <ele>1390</ele>
        <time>2018-07-08T10:11:03Z</time>
      </trkpt>
      <trkpt lat="42.65871" lon="1.96457">
        <ele>1390</ele>
        <time>2018-07-08T10:11:11Z</time>
      </trkpt>
      <trkpt lat="42.6588" lon="1.96453">
        <ele>1390</ele>
        <time>2018-07-08T10:11:19Z</time>
      </trkpt>
      <trkpt lat="42.65889" lon="1.96449">
        <ele>1390</ele>
        <time>2018-07-08T10:11:27Z</time>
      </trkpt>
      <trkpt lat="42.65896" lon="1.96447">
        <ele>1390</ele>
        <time>2018-07-08T10:11:36Z</time>
      </trkpt>
      <trkpt lat="42.65899" lon="1.96461">
        <ele>1388</ele>
        <time>2018-07-08T10:11:44Z</time>
      </trkpt>
      <trkpt lat="42.65907" lon="1.96466">
        <ele>1387</ele>
        <time>2018-07-08T10:11:54Z</time>
      </trkpt>
      <trkpt lat="42.65915" lon="1.96471">
        <ele>1385</ele>
        <time>2018-07-08T10:12:04Z</time>
      </trkpt>
      <trkpt lat="42.65922" lon="1.96474">
        <ele>1384</ele>
        <time>2018-07-08T10:12:18Z</time>
      </trkpt>
      <trkpt lat="42.65928" lon="1.96483">
        <ele>1383</ele>
        <time>2018-07-08T10:12:32Z</time>
      </trkpt>
      <trkpt lat="42.65932" lon="1.96496">
        <ele>1381</ele>
        <time>2018-07-08T10:12:44Z</time>
      </trkpt>
      <trkpt lat="42.65939" lon="1.96507">
        <ele>1374</ele>
        <time>2018-07-08T10:12:54Z</time>
      </trkpt>
      <trkpt lat="42.65944" lon="1.96518">
        <ele>1373</ele>
        <time>2018-07-08T10:13:04Z</time>
      </trkpt>
      <trkpt lat="42.65952" lon="1.96526">
        <ele>1372</ele>
        <time>2018-07-08T10:13:18Z</time>
      </trkpt>
      <trkpt lat="42.65945" lon="1.96535">
        <ele>1372</ele>
        <time>2018-07-08T10:13:28Z</time>
      </trkpt>
      <trkpt lat="42.65948" lon="1.96532">
        <ele>1372</ele>
        <time>2018-07-08T10:13:48Z</time>
      </trkpt>
      <trkpt lat="42.65954" lon="1.9654">
        <ele>1372</ele>
        <time>2018-07-08T10:14:01Z</time>
      </trkpt>
      <trkpt lat="42.65964" lon="1.9654">
        <ele>1371</ele>
        <time>2018-07-08T10:14:12Z</time>
      </trkpt>
      <trkpt lat="42.65973" lon="1.96543">
        <ele>1370</ele>
        <time>2018-07-08T10:14:21Z</time>
      </trkpt>
      <trkpt lat="42.65982" lon="1.96545">
        <ele>1369</ele>
        <time>2018-07-08T10:14:30Z</time>
      </trkpt>
      <trkpt lat="42.65994" lon="1.9655">
        <ele>1368</ele>
        <time>2018-07-08T10:14:39Z</time>
      </trkpt>
      <trkpt lat="42.66002" lon="1.96553">
        <ele>1365</ele>
        <time>2018-07-08T10:14:47Z</time>
      </trkpt>
      <trkpt lat="42.66012" lon="1.96556">
        <ele>1365</ele>
        <time>2018-07-08T10:14:56Z</time>
      </trkpt>
      <trkpt lat="42.66023" lon="1.96561">
        <ele>1365</ele>
        <time>2018-07-08T10:15:05Z</time>
      </trkpt>
      <trkpt lat="42.66032" lon="1.96563">
        <ele>1365</ele>
        <time>2018-07-08T10:15:14Z</time>
      </trkpt>
      <trkpt lat="42.66041" lon="1.96565">
        <ele>1365</ele>
        <time>2018-07-08T10:15:23Z</time>
      </trkpt>
      <trkpt lat="42.66052" lon="1.96568">
        <ele>1365</ele>
        <time>2018-07-08T10:15:32Z</time>
      </trkpt>
      <trkpt lat="42.66061" lon="1.96574">
        <ele>1363</ele>
        <time>2018-07-08T10:15:41Z</time>
      </trkpt>
      <trkpt lat="42.6607" lon="1.96583">
        <ele>1359</ele>
        <time>2018-07-08T10:15:50Z</time>
      </trkpt>
      <trkpt lat="42.66079" lon="1.9659">
        <ele>1358</ele>
        <time>2018-07-08T10:15:59Z</time>
      </trkpt>
      <trkpt lat="42.66089" lon="1.96592">
        <ele>1356</ele>
        <time>2018-07-08T10:16:08Z</time>
      </trkpt>
      <trkpt lat="42.66099" lon="1.96595">
        <ele>1357</ele>
        <time>2018-07-08T10:16:18Z</time>
      </trkpt>
      <trkpt lat="42.66108" lon="1.96599">
        <ele>1357</ele>
        <time>2018-07-08T10:16:26Z</time>
      </trkpt>
      <trkpt lat="42.66118" lon="1.96603">
        <ele>1357</ele>
        <time>2018-07-08T10:16:34Z</time>
      </trkpt>
      <trkpt lat="42.66128" lon="1.96607">
        <ele>1357</ele>
        <time>2018-07-08T10:16:43Z</time>
      </trkpt>
      <trkpt lat="42.66137" lon="1.96611">
        <ele>1357</ele>
        <time>2018-07-08T10:16:52Z</time>
      </trkpt>
      <trkpt lat="42.66147" lon="1.96617">
        <ele>1357</ele>
        <time>2018-07-08T10:17:01Z</time>
      </trkpt>
      <trkpt lat="42.66156" lon="1.96618">
        <ele>1357</ele>
        <time>2018-07-08T10:17:12Z</time>
      </trkpt>
      <trkpt lat="42.66167" lon="1.96615">
        <ele>1353</ele>
        <time>2018-07-08T10:17:21Z</time>
      </trkpt>
      <trkpt lat="42.66177" lon="1.96612">
        <ele>1353</ele>
        <time>2018-07-08T10:17:31Z</time>
      </trkpt>
      <trkpt lat="42.6619" lon="1.96608">
        <ele>1353</ele>
        <time>2018-07-08T10:17:40Z</time>
      </trkpt>
      <trkpt lat="42.66199" lon="1.96609">
        <ele>1352</ele>
        <time>2018-07-08T10:17:49Z</time>
      </trkpt>
      <trkpt lat="42.66209" lon="1.96608">
        <ele>1352</ele>
        <time>2018-07-08T10:17:58Z</time>
      </trkpt>
      <trkpt lat="42.66217" lon="1.966">
        <ele>1353</ele>
        <time>2018-07-08T10:18:07Z</time>
      </trkpt>
      <trkpt lat="42.66229" lon="1.96602">
        <ele>1353</ele>
        <time>2018-07-08T10:18:18Z</time>
      </trkpt>
      <trkpt lat="42.6624" lon="1.96604">
        <ele>1353</ele>
        <time>2018-07-08T10:18:30Z</time>
      </trkpt>
      <trkpt lat="42.66253" lon="1.9661">
        <ele>1348</ele>
        <time>2018-07-08T10:18:41Z</time>
      </trkpt>
      <trkpt lat="42.66263" lon="1.96622">
        <ele>1344</ele>
        <time>2018-07-08T10:18:50Z</time>
      </trkpt>
      <trkpt lat="42.66275" lon="1.9663">
        <ele>1342</ele>
        <time>2018-07-08T10:19:01Z</time>
      </trkpt>
      <trkpt lat="42.66284" lon="1.96639">
        <ele>1340</ele>
        <time>2018-07-08T10:19:11Z</time>
      </trkpt>
      <trkpt lat="42.66294" lon="1.96645">
        <ele>1339</ele>
        <time>2018-07-08T10:19:22Z</time>
      </trkpt>
      <trkpt lat="42.66307" lon="1.96644">
        <ele>1338</ele>
        <time>2018-07-08T10:19:34Z</time>
      </trkpt>
      <trkpt lat="42.66315" lon="1.96646">
        <ele>1336</ele>
        <time>2018-07-08T10:19:45Z</time>
      </trkpt>
      <trkpt lat="42.66322" lon="1.9665">
        <ele>1334</ele>
        <time>2018-07-08T10:19:57Z</time>
      </trkpt>
      <trkpt lat="42.66333" lon="1.9665">
        <ele>1333</ele>
        <time>2018-07-08T10:20:07Z</time>
      </trkpt>
      <trkpt lat="42.66347" lon="1.9665">
        <ele>1328</ele>
        <time>2018-07-08T10:20:16Z</time>
      </trkpt>
      <trkpt lat="42.6636" lon="1.96651">
        <ele>1328</ele>
        <time>2018-07-08T10:20:31Z</time>
      </trkpt>
      <trkpt lat="42.66368" lon="1.96661">
        <ele>1326</ele>
        <time>2018-07-08T10:20:54Z</time>
      </trkpt>
      <trkpt lat="42.66388" lon="1.96653">
        <ele>1324</ele>
        <time>2018-07-08T10:21:10Z</time>
      </trkpt>
      <trkpt lat="42.66395" lon="1.96659">
        <ele>1321</ele>
        <time>2018-07-08T10:21:29Z</time>
      </trkpt>
      <trkpt lat="42.66405" lon="1.96649">
        <ele>1321</ele>
        <time>2018-07-08T10:21:39Z</time>
      </trkpt>
      <trkpt lat="42.66414" lon="1.96637">
        <ele>1324</ele>
        <time>2018-07-08T10:21:49Z</time>
      </trkpt>
      <trkpt lat="42.66423" lon="1.96631">
        <ele>1322</ele>
        <time>2018-07-08T10:21:59Z</time>
      </trkpt>
      <trkpt lat="42.66432" lon="1.9663">
        <ele>1322</ele>
        <time>2018-07-08T10:22:09Z</time>
      </trkpt>
      <trkpt lat="42.66441" lon="1.96632">
        <ele>1322</ele>
        <time>2018-07-08T10:22:19Z</time>
      </trkpt>
      <trkpt lat="42.66451" lon="1.96635">
        <ele>1321</ele>
        <time>2018-07-08T10:22:29Z</time>
      </trkpt>
      <trkpt lat="42.6646" lon="1.96636">
        <ele>1321</ele>
        <time>2018-07-08T10:22:39Z</time>
      </trkpt>
      <trkpt lat="42.6647" lon="1.96638">
        <ele>1321</ele>
        <time>2018-07-08T10:22:49Z</time>
      </trkpt>
      <trkpt lat="42.66479" lon="1.96641">
        <ele>1319</ele>
        <time>2018-07-08T10:22:58Z</time>
      </trkpt>
      <trkpt lat="42.66488" lon="1.96642">
        <ele>1318</ele>
        <time>2018-07-08T10:23:08Z</time>
      </trkpt>
      <trkpt lat="42.66498" lon="1.96644">
        <ele>1316</ele>
        <time>2018-07-08T10:23:17Z</time>
      </trkpt>
      <trkpt lat="42.66511" lon="1.96641">
        <ele>1313</ele>
        <time>2018-07-08T10:23:27Z</time>
      </trkpt>
      <trkpt lat="42.6652" lon="1.96641">
        <ele>1313</ele>
        <time>2018-07-08T10:23:36Z</time>
      </trkpt>
      <trkpt lat="42.6653" lon="1.96643">
        <ele>1312</ele>
        <time>2018-07-08T10:23:46Z</time>
      </trkpt>
      <trkpt lat="42.66542" lon="1.96644">
        <ele>1312</ele>
        <time>2018-07-08T10:23:56Z</time>
      </trkpt>
      <trkpt lat="42.66551" lon="1.96646">
        <ele>1310</ele>
        <time>2018-07-08T10:24:06Z</time>
      </trkpt>
      <trkpt lat="42.66563" lon="1.96645">
        <ele>1309</ele>
        <time>2018-07-08T10:24:16Z</time>
      </trkpt>
      <trkpt lat="42.66574" lon="1.96644">
        <ele>1308</ele>
        <time>2018-07-08T10:24:26Z</time>
      </trkpt>
      <trkpt lat="42.66586" lon="1.96641">
        <ele>1303</ele>
        <time>2018-07-08T10:24:36Z</time>
      </trkpt>
      <trkpt lat="42.66598" lon="1.96639">
        <ele>1303</ele>
        <time>2018-07-08T10:24:45Z</time>
      </trkpt>
      <trkpt lat="42.66609" lon="1.96635">
        <ele>1304</ele>
        <time>2018-07-08T10:24:55Z</time>
      </trkpt>
      <trkpt lat="42.6662" lon="1.96628">
        <ele>1305</ele>
        <time>2018-07-08T10:25:05Z</time>
      </trkpt>
      <trkpt lat="42.6663" lon="1.96622">
        <ele>1305</ele>
        <time>2018-07-08T10:25:14Z</time>
      </trkpt>
      <trkpt lat="42.66638" lon="1.96616">
        <ele>1305</ele>
        <time>2018-07-08T10:25:23Z</time>
      </trkpt>
      <trkpt lat="42.66641" lon="1.96604">
        <ele>1304</ele>
        <time>2018-07-08T10:25:33Z</time>
      </trkpt>
      <trkpt lat="42.66644" lon="1.96591">
        <ele>1304</ele>
        <time>2018-07-08T10:25:44Z</time>
      </trkpt>
      <trkpt lat="42.66646" lon="1.96579">
        <ele>1309</ele>
        <time>2018-07-08T10:25:55Z</time>
      </trkpt>
      <trkpt lat="42.66646" lon="1.96562">
        <ele>1311</ele>
        <time>2018-07-08T10:26:06Z</time>
      </trkpt>
      <trkpt lat="42.6664" lon="1.9655">
        <ele>1314</ele>
        <time>2018-07-08T10:26:16Z</time>
      </trkpt>
      <trkpt lat="42.66635" lon="1.96536">
        <ele>1316</ele>
        <time>2018-07-08T10:26:26Z</time>
      </trkpt>
      <trkpt lat="42.66638" lon="1.96518">
        <ele>1315</ele>
        <time>2018-07-08T10:26:39Z</time>
      </trkpt>
      <trkpt lat="42.66645" lon="1.96505">
        <ele>1310</ele>
        <time>2018-07-08T10:26:54Z</time>
      </trkpt>
      <trkpt lat="42.66658" lon="1.96495">
        <ele>1308</ele>
        <time>2018-07-08T10:27:09Z</time>
      </trkpt>
      <trkpt lat="42.66674" lon="1.96478">
        <ele>1293</ele>
        <time>2018-07-08T10:27:24Z</time>
      </trkpt>
      <trkpt lat="42.6668" lon="1.96461">
        <ele>1294</ele>
        <time>2018-07-08T10:27:36Z</time>
      </trkpt>
      <trkpt lat="42.66684" lon="1.96441">
        <ele>1297</ele>
        <time>2018-07-08T10:27:51Z</time>
      </trkpt>
      <trkpt lat="42.66686" lon="1.96424">
        <ele>1300</ele>
        <time>2018-07-08T10:28:03Z</time>
      </trkpt>
      <trkpt lat="42.66698" lon="1.96409">
        <ele>1305</ele>
        <time>2018-07-08T10:28:20Z</time>
      </trkpt>
      <trkpt lat="42.66709" lon="1.96399">
        <ele>1302</ele>
        <time>2018-07-08T10:28:35Z</time>
      </trkpt>
      <trkpt lat="42.66725" lon="1.96371">
        <ele>1301</ele>
        <time>2018-07-08T10:28:53Z</time>
      </trkpt>
      <trkpt lat="42.66731" lon="1.96356">
        <ele>1300</ele>
        <time>2018-07-08T10:29:06Z</time>
      </trkpt>
      <trkpt lat="42.66735" lon="1.96336">
        <ele>1298</ele>
        <time>2018-07-08T10:29:20Z</time>
      </trkpt>
      <trkpt lat="42.66761" lon="1.96302">
        <ele>1290</ele>
        <time>2018-07-08T10:29:41Z</time>
      </trkpt>
      <trkpt lat="42.66777" lon="1.96284">
        <ele>1291</ele>
        <time>2018-07-08T10:29:52Z</time>
      </trkpt>
      <trkpt lat="42.66787" lon="1.96276">
        <ele>1289</ele>
        <time>2018-07-08T10:30:01Z</time>
      </trkpt>
      <trkpt lat="42.66795" lon="1.96269">
        <ele>1288</ele>
        <time>2018-07-08T10:30:10Z</time>
      </trkpt>
      <trkpt lat="42.66805" lon="1.96264">
        <ele>1285</ele>
        <time>2018-07-08T10:30:20Z</time>
      </trkpt>
      <trkpt lat="42.66811" lon="1.96253">
        <ele>1283</ele>
        <time>2018-07-08T10:30:31Z</time>
      </trkpt>
      <trkpt lat="42.66817" lon="1.96238">
        <ele>1295</ele>
        <time>2018-07-08T10:30:41Z</time>
      </trkpt>
      <trkpt lat="42.66822" lon="1.96226">
        <ele>1298</ele>
        <time>2018-07-08T10:30:52Z</time>
      </trkpt>
      <trkpt lat="42.6683" lon="1.96213">
        <ele>1302</ele>
        <time>2018-07-08T10:31:05Z</time>
      </trkpt>
      <trkpt lat="42.6684" lon="1.96203">
        <ele>1284</ele>
        <time>2018-07-08T10:31:16Z</time>
      </trkpt>
      <trkpt lat="42.66852" lon="1.96195">
        <ele>1285</ele>
        <time>2018-07-08T10:31:27Z</time>
      </trkpt>
      <trkpt lat="42.66864" lon="1.96186">
        <ele>1284</ele>
        <time>2018-07-08T10:31:38Z</time>
      </trkpt>
      <trkpt lat="42.66875" lon="1.96173">
        <ele>1282</ele>
        <time>2018-07-08T10:31:48Z</time>
      </trkpt>
      <trkpt lat="42.66887" lon="1.96163">
        <ele>1292</ele>
        <time>2018-07-08T10:32:03Z</time>
      </trkpt>
      <trkpt lat="42.66903" lon="1.96152">
        <ele>1287</ele>
        <time>2018-07-08T10:32:18Z</time>
      </trkpt>
      <trkpt lat="42.66917" lon="1.96133">
        <ele>1273</ele>
        <time>2018-07-08T10:32:36Z</time>
      </trkpt>
      <trkpt lat="42.66932" lon="1.96117">
        <ele>1274</ele>
        <time>2018-07-08T10:32:49Z</time>
      </trkpt>
      <trkpt lat="42.66942" lon="1.96105">
        <ele>1275</ele>
        <time>2018-07-08T10:33:03Z</time>
      </trkpt>
      <trkpt lat="42.66954" lon="1.96088">
        <ele>1272</ele>
        <time>2018-07-08T10:33:26Z</time>
      </trkpt>
      <trkpt lat="42.66967" lon="1.96074">
        <ele>1273</ele>
        <time>2018-07-08T10:33:39Z</time>
      </trkpt>
      <trkpt lat="42.66979" lon="1.96056">
        <ele>1272</ele>
        <time>2018-07-08T10:33:52Z</time>
      </trkpt>
      <trkpt lat="42.66989" lon="1.96046">
        <ele>1270</ele>
        <time>2018-07-08T10:34:04Z</time>
      </trkpt>
      <trkpt lat="42.66994" lon="1.96033">
        <ele>1270</ele>
        <time>2018-07-08T10:34:15Z</time>
      </trkpt>
      <trkpt lat="42.67002" lon="1.96023">
        <ele>1252</ele>
        <time>2018-07-08T10:34:25Z</time>
      </trkpt>
      <trkpt lat="42.67006" lon="1.96009">
        <ele>1253</ele>
        <time>2018-07-08T10:34:35Z</time>
      </trkpt>
      <trkpt lat="42.67013" lon="1.95994">
        <ele>1252</ele>
        <time>2018-07-08T10:34:44Z</time>
      </trkpt>
      <trkpt lat="42.67018" lon="1.95982">
        <ele>1252</ele>
        <time>2018-07-08T10:34:53Z</time>
      </trkpt>
      <trkpt lat="42.67021" lon="1.95964">
        <ele>1252</ele>
        <time>2018-07-08T10:35:04Z</time>
      </trkpt>
      <trkpt lat="42.67024" lon="1.95948">
        <ele>1254</ele>
        <time>2018-07-08T10:35:16Z</time>
      </trkpt>
      <trkpt lat="42.67026" lon="1.95936">
        <ele>1254</ele>
        <time>2018-07-08T10:35:25Z</time>
      </trkpt>
      <trkpt lat="42.67026" lon="1.95912">
        <ele>1255</ele>
        <time>2018-07-08T10:35:36Z</time>
      </trkpt>
      <trkpt lat="42.67033" lon="1.95885">
        <ele>1251</ele>
        <time>2018-07-08T10:35:47Z</time>
      </trkpt>
      <trkpt lat="42.67035" lon="1.95863">
        <ele>1249</ele>
        <time>2018-07-08T10:36:00Z</time>
      </trkpt>
      <trkpt lat="42.67036" lon="1.95844">
        <ele>1249</ele>
        <time>2018-07-08T10:36:13Z</time>
      </trkpt>
      <trkpt lat="42.67039" lon="1.95825">
        <ele>1247</ele>
        <time>2018-07-08T10:36:24Z</time>
      </trkpt>
      <trkpt lat="42.67042" lon="1.95812">
        <ele>1246</ele>
        <time>2018-07-08T10:36:33Z</time>
      </trkpt>
      <trkpt lat="42.67046" lon="1.95796">
        <ele>1246</ele>
        <time>2018-07-08T10:36:45Z</time>
      </trkpt>
      <trkpt lat="42.67046" lon="1.95779">
        <ele>1246</ele>
        <time>2018-07-08T10:36:56Z</time>
      </trkpt>
      <trkpt lat="42.67046" lon="1.95756">
        <ele>1246</ele>
        <time>2018-07-08T10:37:12Z</time>
      </trkpt>
      <trkpt lat="42.67055" lon="1.95746">
        <ele>1250</ele>
        <time>2018-07-08T10:37:26Z</time>
      </trkpt>
      <trkpt lat="42.67069" lon="1.95743">
        <ele>1242</ele>
        <time>2018-07-08T10:37:38Z</time>
      </trkpt>
      <trkpt lat="42.6708" lon="1.95746">
        <ele>1232</ele>
        <time>2018-07-08T10:37:51Z</time>
      </trkpt>
      <trkpt lat="42.67094" lon="1.95747">
        <ele>1224</ele>
        <time>2018-07-08T10:38:06Z</time>
      </trkpt>
      <trkpt lat="42.67109" lon="1.95744">
        <ele>1223</ele>
        <time>2018-07-08T10:38:25Z</time>
      </trkpt>
      <trkpt lat="42.67129" lon="1.95736">
        <ele>1221</ele>
        <time>2018-07-08T10:38:44Z</time>
      </trkpt>
      <trkpt lat="42.67152" lon="1.95726">
        <ele>1219</ele>
        <time>2018-07-08T10:39:06Z</time>
      </trkpt>
      <trkpt lat="42.67173" lon="1.9571">
        <ele>1211</ele>
        <time>2018-07-08T10:39:26Z</time>
      </trkpt>
      <trkpt lat="42.67185" lon="1.95696">
        <ele>1212</ele>
        <time>2018-07-08T10:39:41Z</time>
      </trkpt>
      <trkpt lat="42.67198" lon="1.9568">
        <ele>1211</ele>
        <time>2018-07-08T10:39:57Z</time>
      </trkpt>
      <trkpt lat="42.67214" lon="1.95661">
        <ele>1215</ele>
        <time>2018-07-08T10:40:15Z</time>
      </trkpt>
      <trkpt lat="42.67229" lon="1.95645">
        <ele>1213</ele>
        <time>2018-07-08T10:40:32Z</time>
      </trkpt>
      <trkpt lat="42.67243" lon="1.9564">
        <ele>1212</ele>
        <time>2018-07-08T10:40:45Z</time>
      </trkpt>
      <trkpt lat="42.67262" lon="1.9563">
        <ele>1203</ele>
        <time>2018-07-08T10:41:04Z</time>
      </trkpt>
      <trkpt lat="42.67289" lon="1.95607">
        <ele>1202</ele>
        <time>2018-07-08T10:41:28Z</time>
      </trkpt>
      <trkpt lat="42.67301" lon="1.95582">
        <ele>1205</ele>
        <time>2018-07-08T10:41:38Z</time>
      </trkpt>
      <trkpt lat="42.67303" lon="1.95566">
        <ele>1205</ele>
        <time>2018-07-08T10:41:49Z</time>
      </trkpt>
      <trkpt lat="42.67305" lon="1.95541">
        <ele>1208</ele>
        <time>2018-07-08T10:41:58Z</time>
      </trkpt>
      <trkpt lat="42.67305" lon="1.9553">
        <ele>1208</ele>
        <time>2018-07-08T10:42:07Z</time>
      </trkpt>
      <trkpt lat="42.67314" lon="1.95523">
        <ele>1208</ele>
        <time>2018-07-08T10:42:20Z</time>
      </trkpt>
      <trkpt lat="42.67326" lon="1.9553">
        <ele>1206</ele>
        <time>2018-07-08T10:42:32Z</time>
      </trkpt>
      <trkpt lat="42.67326" lon="1.95542">
        <ele>1205</ele>
        <time>2018-07-08T10:42:42Z</time>
      </trkpt>
      <trkpt lat="42.67327" lon="1.95553">
        <ele>1204</ele>
        <time>2018-07-08T10:42:52Z</time>
      </trkpt>
      <trkpt lat="42.67332" lon="1.95561">
        <ele>1201</ele>
        <time>2018-07-08T10:43:01Z</time>
      </trkpt>
      <trkpt lat="42.67338" lon="1.95549">
        <ele>1194</ele>
        <time>2018-07-08T10:43:10Z</time>
      </trkpt>
      <trkpt lat="42.67343" lon="1.95538">
        <ele>1195</ele>
        <time>2018-07-08T10:43:21Z</time>
      </trkpt>
      <trkpt lat="42.67354" lon="1.95531">
        <ele>1195</ele>
        <time>2018-07-08T10:43:31Z</time>
      </trkpt>
      <trkpt lat="42.67363" lon="1.95528">
        <ele>1194</ele>
        <time>2018-07-08T10:43:41Z</time>
      </trkpt>
      <trkpt lat="42.67372" lon="1.95521">
        <ele>1194</ele>
        <time>2018-07-08T10:43:51Z</time>
      </trkpt>
      <trkpt lat="42.6738" lon="1.95511">
        <ele>1193</ele>
        <time>2018-07-08T10:44:04Z</time>
      </trkpt>
      <trkpt lat="42.67394" lon="1.955">
        <ele>1191</ele>
        <time>2018-07-08T10:44:17Z</time>
      </trkpt>
      <trkpt lat="42.67405" lon="1.95488">
        <ele>1196</ele>
        <time>2018-07-08T10:44:26Z</time>
      </trkpt>
      <trkpt lat="42.67412" lon="1.95477">
        <ele>1198</ele>
        <time>2018-07-08T10:44:36Z</time>
      </trkpt>
      <trkpt lat="42.67424" lon="1.95469">
        <ele>1190</ele>
        <time>2018-07-08T10:44:51Z</time>
      </trkpt>
      <trkpt lat="42.67441" lon="1.95453">
        <ele>1190</ele>
        <time>2018-07-08T10:45:04Z</time>
      </trkpt>
      <trkpt lat="42.67454" lon="1.95445">
        <ele>1190</ele>
        <time>2018-07-08T10:45:14Z</time>
      </trkpt>
      <trkpt lat="42.67459" lon="1.95434">
        <ele>1189</ele>
        <time>2018-07-08T10:45:23Z</time>
      </trkpt>
      <trkpt lat="42.67462" lon="1.95421">
        <ele>1189</ele>
        <time>2018-07-08T10:45:33Z</time>
      </trkpt>
      <trkpt lat="42.67462" lon="1.95409">
        <ele>1195</ele>
        <time>2018-07-08T10:45:43Z</time>
      </trkpt>
      <trkpt lat="42.67469" lon="1.954">
        <ele>1194</ele>
        <time>2018-07-08T10:45:54Z</time>
      </trkpt>
      <trkpt lat="42.67478" lon="1.95395">
        <ele>1193</ele>
        <time>2018-07-08T10:46:05Z</time>
      </trkpt>
      <trkpt lat="42.67486" lon="1.95384">
        <ele>1194</ele>
        <time>2018-07-08T10:46:15Z</time>
      </trkpt>
      <trkpt lat="42.67497" lon="1.95377">
        <ele>1194</ele>
        <time>2018-07-08T10:46:28Z</time>
      </trkpt>
      <trkpt lat="42.67513" lon="1.95372">
        <ele>1183</ele>
        <time>2018-07-08T10:46:42Z</time>
      </trkpt>
      <trkpt lat="42.67527" lon="1.95357">
        <ele>1183</ele>
        <time>2018-07-08T10:46:51Z</time>
      </trkpt>
      <trkpt lat="42.67537" lon="1.95349">
        <ele>1182</ele>
        <time>2018-07-08T10:47:01Z</time>
      </trkpt>
      <trkpt lat="42.67548" lon="1.95347">
        <ele>1180</ele>
        <time>2018-07-08T10:47:10Z</time>
      </trkpt>
      <trkpt lat="42.6756" lon="1.95347">
        <ele>1178</ele>
        <time>2018-07-08T10:47:20Z</time>
      </trkpt>
      <trkpt lat="42.67569" lon="1.9534">
        <ele>1175</ele>
        <time>2018-07-08T10:47:32Z</time>
      </trkpt>
      <trkpt lat="42.67581" lon="1.95326">
        <ele>1174</ele>
        <time>2018-07-08T10:47:43Z</time>
      </trkpt>
      <trkpt lat="42.67583" lon="1.95315">
        <ele>1179</ele>
        <time>2018-07-08T10:47:55Z</time>
      </trkpt>
      <trkpt lat="42.67582" lon="1.95298">
        <ele>1182</ele>
        <time>2018-07-08T10:48:06Z</time>
      </trkpt>
      <trkpt lat="42.67586" lon="1.95275">
        <ele>1171</ele>
        <time>2018-07-08T10:48:18Z</time>
      </trkpt>
      <trkpt lat="42.67591" lon="1.95261">
        <ele>1173</ele>
        <time>2018-07-08T10:48:28Z</time>
      </trkpt>
      <trkpt lat="42.67595" lon="1.95248">
        <ele>1176</ele>
        <time>2018-07-08T10:48:40Z</time>
      </trkpt>
      <trkpt lat="42.67606" lon="1.95225">
        <ele>1177</ele>
        <time>2018-07-08T10:48:49Z</time>
      </trkpt>
      <trkpt lat="42.67617" lon="1.95215">
        <ele>1177</ele>
        <time>2018-07-08T10:48:58Z</time>
      </trkpt>
      <trkpt lat="42.67625" lon="1.95207">
        <ele>1177</ele>
        <time>2018-07-08T10:49:07Z</time>
      </trkpt>
      <trkpt lat="42.67638" lon="1.95202">
        <ele>1175</ele>
        <time>2018-07-08T10:49:18Z</time>
      </trkpt>
      <trkpt lat="42.67647" lon="1.95194">
        <ele>1175</ele>
        <time>2018-07-08T10:49:27Z</time>
      </trkpt>
      <trkpt lat="42.67656" lon="1.95188">
        <ele>1174</ele>
        <time>2018-07-08T10:49:38Z</time>
      </trkpt>
      <trkpt lat="42.67672" lon="1.95182">
        <ele>1167</ele>
        <time>2018-07-08T10:49:52Z</time>
      </trkpt>
      <trkpt lat="42.67686" lon="1.95179">
        <ele>1166</ele>
        <time>2018-07-08T10:50:04Z</time>
      </trkpt>
      <trkpt lat="42.67693" lon="1.95167">
        <ele>1166</ele>
        <time>2018-07-08T10:50:15Z</time>
      </trkpt>
      <trkpt lat="42.67707" lon="1.95147">
        <ele>1166</ele>
        <time>2018-07-08T10:50:27Z</time>
      </trkpt>
      <trkpt lat="42.67718" lon="1.95135">
        <ele>1166</ele>
        <time>2018-07-08T10:50:36Z</time>
      </trkpt>
      <trkpt lat="42.67725" lon="1.95123">
        <ele>1165</ele>
        <time>2018-07-08T10:50:47Z</time>
      </trkpt>
      <trkpt lat="42.67734" lon="1.95113">
        <ele>1164</ele>
        <time>2018-07-08T10:50:57Z</time>
      </trkpt>
      <trkpt lat="42.67744" lon="1.95102">
        <ele>1163</ele>
        <time>2018-07-08T10:51:06Z</time>
      </trkpt>
      <trkpt lat="42.67754" lon="1.95093">
        <ele>1158</ele>
        <time>2018-07-08T10:51:16Z</time>
      </trkpt>
      <trkpt lat="42.67761" lon="1.95081">
        <ele>1157</ele>
        <time>2018-07-08T10:51:25Z</time>
      </trkpt>
      <trkpt lat="42.67769" lon="1.9507">
        <ele>1156</ele>
        <time>2018-07-08T10:51:33Z</time>
      </trkpt>
      <trkpt lat="42.67774" lon="1.9506">
        <ele>1156</ele>
        <time>2018-07-08T10:51:43Z</time>
      </trkpt>
      <trkpt lat="42.67781" lon="1.95053">
        <ele>1155</ele>
        <time>2018-07-08T10:51:59Z</time>
      </trkpt>
      <trkpt lat="42.67791" lon="1.95033">
        <ele>1155</ele>
        <time>2018-07-08T10:52:12Z</time>
      </trkpt>
      <trkpt lat="42.67804" lon="1.95023">
        <ele>1153</ele>
        <time>2018-07-08T10:52:23Z</time>
      </trkpt>
      <trkpt lat="42.67818" lon="1.95018">
        <ele>1151</ele>
        <time>2018-07-08T10:52:34Z</time>
      </trkpt>
      <trkpt lat="42.67829" lon="1.95012">
        <ele>1149</ele>
        <time>2018-07-08T10:52:44Z</time>
      </trkpt>
      <trkpt lat="42.67835" lon="1.95007">
        <ele>1148</ele>
        <time>2018-07-08T10:52:54Z</time>
      </trkpt>
      <trkpt lat="42.67843" lon="1.94996">
        <ele>1147</ele>
        <time>2018-07-08T10:53:05Z</time>
      </trkpt>
      <trkpt lat="42.6785" lon="1.94983">
        <ele>1149</ele>
        <time>2018-07-08T10:53:15Z</time>
      </trkpt>
      <trkpt lat="42.67855" lon="1.94969">
        <ele>1149</ele>
        <time>2018-07-08T10:53:27Z</time>
      </trkpt>
      <trkpt lat="42.67863" lon="1.94958">
        <ele>1150</ele>
        <time>2018-07-08T10:53:37Z</time>
      </trkpt>
      <trkpt lat="42.6787" lon="1.94939">
        <ele>1150</ele>
        <time>2018-07-08T10:54:03Z</time>
      </trkpt>
      <trkpt lat="42.67871" lon="1.94928">
        <ele>1149</ele>
        <time>2018-07-08T10:54:15Z</time>
      </trkpt>
    </trkseg>
  </trk>
</gpx>